Provisional Data: Chemung River at West Elmira, NY


Please select a monitoring station.
Please select start date.
Please select start date.

Toggle Unit: C/F Toggle Unit: C/F
Sample Time Temperature (C) Temperature (F) Specific Conductivity (mS/cm) pH   Turbidity (NTU+) DO (mg/L)
12/23/2021 12:00:00 AM 1.45 34.61 0.271 8.12 3.94 14.07
12/23/2021 12:15:00 AM 1.42 34.556 0.271 8.12 4.14 14.06
12/23/2021 12:30:00 AM 1.4 34.52 0.271 8.11 3.76 14.06
12/23/2021 12:45:00 AM 1.39 34.502 0.271 8.11 4.19 14.05
12/23/2021 1:00:00 AM 1.37 34.466 0.271 8.1 4.34 14.05
12/23/2021 1:15:00 AM 1.35 34.43 0.271 8.1 4.2 14.02
12/23/2021 1:30:00 AM 1.33 34.394 0.271 8.1 3.98 14.03
12/23/2021 1:45:00 AM 1.31 34.358 0.271 8.09 4.06 14.02
12/23/2021 2:00:00 AM 1.29 34.322 0.271 8.09 3.97 14.02
12/23/2021 2:15:00 AM 1.27 34.286 0.271 8.09 5.55 14
12/23/2021 2:30:00 AM 1.26 34.268 0.272 8.08 3.96 14
12/23/2021 2:45:00 AM 1.25 34.25 0.272 8.08 4.21 13.98
12/23/2021 3:00:00 AM 1.24 34.232 0.272 8.08 4.6 13.98
12/23/2021 3:15:00 AM 1.23 34.214 0.272 8.07 3.94 13.96
12/23/2021 3:30:00 AM 1.23 34.214 0.272 8.07 4.12 13.95
12/23/2021 3:45:00 AM 1.22 34.196 0.272 8.07 4.05 13.94
12/23/2021 4:00:00 AM 1.21 34.178 0.273 8.06 4.14 13.93
12/23/2021 4:15:00 AM 1.2 34.16 0.273 8.06 4.21 13.91
12/23/2021 4:30:00 AM 1.19 34.142 0.273 8.05 3.99 13.91
12/23/2021 4:45:00 AM 1.18 34.124 0.273 8.04 4.22 13.88
12/23/2021 5:00:00 AM 1.16 34.088 0.273 8.04 4.7 13.86
12/23/2021 5:15:00 AM 1.15 34.07 0.273 8.03 4.06 13.86
12/23/2021 5:30:00 AM 1.14 34.052 0.273 8.03 4.16 13.84
12/23/2021 5:45:00 AM 1.12 34.016 0.273 8.02 4.21 13.83
12/23/2021 6:00:00 AM 1.11 33.998 0.274 8.01 4.21 13.81
12/23/2021 6:15:00 AM 1.09 33.962 0.274 8.01 4.54 13.81
12/23/2021 6:30:00 AM 1.08 33.944 0.274 8 4.08 13.78
12/23/2021 6:45:00 AM 1.07 33.926 0.274 7.99 4.12 13.77
12/23/2021 7:00:00 AM 1.05 33.89 0.274 7.99 4.12 13.76
12/23/2021 7:15:00 AM 1.03 33.854 0.274 7.98 3.91 13.76
12/23/2021 7:30:00 AM 1.02 33.836 0.274 7.98 4.06 13.75
12/23/2021 7:45:00 AM 1 33.8 0.274 7.97 3.84 13.75
12/23/2021 8:00:00 AM 0.99 33.782 0.274 7.97 4.15 13.75
12/23/2021 8:15:00 AM 0.97 33.746 0.274 7.97 4.36 13.76
12/23/2021 8:30:00 AM 0.96 33.728 0.275 7.97 4.39 13.8
12/23/2021 8:45:00 AM 0.95 33.71 0.275 7.98 4.12 13.83
12/23/2021 9:00:00 AM 0.94 33.692 0.275 7.98 3.85 13.89
12/23/2021 9:15:00 AM 0.94 33.692 0.274 7.99 4.04 13.96
12/23/2021 9:30:00 AM 0.94 33.692 0.274 8.01 3.91 14.05
12/23/2021 9:45:00 AM 0.95 33.71 0.274 8.03 4.09 14.15
12/23/2021 10:00:00 AM 0.97 33.746 0.274 8.05 4.34 14.26
12/23/2021 10:15:00 AM 0.99 33.782 0.274 8.07 4.02 14.37
12/23/2021 10:30:00 AM 1.02 33.836 0.274 8.1 3.74 14.48
12/23/2021 10:45:00 AM 1.04 33.872 0.274 8.13 3.87 14.58
12/23/2021 11:00:00 AM 1.06 33.908 0.274 8.15 3.82 14.69
12/23/2021 11:15:00 AM 1.1 33.98 0.273 8.18 4.34 14.79
12/23/2021 11:30:00 AM 1.13 34.034 0.273 8.2 4.64 14.86
12/23/2021 11:45:00 AM 1.16 34.088 0.273 8.23 4.04 14.93
12/23/2021 12:00:00 PM 1.17 34.106 0.273 8.26 3.8 15.03
12/23/2021 12:15:00 PM 1.19 34.142 0.273 8.28 3.8 15.12
12/23/2021 12:30:00 PM 1.2 34.16 0.273 8.31 3.86 15.18
12/23/2021 12:45:00 PM 1.22 34.196 0.273 8.33 3.9 15.25
12/23/2021 1:00:00 PM 1.24 34.232 0.273 8.35 3.84 15.32
12/23/2021 1:15:00 PM 1.26 34.268 0.273 8.38 3.58 15.4
12/23/2021 1:30:00 PM 1.29 34.322 0.272 8.41 3.79 15.49
12/23/2021 1:45:00 PM 1.32 34.376 0.272 8.43 3.63 15.56
12/23/2021 2:00:00 PM 1.34 34.412 0.272 8.46 3.74 15.62
12/23/2021 2:15:00 PM 1.37 34.466 0.272 8.48 3.6 15.7
12/23/2021 2:30:00 PM 1.4 34.52 0.272 8.51 3.98 15.76
12/23/2021 2:45:00 PM 1.41 34.538 0.272 8.53 3.67 15.82
12/23/2021 3:00:00 PM 1.42 34.556 0.272 8.54 3.82 15.83
12/23/2021 3:15:00 PM 1.42 34.556 0.272 8.55 3.86 15.85
12/23/2021 3:30:00 PM 1.42 34.556 0.272 8.56 3.66 15.88
12/23/2021 3:45:00 PM 1.43 34.574 0.271 8.57 3.85 15.88
12/23/2021 4:00:00 PM 1.42 34.556 0.271 8.57 3.38 15.86
12/23/2021 4:15:00 PM 1.42 34.556 0.271 8.57 3.49 15.85
12/23/2021 4:30:00 PM 1.42 34.556 0.271 8.57 3.61 15.82
12/23/2021 4:45:00 PM 1.41 34.538 0.271 8.56 3.98 15.76
12/23/2021 5:00:00 PM 1.41 34.538 0.272 8.55 3.54 15.69
12/23/2021 5:15:00 PM 1.41 34.538 0.272 8.53 3.83 15.62
12/23/2021 5:30:00 PM 1.4 34.52 0.272 8.52 3.77 15.55
12/23/2021 5:45:00 PM 1.41 34.538 0.272 8.5 3.86 15.47
12/23/2021 6:00:00 PM 1.41 34.538 0.272 8.48 3.98 15.4
12/23/2021 6:15:00 PM 1.41 34.538 0.272 8.47 4.02 15.35
12/23/2021 6:30:00 PM 1.42 34.556 0.273 8.45 4.05 15.29
12/23/2021 6:45:00 PM 1.43 34.574 0.273 8.44 3.76 15.24
12/23/2021 7:00:00 PM 1.44 34.592 0.273 8.43 4.07 15.18
12/23/2021 7:15:00 PM 1.45 34.61 0.273 8.41 3.89 15.13
12/23/2021 7:30:00 PM 1.46 34.628 0.273 8.4 3.92 15.08
12/23/2021 7:45:00 PM 1.46 34.628 0.274 8.39 3.98 15.03
12/23/2021 8:00:00 PM 1.47 34.646 0.274 8.38 3.98 15
12/23/2021 8:15:00 PM 1.47 34.646 0.274 8.37 4.15 14.96
12/23/2021 8:30:00 PM 1.48 34.664 0.274 8.36 3.88 14.92
12/23/2021 8:45:00 PM 1.48 34.664 0.274 8.35 4.2 14.89
12/23/2021 9:00:00 PM 1.48 34.664 0.275 8.34 4.17 14.86
12/23/2021 9:15:00 PM 1.48 34.664 0.275 8.33 3.97 14.82
12/23/2021 9:30:00 PM 1.48 34.664 0.275 8.32 4.03 14.79
12/23/2021 9:45:00 PM 1.47 34.646 0.275 8.31 4.39 14.76
12/23/2021 10:00:00 PM 1.46 34.628 0.275 8.31 4.21 14.73
12/23/2021 10:15:00 PM 1.46 34.628 0.276 8.3 4.05 14.7
12/23/2021 10:30:00 PM 1.45 34.61 0.276 8.29 4.11 14.67
12/23/2021 10:45:00 PM 1.45 34.61 0.276 8.28 4.12 14.65
12/23/2021 11:00:00 PM 1.44 34.592 0.276 8.27 4.36 14.62
12/23/2021 11:15:00 PM 1.44 34.592 0.277 8.26 4.2 14.58
12/23/2021 11:30:00 PM 1.45 34.61 0.277 8.26 3.76 14.57
12/23/2021 11:45:00 PM 1.45 34.61 0.277 8.25 3.92 14.54
12/24/2021 12:00:00 AM 1.45 34.61 0.277 8.24 4.09 14.52
12/24/2021 12:15:00 AM 1.44 34.592 0.277 8.24 4.01 14.49
12/24/2021 12:30:00 AM 1.44 34.592 0.277 8.23 3.96 14.46
12/24/2021 12:45:00 AM 1.44 34.592 0.277 8.23 3.92 14.43
12/24/2021 1:00:00 AM 1.44 34.592 0.277 8.22 4.1 14.41
12/24/2021 1:15:00 AM 1.45 34.61 0.277 8.22 4.03 14.39
12/24/2021 1:30:00 AM 1.45 34.61 0.277 8.22 3.99 14.36
12/24/2021 1:45:00 AM 1.45 34.61 0.277 8.21 3.9 14.34
12/24/2021 2:00:00 AM 1.46 34.628 0.277 8.21 3.91 14.32
12/24/2021 2:15:00 AM 1.46 34.628 0.277 8.2 4.11 14.29
12/24/2021 2:30:00 AM 1.47 34.646 0.277 8.2 4.16 14.27
12/24/2021 2:45:00 AM 1.47 34.646 0.277 8.19 4.03 14.25
12/24/2021 3:00:00 AM 1.47 34.646 0.277 8.18 3.97 14.23
12/24/2021 3:15:00 AM 1.48 34.664 0.277 8.18 4.13 14.2
12/24/2021 3:30:00 AM 1.48 34.664 0.277 8.17 4.28 14.18
12/24/2021 3:45:00 AM 1.48 34.664 0.277 8.17 4.07 14.15
12/24/2021 4:00:00 AM 1.49 34.682 0.277 8.16 3.94 14.12
12/24/2021 4:15:00 AM 1.49 34.682 0.277 8.16 4.01 14.11
12/24/2021 4:30:00 AM 1.49 34.682 0.277 8.15 3.8 14.07
12/24/2021 4:45:00 AM 1.49 34.682 0.277 8.14 3.93 14.05
12/24/2021 5:00:00 AM 1.5 34.7 0.277 8.13 3.99 14.02
12/24/2021 5:15:00 AM 1.5 34.7 0.277 8.13 4.17 14
12/24/2021 5:30:00 AM 1.51 34.718 0.277 8.12 4.1 13.97
12/24/2021 5:45:00 AM 1.51 34.718 0.277 8.11 3.93 13.94
12/24/2021 6:00:00 AM 1.51 34.718 0.277 8.1 3.88 13.92
12/24/2021 6:15:00 AM 1.52 34.736 0.277 8.09 3.95 13.9
12/24/2021 6:30:00 AM 1.52 34.736 0.277 8.08 4.28 13.87
12/24/2021 6:45:00 AM 1.53 34.754 0.277 8.07 3.89 13.85
12/24/2021 7:00:00 AM 1.53 34.754 0.276 8.07 4 13.82
12/24/2021 7:15:00 AM 1.53 34.754 0.276 8.06 3.96 13.8
12/24/2021 7:30:00 AM 1.54 34.772 0.276 8.05 3.63 13.78
12/24/2021 7:45:00 AM 1.54 34.772 0.276 8.04 3.99 13.76
12/24/2021 8:00:00 AM 1.55 34.79 0.276 8.03 4.02 13.74
12/24/2021 8:15:00 AM 1.55 34.79 0.276 8.03 3.92 13.74
12/24/2021 8:30:00 AM 1.56 34.808 0.276 8.02 3.96 13.74
12/24/2021 8:45:00 AM 1.57 34.826 0.276 8.02 3.9 13.76
12/24/2021 9:00:00 AM 1.58 34.844 0.276 8.03 4.17 13.79
12/24/2021 9:15:00 AM 1.59 34.862 0.276 8.03 4.19 13.83
12/24/2021 9:30:00 AM 1.6 34.88 0.276 8.04 3.89 13.87
12/24/2021 9:45:00 AM 1.61 34.898 0.276 8.04 4.12 13.92
12/24/2021 10:00:00 AM 1.62 34.916 0.276 8.05 3.84 13.97
12/24/2021 10:15:00 AM 1.64 34.952 0.276 8.06 4.55 14.04
12/24/2021 10:30:00 AM 1.65 34.97 0.276 8.08 3.99 14.11
12/24/2021 10:45:00 AM 1.68 35.024 0.275 8.09 4.03 14.19
12/24/2021 11:00:00 AM 1.69 35.042 0.275 8.11 3.62 14.27
12/24/2021 11:15:00 AM 1.72 35.096 0.275 8.13 4.18 14.36
12/24/2021 11:30:00 AM 1.74 35.132 0.275 8.16 3.66 14.45
12/24/2021 11:45:00 AM 1.77 35.186 0.275 8.18 3.92 14.55
12/24/2021 12:00:00 PM 1.8 35.24 0.275 8.21 4.07 14.63
12/24/2021 12:15:00 PM 1.83 35.294 0.274 8.24 4.03 14.72
12/24/2021 12:30:00 PM 1.86 35.348 0.274 8.27 4.07 14.82
12/24/2021 12:45:00 PM 1.89 35.402 0.274 8.29 3.89 14.9
12/24/2021 1:00:00 PM 1.91 35.438 0.274 8.32 3.78 14.98
12/24/2021 1:15:00 PM 1.93 35.474 0.274 8.35 3.62 15.07
12/24/2021 1:30:00 PM 1.94 35.492 0.274 8.37 3.9 15.14
12/24/2021 1:45:00 PM 1.97 35.546 0.274 8.4 3.86 15.22
12/24/2021 2:00:00 PM 1.99 35.582 0.274 8.42 3.9 15.26
12/24/2021 2:15:00 PM 2.01 35.618 0.274 8.44 3.74 15.33
12/24/2021 2:30:00 PM 2.04 35.672 0.274 8.47 4.03 15.39
12/24/2021 2:45:00 PM 2.06 35.708 0.274 8.49 3.74 15.45
12/24/2021 3:00:00 PM 2.07 35.726 0.274 8.51 3.76 15.48
12/24/2021 3:15:00 PM 2.09 35.762 0.273 8.52 3.74 15.52
12/24/2021 3:30:00 PM 2.09 35.762 0.273 8.54 3.86 15.55
12/24/2021 3:45:00 PM 2.09 35.762 0.273 8.55 3.48 15.56
12/24/2021 4:00:00 PM 2.09 35.762 0.273 8.55 4.08 15.55
12/24/2021 4:15:00 PM 2.09 35.762 0.273 8.55 3.78 15.53
12/24/2021 4:30:00 PM 2.08 35.744 0.273 8.55 3.81 15.5
12/24/2021 4:45:00 PM 2.07 35.726 0.273 8.54 3.6 15.44
12/24/2021 5:00:00 PM 2.07 35.726 0.273 8.53 3.63 15.37
12/24/2021 5:15:00 PM 2.07 35.726 0.273 8.51 3.7 15.3
12/24/2021 5:30:00 PM 2.07 35.726 0.274 8.5 3.64 15.21
12/24/2021 5:45:00 PM 2.07 35.726 0.274 8.48 3.56 15.15
12/24/2021 6:00:00 PM 2.07 35.726 0.274 8.46 3.54 15.07
12/24/2021 6:15:00 PM 2.08 35.744 0.274 8.45 3.89 15.01
12/24/2021 6:30:00 PM 2.08 35.744 0.274 8.43 3.85 14.94
12/24/2021 6:45:00 PM 2.09 35.762 0.274 8.41 3.81 14.88
12/24/2021 7:00:00 PM 2.09 35.762 0.274 8.4 3.74 14.82
12/24/2021 7:15:00 PM 2.1 35.78 0.274 8.38 3.51 14.76
12/24/2021 7:30:00 PM 2.11 35.798 0.274 8.37 3.74 14.71
12/24/2021 7:45:00 PM 2.12 35.816 0.274 8.35 3.91 14.66
12/24/2021 8:00:00 PM 2.13 35.834 0.274 8.34 3.85 14.61
12/24/2021 8:15:00 PM 2.14 35.852 0.274 8.33 3.63 14.57
12/24/2021 8:30:00 PM 2.16 35.888 0.275 8.32 3.84 14.53
12/24/2021 8:45:00 PM 2.17 35.906 0.275 8.31 3.68 14.5
12/24/2021 9:00:00 PM 2.19 35.942 0.275 8.3 4.15 14.46
12/24/2021 9:15:00 PM 2.2 35.96 0.275 8.29 4.42 14.42
12/24/2021 9:30:00 PM 2.22 35.996 0.275 8.28 3.82 14.4
12/24/2021 9:45:00 PM 2.23 36.014 0.275 8.27 3.83 14.36
12/24/2021 10:00:00 PM 2.25 36.05 0.275 8.27 4.19 14.33
12/24/2021 10:15:00 PM 2.26 36.068 0.275 8.26 3.64 14.29
12/24/2021 10:30:00 PM 2.28 36.104 0.275 8.25 3.64 14.27
12/24/2021 10:45:00 PM 2.3 36.14 0.275 8.24 3.71 14.24
12/24/2021 11:00:00 PM 2.31 36.158 0.275 8.23 3.65 14.2
12/24/2021 11:15:00 PM 2.33 36.194 0.275 8.23 4.01 14.18
12/24/2021 11:30:00 PM 2.34 36.212 0.276 8.22 3.85 14.14
12/24/2021 11:45:00 PM 2.36 36.248 0.276 8.21 3.81 14.11
12/25/2021 12:00:00 AM 2.37 36.266 0.276 8.21 3.91 14.08
12/25/2021 12:15:00 AM 2.38 36.284 0.276 8.2 3.96 14.05
12/25/2021 12:30:00 AM 2.4 36.32 0.276 8.2 3.92 14.03
12/25/2021 12:45:00 AM 2.41 36.338 0.276 8.19 3.98 14
12/25/2021 1:00:00 AM 2.42 36.356 0.276 8.18 4.11 13.97
12/25/2021 1:15:00 AM 2.44 36.392 0.276 8.18 3.8 13.94
12/25/2021 1:30:00 AM 2.45 36.41 0.276 8.17 4.13 13.91
12/25/2021 1:45:00 AM 2.46 36.428 0.276 8.17 3.87 13.88
12/25/2021 2:00:00 AM 2.48 36.464 0.276 8.16 4.02 13.85
12/25/2021 2:15:00 AM 2.49 36.482 0.276 8.16 3.81 13.83
12/25/2021 2:30:00 AM 2.5 36.5 0.276 8.15 4.03 13.81
12/25/2021 2:45:00 AM 2.51 36.518 0.276 8.15 4.17 13.78
12/25/2021 3:00:00 AM 2.53 36.554 0.276 8.14 4.05 13.75
12/25/2021 3:15:00 AM 2.54 36.572 0.276 8.14 3.72 13.73
12/25/2021 3:30:00 AM 2.55 36.59 0.276 8.13 4.12 13.7
12/25/2021 3:45:00 AM 2.56 36.608 0.276 8.13 4.1 13.67
12/25/2021 4:00:00 AM 2.58 36.644 0.276 8.12 3.77 13.64
12/25/2021 4:15:00 AM 2.59 36.662 0.276 8.12 4.01 13.61
12/25/2021 4:30:00 AM 2.6 36.68 0.276 8.11 4.01 13.6
12/25/2021 4:45:00 AM 2.61 36.698 0.276 8.11 3.8 13.56
12/25/2021 5:00:00 AM 2.62 36.716 0.276 8.1 3.79 13.54
12/25/2021 5:15:00 AM 2.63 36.734 0.276 8.09 4.03 13.5
12/25/2021 5:30:00 AM 2.65 36.77 0.276 8.09 4.08 13.47
12/25/2021 5:45:00 AM 2.66 36.788 0.276 8.08 3.78 13.44
12/25/2021 6:00:00 AM 2.67 36.806 0.276 8.07 3.94 13.41
12/25/2021 6:15:00 AM 2.68 36.824 0.275 8.06 3.94 13.38
12/25/2021 6:30:00 AM 2.68 36.824 0.275 8.06 4.11 13.35
12/25/2021 6:45:00 AM 2.69 36.842 0.275 8.05 3.92 13.32
12/25/2021 7:00:00 AM 2.7 36.86 0.275 8.04 3.91 13.28
12/25/2021 7:15:00 AM 2.71 36.878 0.276 8.03 4.04 13.26
12/25/2021 7:30:00 AM 2.72 36.896 0.276 8.02 4.09 13.22
12/25/2021 7:45:00 AM 2.72 36.896 0.276 8.01 4.16 13.2
12/25/2021 8:00:00 AM 2.72 36.896 0.277 8 4.23 13.17
12/25/2021 8:15:00 AM 2.73 36.914 0.277 7.99 4.33 13.15
12/25/2021 8:30:00 AM 2.74 36.932 0.276 7.98 4.55 13.14
12/25/2021 8:45:00 AM 2.74 36.932 0.277 7.98 4.59 13.13
12/25/2021 9:00:00 AM 2.75 36.95 0.276 7.98 4.74 13.14
12/25/2021 9:15:00 AM 2.76 36.968 0.276 7.97 4.46 13.14
12/25/2021 9:30:00 AM 2.78 37.004 0.276 7.97 4.74 13.16
12/25/2021 9:45:00 AM 2.79 37.022 0.275 7.98 4.67 13.17
12/25/2021 10:00:00 AM 2.8 37.04 0.275 7.98 4.62 13.2
12/25/2021 10:15:00 AM 2.83 37.094 0.275 7.99 4.67 13.25
12/25/2021 10:30:00 AM 2.85 37.13 0.275 8 4.43 13.3
12/25/2021 10:45:00 AM 2.88 37.184 0.275 8.01 4.55 13.39
12/25/2021 11:00:00 AM 2.91 37.238 0.275 8.03 4.9 13.49
12/25/2021 11:15:00 AM 2.93 37.274 0.275 8.05 5.09 13.59
12/25/2021 11:30:00 AM 2.95 37.31 0.276 8.08 5.47 13.69
12/25/2021 11:45:00 AM 2.98 37.364 0.276 8.1 6.2 13.77
12/25/2021 12:00:00 PM 3.01 37.418 0.275 8.13 6.16 13.85
12/25/2021 12:15:00 PM 3.02 37.436 0.276 8.14 6.14 13.9
12/25/2021 12:30:00 PM 3.05 37.49 0.275 8.16 5.95 13.95
12/25/2021 12:45:00 PM 3.08 37.544 0.275 8.18 5.95 14.01
12/25/2021 1:00:00 PM 3.11 37.598 0.274 8.2 5.4 14.06
12/25/2021 1:15:00 PM 3.13 37.634 0.274 8.22 5.07 14.1
12/25/2021 1:30:00 PM 3.17 37.706 0.274 8.24 4.95 14.17
12/25/2021 1:45:00 PM 3.2 37.76 0.274 8.26 4.51 14.2
12/25/2021 2:00:00 PM 3.22 37.796 0.274 8.28 4.4 14.24
12/25/2021 2:15:00 PM 3.26 37.868 0.274 8.29 4.39 14.3
12/25/2021 2:30:00 PM 3.28 37.904 0.274 8.31 4.37 14.33
12/25/2021 2:45:00 PM 3.3 37.94 0.274 8.33 4.28 14.37
12/25/2021 3:00:00 PM 3.32 37.976 0.274 8.34 4.27 14.4
12/25/2021 3:15:00 PM 3.35 38.03 0.275 8.36 4.19 14.43
12/25/2021 3:30:00 PM 3.37 38.066 0.275 8.38 3.92 14.47
12/25/2021 3:45:00 PM 3.39 38.102 0.275 8.38 3.89 14.47
12/25/2021 4:00:00 PM 3.4 38.12 0.276 8.39 4.1 14.46
12/25/2021 4:15:00 PM 3.42 38.156 0.277 8.39 4.1 14.45
12/25/2021 4:30:00 PM 3.43 38.174 0.278 8.39 3.89 14.39
12/25/2021 4:45:00 PM 3.44 38.192 0.278 8.37 3.93 14.33
12/25/2021 5:00:00 PM 3.46 38.228 0.279 8.36 3.82 14.26
12/25/2021 5:15:00 PM 3.47 38.246 0.28 8.35 3.88 14.21
12/25/2021 5:30:00 PM 3.48 38.264 0.281 8.33 4.21 14.14
12/25/2021 5:45:00 PM 3.5 38.3 0.281 8.32 3.75 14.08
12/25/2021 6:00:00 PM 3.51 38.318 0.282 8.3 4.08 14.01
12/25/2021 6:15:00 PM 3.52 38.336 0.283 8.29 3.86 13.94
12/25/2021 6:30:00 PM 3.54 38.372 0.283 8.27 3.95 13.89
12/25/2021 6:45:00 PM 3.54 38.372 0.283 8.25 3.8 13.83
12/25/2021 7:00:00 PM 3.56 38.408 0.284 8.24 3.88 13.77
12/25/2021 7:15:00 PM 3.57 38.426 0.284 8.23 3.82 13.73
12/25/2021 7:30:00 PM 3.58 38.444 0.284 8.21 4.23 13.68
12/25/2021 7:45:00 PM 3.6 38.48 0.284 8.2 3.83 13.63
12/25/2021 8:00:00 PM 3.61 38.498 0.285 8.19 3.95 13.59
12/25/2021 8:15:00 PM 3.63 38.534 0.286 8.18 3.93 13.56
12/25/2021 8:30:00 PM 3.66 38.588 0.286 8.17 3.82 13.52
12/25/2021 8:45:00 PM 3.69 38.642 0.287 8.16 4.14 13.48
12/25/2021 9:00:00 PM 3.71 38.678 0.287 8.16 4.31 13.44
12/25/2021 9:15:00 PM 3.73 38.714 0.286 8.15 4.23 13.41
12/25/2021 9:30:00 PM 3.75 38.75 0.286 8.14 4.25 13.38
12/25/2021 9:45:00 PM 3.77 38.786 0.285 8.13 4.23 13.35
12/25/2021 10:00:00 PM 3.79 38.822 0.285 8.13 4.46 13.33
12/25/2021 10:15:00 PM 3.81 38.858 0.284 8.12 4.3 13.3
12/25/2021 10:30:00 PM 3.82 38.876 0.284 8.12 4.33 13.28
12/25/2021 10:45:00 PM 3.83 38.894 0.283 8.11 4.08 13.25
12/25/2021 11:00:00 PM 3.85 38.93 0.283 8.1 4.24 13.23
12/25/2021 11:15:00 PM 3.86 38.948 0.282 8.1 4.44 13.21
12/25/2021 11:30:00 PM 3.87 38.966 0.281 8.1 4.37 13.19
12/25/2021 11:45:00 PM 3.88 38.984 0.281 8.09 4.53 13.16
12/26/2021 12:00:00 AM 3.89 39.002 0.28 8.08 4.25 13.15
12/26/2021 12:15:00 AM 3.9 39.02 0.28 8.08 4.39 13.13
12/26/2021 12:30:00 AM 3.91 39.038 0.279 8.08 4.44 13.11
12/26/2021 12:45:00 AM 3.91 39.038 0.279 8.07 4.53 13.09
12/26/2021 1:00:00 AM 3.93 39.074 0.278 8.07 4.49 13.07
12/26/2021 1:15:00 AM 3.93 39.074 0.277 8.06 4.5 13.05
12/26/2021 1:30:00 AM 3.94 39.092 0.276 8.06 4.64 13.03
12/26/2021 1:45:00 AM 3.94 39.092 0.276 8.06 4.64 13.02
12/26/2021 2:00:00 AM 3.94 39.092 0.275 8.06 4.93 13.01
12/26/2021 2:15:00 AM 3.95 39.11 0.275 8.06 4.76 12.98
12/26/2021 2:30:00 AM 3.95 39.11 0.274 8.05 4.99 12.96
12/26/2021 2:45:00 AM 3.95 39.11 0.274 8.05 4.92 12.94
12/26/2021 3:00:00 AM 3.95 39.11 0.273 8.04 4.72 12.92
12/26/2021 3:15:00 AM 3.96 39.128 0.272 8.04 4.63 12.89
12/26/2021 3:30:00 AM 3.96 39.128 0.272 8.03 4.53 12.87
12/26/2021 3:45:00 AM 3.96 39.128 0.271 8.03 4.81 12.84
12/26/2021 4:00:00 AM 3.96 39.128 0.27 8.02 4.57 12.83
12/26/2021 4:15:00 AM 3.97 39.146 0.27 8.01 4.67 12.8
12/26/2021 4:30:00 AM 3.97 39.146 0.269 8.01 5.03 12.76
12/26/2021 4:45:00 AM 3.97 39.146 0.268 8 4.82 12.75
12/26/2021 5:00:00 AM 3.98 39.164 0.267 7.99 5.17 12.73
12/26/2021 5:15:00 AM 3.98 39.164 0.267 7.99 5.18 12.7
12/26/2021 5:30:00 AM 3.98 39.164 0.266 7.98 5.03 12.68
12/26/2021 5:45:00 AM 3.98 39.164 0.265 7.97 5.25 12.65
12/26/2021 6:00:00 AM 3.98 39.164 0.264 7.96 5.37 12.64
12/26/2021 6:15:00 AM 3.98 39.164 0.264 7.95 5.01 12.61
12/26/2021 6:30:00 AM 3.98 39.164 0.263 7.94 5.51 12.59
12/26/2021 6:45:00 AM 3.98 39.164 0.263 7.94 5.07 12.58
12/26/2021 7:00:00 AM 3.98 39.164 0.263 7.93 5.12 12.57
12/26/2021 7:15:00 AM 3.98 39.164 0.263 7.92 5.54 12.55
12/26/2021 7:30:00 AM 3.98 39.164 0.263 7.92 5.13 12.55
12/26/2021 7:45:00 AM 3.98 39.164 0.263 7.91 5.36 12.53
12/26/2021 8:00:00 AM 3.98 39.164 0.263 7.91 5.72 12.53
12/26/2021 8:15:00 AM 3.98 39.164 0.263 7.91 5.52 12.54
12/26/2021 8:30:00 AM 3.97 39.146 0.263 7.91 5.66 12.57
12/26/2021 8:45:00 AM 3.97 39.146 0.263 7.92 5.72 12.61
12/26/2021 9:00:00 AM 3.96 39.128 0.262 7.93 5.5 12.67
12/26/2021 9:15:00 AM 3.97 39.146 0.262 7.94 5.77 12.73
12/26/2021 9:30:00 AM 3.97 39.146 0.262 7.95 5.42 12.79
12/26/2021 9:45:00 AM 3.98 39.164 0.262 7.97 5.12 12.88
12/26/2021 10:00:00 AM 3.99 39.182 0.262 7.99 5.16 12.95
12/26/2021 10:15:00 AM 4 39.2 0.262 8 5.47 13
12/26/2021 10:30:00 AM 4 39.2 0.262 8.01 5.21 13.04
12/26/2021 10:45:00 AM 4.01 39.218 0.262 8.02 5.35 13.08
12/26/2021 11:00:00 AM 4.01 39.218 0.262 8.03 5.28 13.11
12/26/2021 11:15:00 AM 4.02 39.236 0.262 8.04 5.38 13.14
12/26/2021 11:30:00 AM 4.03 39.254 0.262 8.05 5.44 13.19
12/26/2021 11:45:00 AM 4.04 39.272 0.262 8.07 5.51 13.25
12/26/2021 12:00:00 PM 4.06 39.308 0.262 8.09 5.27 13.34
12/26/2021 12:15:00 PM 4.09 39.362 0.261 8.12 5.25 13.44
12/26/2021 12:30:00 PM 4.11 39.398 0.261 8.15 5.04 13.54
12/26/2021 12:45:00 PM 4.12 39.416 0.261 8.18 5.32 13.64
12/26/2021 1:00:00 PM 4.13 39.434 0.261 8.21 5.01 13.71
12/26/2021 1:15:00 PM 4.13 39.434 0.261 8.22 4.92 13.75
12/26/2021 1:30:00 PM 4.14 39.452 0.261 8.24 4.89 13.8
12/26/2021 1:45:00 PM 4.14 39.452 0.261 8.25 5.05 13.83
12/26/2021 2:00:00 PM 4.14 39.452 0.261 8.27 4.95 13.87
12/26/2021 2:15:00 PM 4.14 39.452 0.261 8.29 5.59 13.93
12/26/2021 2:30:00 PM 4.13 39.434 0.26 8.3 4.87 13.96
12/26/2021 2:45:00 PM 4.12 39.416 0.26 8.31 5.46 13.99
12/26/2021 3:00:00 PM 4.11 39.398 0.26 8.32 5.11 14
12/26/2021 3:15:00 PM 4.11 39.398 0.26 8.33 5.06 14.02
12/26/2021 3:30:00 PM 4.11 39.398 0.26 8.35 5.12 14.06
12/26/2021 3:45:00 PM 4.11 39.398 0.26 8.36 5.03 14.1
12/26/2021 4:00:00 PM 4.11 39.398 0.26 8.37 5.21 14.1
12/26/2021 4:15:00 PM 4.1 39.38 0.26 8.37 5.5 14.09
12/26/2021 4:30:00 PM 4.09 39.362 0.26 8.36 5.26 14.05
12/26/2021 4:45:00 PM 4.08 39.344 0.261 8.35 5.54 14.01
12/26/2021 5:00:00 PM 4.07 39.326 0.261 8.33 5.39 13.95
12/26/2021 5:15:00 PM 4.05 39.29 0.261 8.31 5.41 13.88
12/26/2021 5:30:00 PM 4.05 39.29 0.261 8.29 5.65 13.82
12/26/2021 5:45:00 PM 4.03 39.254 0.261 8.27 5.64 13.76
12/26/2021 6:00:00 PM 4.02 39.236 0.261 8.25 5.92 13.7
12/26/2021 6:15:00 PM 4 39.2 0.261 8.24 5.66 13.66
12/26/2021 6:30:00 PM 3.98 39.164 0.261 8.22 5.78 13.62
12/26/2021 6:45:00 PM 3.97 39.146 0.261 8.21 6.02 13.58
12/26/2021 7:00:00 PM 3.95 39.11 0.261 8.2 5.58 13.56
12/26/2021 7:15:00 PM 3.94 39.092 0.261 8.19 5.58 13.55
12/26/2021 7:30:00 PM 3.93 39.074 0.261 8.19 5.73 13.54
12/26/2021 7:45:00 PM 3.93 39.074 0.26 8.19 5.61 13.53
12/26/2021 8:00:00 PM 3.93 39.074 0.26 8.19 5.77 13.52
12/26/2021 8:15:00 PM 3.94 39.092 0.26 8.19 5.71 13.51
12/26/2021 8:30:00 PM 3.94 39.092 0.26 8.18 6.13 13.51
12/26/2021 8:45:00 PM 3.94 39.092 0.26 8.19 5.98 13.5
12/26/2021 9:00:00 PM 3.95 39.11 0.26 8.19 5.84 13.5
12/26/2021 9:15:00 PM 3.94 39.092 0.26 8.19 5.36 13.48
12/26/2021 9:30:00 PM 3.94 39.092 0.26 8.18 5.78 13.46
12/26/2021 9:45:00 PM 3.93 39.074 0.26 8.18 5.51 13.46
12/26/2021 10:00:00 PM 3.92 39.056 0.26 8.18 5.45 13.44
12/26/2021 10:15:00 PM 3.9 39.02 0.26 8.17 5.53 13.41
12/26/2021 10:30:00 PM 3.89 39.002 0.26 8.16 5.34 13.4
12/26/2021 10:45:00 PM 3.87 38.966 0.26 8.16 5.74 13.37
12/26/2021 11:00:00 PM 3.86 38.948 0.26 8.15 5.52 13.36
12/26/2021 11:15:00 PM 3.85 38.93 0.26 8.15 5.5 13.35
12/26/2021 11:30:00 PM 3.84 38.912 0.26 8.15 5.59 13.33
12/26/2021 11:45:00 PM 3.83 38.894 0.26 8.14 5.45 13.33
12/27/2021 12:00:00 AM 3.83 38.894 0.26 8.13 5.06 13.31
12/27/2021 12:15:00 AM 3.82 38.876 0.259 8.14 5.2 13.3
12/27/2021 12:30:00 AM 3.82 38.876 0.259 8.13 5.48 13.28
12/27/2021 12:45:00 AM 3.81 38.858 0.259 8.13 5.08 13.27
12/27/2021 1:00:00 AM 3.8 38.84 0.259 8.13 5.44 13.26
12/27/2021 1:15:00 AM 3.8 38.84 0.259 8.13 5.2 13.25
12/27/2021 1:30:00 AM 3.79 38.822 0.26 8.12 5.74 13.23
12/27/2021 1:45:00 AM 3.78 38.804 0.26 8.12 4.92 13.21
12/27/2021 2:00:00 AM 3.77 38.786 0.26 8.11 4.95 13.2
12/27/2021 2:15:00 AM 3.76 38.768 0.26 8.11 4.96 13.18
12/27/2021 2:30:00 AM 3.75 38.75 0.26 8.1 5.09 13.16
12/27/2021 2:45:00 AM 3.74 38.732 0.26 8.1 5.12 13.15
12/27/2021 3:00:00 AM 3.72 38.696 0.26 8.08 5.26 13.12
12/27/2021 3:15:00 AM 3.71 38.678 0.26 8.08 5.07 13.11
12/27/2021 3:30:00 AM 3.69 38.642 0.26 8.07 4.96 13.09
12/27/2021 3:45:00 AM 3.68 38.624 0.261 8.07 5.25 13.07
12/27/2021 4:00:00 AM 3.67 38.606 0.261 8.06 4.77 13.05
12/27/2021 4:15:00 AM 3.66 38.588 0.261 8.05 4.9 13.03
12/27/2021 4:30:00 AM 3.65 38.57 0.261 8.04 5.09 13.01
12/27/2021 4:45:00 AM 3.63 38.534 0.261 8.03 4.75 12.99
12/27/2021 5:00:00 AM 3.62 38.516 0.26 8.02 5.02 12.97
12/27/2021 5:15:00 AM 3.6 38.48 0.26 8.02 4.85 12.96
12/27/2021 5:30:00 AM 3.59 38.462 0.26 8.01 4.84 12.94
12/27/2021 5:45:00 AM 3.57 38.426 0.26 8 5.2 12.93
12/27/2021 6:00:00 AM 3.56 38.408 0.26 7.99 5.23 12.91
12/27/2021 6:15:00 AM 3.54 38.372 0.26 7.99 4.83 12.89
12/27/2021 6:30:00 AM 3.53 38.354 0.26 7.98 5.35 12.87
12/27/2021 6:45:00 AM 3.51 38.318 0.26 7.97 5.02 12.87
12/27/2021 7:00:00 AM 3.5 38.3 0.26 7.96 4.88 12.85
12/27/2021 7:15:00 AM 3.49 38.282 0.26 7.96 4.74 12.84
12/27/2021 7:30:00 AM 3.47 38.246 0.26 7.95 5.01 12.82
12/27/2021 7:45:00 AM 3.46 38.228 0.26 7.95 5.13 12.81
12/27/2021 8:00:00 AM 3.45 38.21 0.259 7.94 5.13 12.81
12/27/2021 8:15:00 AM 3.44 38.192 0.259 7.93 5.13 12.79
12/27/2021 8:30:00 AM 3.43 38.174 0.259 7.93 5.15 12.8
12/27/2021 8:45:00 AM 3.42 38.156 0.259 7.92 5.18 12.79
12/27/2021 9:00:00 AM 3.41 38.138 0.259 7.92 6.16 12.8
12/27/2021 9:15:00 AM 3.4 38.12 0.259 7.92 5.52 12.8
12/27/2021 9:30:00 AM 3.39 38.102 0.259 7.92 5.31 12.83
12/27/2021 9:45:00 AM 3.38 38.084 0.259 7.93 5.44 12.86
12/27/2021 10:00:00 AM 3.37 38.066 0.258 7.92 5.5 12.91
12/27/2021 10:15:00 AM 3.37 38.066 0.258 7.94 5.65 12.97
12/27/2021 10:30:00 AM 3.38 38.084 0.258 7.96 5.41 13.05
12/27/2021 10:45:00 AM 3.39 38.102 0.258 7.98 5.33 13.14
12/27/2021 11:00:00 AM 3.4 38.12 0.258 8 5.36 13.23
12/27/2021 11:15:00 AM 3.4 38.12 0.258 8.01 5.59 13.3
12/27/2021 11:30:00 AM 3.4 38.12 0.258 8.04 5.33 13.4
12/27/2021 11:45:00 AM 3.38 38.084 0.258 8.05 5.31 13.45
12/27/2021 12:00:00 PM 3.37 38.066 0.258 8.06 5.29 13.49
12/27/2021 12:15:00 PM 3.35 38.03 0.258 8.07 5.66 13.52
12/27/2021 12:30:00 PM 3.32 37.976 0.258 8.08 5.28 13.55
12/27/2021 12:45:00 PM 3.28 37.904 0.258 8.09 5.39 13.61
12/27/2021 1:00:00 PM 3.23 37.814 0.258 8.11 5.64 13.65
12/27/2021 1:15:00 PM 3.21 37.778 0.258 8.12 5.36 13.7
12/27/2021 1:30:00 PM 3.2 37.76 0.258 8.13 5.29 13.74
12/27/2021 1:45:00 PM 3.19 37.742 0.258 8.14 5.31 13.76
12/27/2021 2:00:00 PM 3.19 37.742 0.259 8.15 5.47 13.79
12/27/2021 2:15:00 PM 3.19 37.742 0.259 8.16 5.29 13.82
12/27/2021 2:30:00 PM 3.18 37.724 0.259 8.16 5.55 13.84
12/27/2021 2:45:00 PM 3.16 37.688 0.259 8.17 5.29 13.86
12/27/2021 3:00:00 PM 3.15 37.67 0.259 8.17 5.37 13.85
12/27/2021 3:15:00 PM 3.14 37.652 0.259 8.17 5.41 13.85
12/27/2021 3:30:00 PM 3.12 37.616 0.259 8.17 5.3 13.84
12/27/2021 3:45:00 PM 3.12 37.616 0.26 8.16 5.62 13.82
12/27/2021 4:00:00 PM 3.11 37.598 0.26 8.15 5.11 13.8
12/27/2021 4:15:00 PM 3.1 37.58 0.26 8.15 5.35 13.78
12/27/2021 4:30:00 PM 3.09 37.562 0.26 8.14 5.21 13.75
12/27/2021 4:45:00 PM 3.08 37.544 0.26 8.13 5.18 13.71
12/27/2021 5:00:00 PM 3.07 37.526 0.26 8.12 5.04 13.68
12/27/2021 5:15:00 PM 3.05 37.49 0.261 8.11 5.35 13.65
12/27/2021 5:30:00 PM 3.04 37.472 0.261 8.1 5.18 13.61
12/27/2021 5:45:00 PM 3.03 37.454 0.261 8.09 5.58 13.58
12/27/2021 6:00:00 PM 3.01 37.418 0.261 8.07 5.13 13.55
12/27/2021 6:15:00 PM 3 37.4 0.261 8.07 5.01 13.53
12/27/2021 6:30:00 PM 2.98 37.364 0.261 8.06 5.23 13.51
12/27/2021 6:45:00 PM 2.98 37.364 0.261 8.05 5.16 13.49
12/27/2021 7:00:00 PM 2.96 37.328 0.261 8.04 4.98 13.47
12/27/2021 7:15:00 PM 2.96 37.328 0.261 8.04 5.29 13.44
12/27/2021 7:30:00 PM 2.95 37.31 0.261 8.02 5.16 13.43
12/27/2021 7:45:00 PM 2.94 37.292 0.261 8.02 5.5 13.41
12/27/2021 8:00:00 PM 2.93 37.274 0.261 8.01 5.26 13.4
12/27/2021 8:15:00 PM 2.93 37.274 0.261 8.01 4.79 13.39
12/27/2021 8:30:00 PM 2.92 37.256 0.261 8 5.06 13.37
12/27/2021 8:45:00 PM 2.92 37.256 0.261 8 4.88 13.36
12/27/2021 9:00:00 PM 2.91 37.238 0.261 7.99 4.85 13.35
12/27/2021 9:15:00 PM 2.91 37.238 0.262 7.99 5 13.34
12/27/2021 9:30:00 PM 2.9 37.22 0.261 7.99 5.43 13.33
12/27/2021 9:45:00 PM 2.9 37.22 0.261 7.98 4.6 13.32
12/27/2021 10:00:00 PM 2.9 37.22 0.261 7.98 4.81 13.31
12/27/2021 10:15:00 PM 2.89 37.202 0.261 7.97 5.27 13.3
12/27/2021 10:30:00 PM 2.89 37.202 0.261 7.97 4.43 13.3
12/27/2021 10:45:00 PM 2.88 37.184 0.261 7.97 4.98 13.28
12/27/2021 11:00:00 PM 2.88 37.184 0.261 7.97 4.84 13.28
12/27/2021 11:15:00 PM 2.88 37.184 0.26 7.96 5.06 13.27
12/27/2021 11:30:00 PM 2.87 37.166 0.26 7.96 4.83 13.26
12/27/2021 11:45:00 PM 2.87 37.166 0.261 7.96 4.33 13.26
12/28/2021 12:00:00 AM 2.86 37.148 0.261 7.95 4.65 13.25
12/28/2021 12:15:00 AM 2.86 37.148 0.261 7.96 4.71 13.24
12/28/2021 12:30:00 AM 2.86 37.148 0.262 7.95 4.39 13.23
12/28/2021 12:45:00 AM 2.86 37.148 0.262 7.94 4.63 13.23
12/28/2021 1:00:00 AM 2.86 37.148 0.263 7.95 4.64 13.22
12/28/2021 1:15:00 AM 2.85 37.13 0.263 7.94 4.7 13.21
12/28/2021 1:30:00 AM 2.85 37.13 0.263 7.94 4.32 13.2
12/28/2021 1:45:00 AM 2.85 37.13 0.263 7.93 4.41 13.2
12/28/2021 2:00:00 AM 2.85 37.13 0.263 7.94 4.23 13.18
12/28/2021 2:15:00 AM 2.85 37.13 0.263 7.93 4.57 13.17
12/28/2021 2:30:00 AM 2.85 37.13 0.263 7.93 4.39 13.16
12/28/2021 2:45:00 AM 2.85 37.13 0.263 7.93 4.73 13.15
12/28/2021 3:00:00 AM 2.85 37.13 0.263 7.92 4.54 13.14
12/28/2021 3:15:00 AM 2.84 37.112 0.263 7.92 4.58 13.13
12/28/2021 3:30:00 AM 2.83 37.094 0.264 7.91 4.67 13.12
12/28/2021 3:45:00 AM 2.83 37.094 0.264 7.91 4.61 13.11
12/28/2021 4:00:00 AM 2.82 37.076 0.264 7.91 4.57 13.09
12/28/2021 4:15:00 AM 2.8 37.04 0.264 7.91 4.51 13.08
12/28/2021 4:30:00 AM 2.79 37.022 0.265 7.9 4.47 13.06
12/28/2021 4:45:00 AM 2.77 36.986 0.265 7.9 4.31 13.05
12/28/2021 5:00:00 AM 2.76 36.968 0.266 7.9 4.31 13.05
12/28/2021 5:15:00 AM 2.74 36.932 0.266 7.9 4.3 13.03
12/28/2021 5:30:00 AM 2.72 36.896 0.267 7.89 4.17 13.02
12/28/2021 5:45:00 AM 2.7 36.86 0.268 7.89 4.33 13.01
12/28/2021 6:00:00 AM 2.68 36.824 0.269 7.89 4.6 13.01
12/28/2021 6:15:00 AM 2.67 36.806 0.269 7.88 4.44 12.99
12/28/2021 6:30:00 AM 2.65 36.77 0.27 7.88 4.55 12.98
12/28/2021 6:45:00 AM 2.64 36.752 0.27 7.87 4.51 12.97
12/28/2021 7:00:00 AM 2.62 36.716 0.27 7.87 4.62 12.96
12/28/2021 7:15:00 AM 2.6 36.68 0.271 7.87 4.62 12.97
12/28/2021 7:30:00 AM 2.59 36.662 0.271 7.87 4.49 12.95
12/28/2021 7:45:00 AM 2.58 36.644 0.271 7.87 4.62 12.96
12/28/2021 8:00:00 AM 2.57 36.626 0.271 7.87 4.5 12.96
12/28/2021 8:15:00 AM 2.56 36.608 0.271 7.87 4.59 12.98
12/28/2021 8:30:00 AM 2.55 36.59 0.271 7.86 4.7 13
12/28/2021 8:45:00 AM 2.54 36.572 0.271 7.88 4.45 13.04
12/28/2021 9:00:00 AM 2.54 36.572 0.271 7.89 4.28 13.09
12/28/2021 9:15:00 AM 2.54 36.572 0.271 7.89 4.18 13.16
12/28/2021 9:30:00 AM 2.54 36.572 0.271 7.92 4.28 13.24
12/28/2021 9:45:00 AM 2.56 36.608 0.271 7.93 5.04 13.35
12/28/2021 10:00:00 AM 2.59 36.662 0.271 7.96 4.35 13.48
12/28/2021 10:15:00 AM 2.63 36.734 0.27 8 4.21 13.6
12/28/2021 10:30:00 AM 2.67 36.806 0.27 8.03 4.16 13.75
12/28/2021 10:45:00 AM 2.71 36.878 0.27 8.07 4.05 13.88
12/28/2021 11:00:00 AM 2.76 36.968 0.27 8.1 4.04 14
12/28/2021 11:15:00 AM 2.79 37.022 0.27 8.13 4.04 14.09
12/28/2021 11:30:00 AM 2.81 37.058 0.27 8.15 4.37 14.17
12/28/2021 11:45:00 AM 2.83 37.094 0.27 8.19 3.94 14.26
12/28/2021 12:00:00 PM 2.87 37.166 0.27 8.22 4.08 14.36
12/28/2021 12:15:00 PM 2.9 37.22 0.27 8.25 3.82 14.44
12/28/2021 12:30:00 PM 2.94 37.292 0.27 8.28 3.94 14.54
12/28/2021 12:45:00 PM 2.98 37.364 0.27 8.31 4.16 14.63
12/28/2021 1:00:00 PM 3.01 37.418 0.27 8.35 3.65 14.73
12/28/2021 1:15:00 PM 3.03 37.454 0.27 8.38 4.03 14.81
12/28/2021 1:30:00 PM 3.04 37.472 0.27 8.4 3.98 14.87
12/28/2021 1:45:00 PM 3.04 37.472 0.27 8.42 3.99 14.89
12/28/2021 2:00:00 PM 3.04 37.472 0.27 8.43 3.86 14.89
12/28/2021 2:15:00 PM 3.04 37.472 0.27 8.44 3.83 14.89
12/28/2021 2:30:00 PM 3.05 37.49 0.27 8.45 3.97 14.91
12/28/2021 2:45:00 PM 3.06 37.508 0.27 8.45 3.99 14.91
12/28/2021 3:00:00 PM 3.07 37.526 0.27 8.46 3.8 14.91
12/28/2021 3:15:00 PM 3.09 37.562 0.27 8.47 3.83 14.91
12/28/2021 3:30:00 PM 3.1 37.58 0.27 8.47 3.67 14.9
12/28/2021 3:45:00 PM 3.11 37.598 0.27 8.47 3.86 14.87
12/28/2021 4:00:00 PM 3.11 37.598 0.27 8.46 3.89 14.81
12/28/2021 4:15:00 PM 3.12 37.616 0.27 8.45 3.91 14.74
12/28/2021 4:30:00 PM 3.12 37.616 0.27 8.44 3.8 14.68
12/28/2021 4:45:00 PM 3.12 37.616 0.27 8.42 4.01 14.63
12/28/2021 5:00:00 PM 3.12 37.616 0.271 8.41 3.63 14.57
12/28/2021 5:15:00 PM 3.12 37.616 0.271 8.4 3.68 14.52
12/28/2021 5:30:00 PM 3.12 37.616 0.271 8.38 3.77 14.46
12/28/2021 5:45:00 PM 3.13 37.634 0.271 8.37 3.93 14.41
12/28/2021 6:00:00 PM 3.13 37.634 0.271 8.36 3.83 14.36
12/28/2021 6:15:00 PM 3.13 37.634 0.271 8.34 3.75 14.31
12/28/2021 6:30:00 PM 3.13 37.634 0.271 8.33 3.83 14.27
12/28/2021 6:45:00 PM 3.12 37.616 0.271 8.32 3.73 14.23
12/28/2021 7:00:00 PM 3.12 37.616 0.27 8.31 3.79 14.18
12/28/2021 7:15:00 PM 3.08 37.544 0.27 8.29 3.98 14.15
12/28/2021 7:30:00 PM 3.05 37.49 0.27 8.28 3.71 14.11
12/28/2021 7:45:00 PM 3.02 37.436 0.27 8.28 4.13 14.08
12/28/2021 8:00:00 PM 3 37.4 0.27 8.27 3.69 14.04
12/28/2021 8:15:00 PM 2.96 37.328 0.27 8.26 3.86 14.01
12/28/2021 8:30:00 PM 2.95 37.31 0.27 8.24 3.76 13.98
12/28/2021 8:45:00 PM 2.92 37.256 0.27 8.24 3.74 13.95
12/28/2021 9:00:00 PM 2.9 37.22 0.27 8.23 3.89 13.91
12/28/2021 9:15:00 PM 2.89 37.202 0.27 8.22 3.77 13.89
12/28/2021 9:30:00 PM 2.89 37.202 0.27 8.21 3.57 13.86
12/28/2021 9:45:00 PM 2.89 37.202 0.27 8.2 3.86 13.83
12/28/2021 10:00:00 PM 2.9 37.22 0.271 8.19 3.86 13.81
12/28/2021 10:15:00 PM 2.9 37.22 0.271 8.18 3.84 13.78
12/28/2021 10:30:00 PM 2.9 37.22 0.271 8.18 3.82 13.75
12/28/2021 10:45:00 PM 2.91 37.238 0.272 8.17 3.77 13.74
12/28/2021 11:00:00 PM 2.91 37.238 0.272 8.16 3.77 13.72
12/28/2021 11:15:00 PM 2.92 37.256 0.272 8.16 3.95 13.69
12/28/2021 11:30:00 PM 2.92 37.256 0.272 8.15 3.95 13.68
12/28/2021 11:45:00 PM 2.93 37.274 0.272 8.14 4 13.66
12/29/2021 12:00:00 AM 2.93 37.274 0.272 8.14 3.62 13.64
12/29/2021 12:15:00 AM 2.93 37.274 0.272 8.13 4.06 13.61
12/29/2021 12:30:00 AM 2.94 37.292 0.272 8.14 3.66 13.6
12/29/2021 12:45:00 AM 2.94 37.292 0.272 8.13 3.74 13.58
12/29/2021 1:00:00 AM 2.95 37.31 0.272 8.12 3.84 13.56
12/29/2021 1:15:00 AM 2.95 37.31 0.272 8.13 3.62 13.54
12/29/2021 1:30:00 AM 2.95 37.31 0.272 8.12 3.68 13.52
12/29/2021 1:45:00 AM 2.95 37.31 0.272 8.12 3.78 13.5
12/29/2021 2:00:00 AM 2.96 37.328 0.271 8.12 3.69 13.48
12/29/2021 2:15:00 AM 2.96 37.328 0.271 8.11 3.79 13.46
12/29/2021 2:30:00 AM 2.96 37.328 0.271 8.11 3.8 13.44
12/29/2021 2:45:00 AM 2.97 37.346 0.272 8.1 3.83 13.41
12/29/2021 3:00:00 AM 2.97 37.346 0.272 8.1 3.91 13.39
12/29/2021 3:15:00 AM 2.97 37.346 0.272 8.09 3.66 13.36
12/29/2021 3:30:00 AM 2.98 37.364 0.272 8.09 3.85 13.34
12/29/2021 3:45:00 AM 2.98 37.364 0.272 8.08 3.74 13.31
12/29/2021 4:00:00 AM 2.98 37.364 0.272 8.07 3.64 13.28
12/29/2021 4:15:00 AM 2.99 37.382 0.272 8.06 3.74 13.26
12/29/2021 4:30:00 AM 2.99 37.382 0.272 8.05 3.69 13.23
12/29/2021 4:45:00 AM 2.99 37.382 0.272 8.05 3.85 13.2
12/29/2021 5:00:00 AM 3 37.4 0.272 8.04 3.71 13.18
12/29/2021 5:15:00 AM 3 37.4 0.272 8.03 3.77 13.15
12/29/2021 5:30:00 AM 3 37.4 0.273 8.03 3.81 13.13
12/29/2021 5:45:00 AM 3.01 37.418 0.273 8.02 3.68 13.1
12/29/2021 6:00:00 AM 3 37.4 0.274 8.01 3.65 13.08
12/29/2021 6:15:00 AM 3 37.4 0.274 8 3.68 13.06
12/29/2021 6:30:00 AM 3 37.4 0.275 7.99 3.77 13.04
12/29/2021 6:45:00 AM 3 37.4 0.276 7.98 3.75 13.01
12/29/2021 7:00:00 AM 3 37.4 0.277 7.97 3.63 13
12/29/2021 7:15:00 AM 2.99 37.382 0.278 7.97 3.81 12.98
12/29/2021 7:30:00 AM 2.99 37.382 0.278 7.96 3.83 12.97
12/29/2021 7:45:00 AM 2.99 37.382 0.279 7.95 3.68 12.96
12/29/2021 8:00:00 AM 2.98 37.364 0.279 7.94 3.81 12.94
12/29/2021 8:15:00 AM 2.98 37.364 0.28 7.94 3.7 12.94
12/29/2021 8:30:00 AM 2.97 37.346 0.28 7.94 3.84 12.94
12/29/2021 8:45:00 AM 2.97 37.346 0.28 7.93 3.7 12.95
12/29/2021 9:00:00 AM 2.97 37.346 0.28 7.93 3.95 12.97
12/29/2021 9:15:00 AM 2.97 37.346 0.279 7.94 3.56 12.99
12/29/2021 9:30:00 AM 2.97 37.346 0.279 7.94 3.76 13.03
12/29/2021 9:45:00 AM 2.97 37.346 0.279 7.95 3.62 13.07
12/29/2021 10:00:00 AM 2.98 37.364 0.279 7.95 3.58 13.12
12/29/2021 10:15:00 AM 2.98 37.364 0.278 7.96 3.64 13.17
12/29/2021 10:30:00 AM 2.99 37.382 0.278 7.97 3.77 13.25
12/29/2021 10:45:00 AM 3 37.4 0.277 7.99 3.6 13.33
12/29/2021 11:00:00 AM 3.02 37.436 0.277 8.01 3.64 13.41
12/29/2021 11:15:00 AM 3.04 37.472 0.277 8.03 3.48 13.51
12/29/2021 11:30:00 AM 3.06 37.508 0.276 8.06 3.6 13.62
12/29/2021 11:45:00 AM 3.09 37.562 0.276 8.09 3.74 13.74
12/29/2021 12:00:00 PM 3.12 37.616 0.276 8.12 3.72 13.84
12/29/2021 12:15:00 PM 3.15 37.67 0.275 8.15 3.54 13.96
12/29/2021 12:30:00 PM 3.19 37.742 0.275 8.19 3.51 14.06
12/29/2021 12:45:00 PM 3.22 37.796 0.275 8.23 3.68 14.17
12/29/2021 1:00:00 PM 3.25 37.85 0.275 8.26 3.58 14.27
12/29/2021 1:15:00 PM 3.27 37.886 0.274 8.29 3.53 14.36
12/29/2021 1:30:00 PM 3.29 37.922 0.274 8.32 3.49 14.42
12/29/2021 1:45:00 PM 3.31 37.958 0.274 8.34 3.52 14.48
12/29/2021 2:00:00 PM 3.33 37.994 0.274 8.36 3.53 14.54
12/29/2021 2:15:00 PM 3.35 38.03 0.274 8.38 3.76 14.58
12/29/2021 2:30:00 PM 3.37 38.066 0.274 8.4 3.55 14.62
12/29/2021 2:45:00 PM 3.38 38.084 0.274 8.41 3.58 14.65
12/29/2021 3:00:00 PM 3.39 38.102 0.273 8.42 3.63 14.66
12/29/2021 3:15:00 PM 3.4 38.12 0.273 8.43 3.67 14.67
12/29/2021 3:30:00 PM 3.4 38.12 0.273 8.43 3.74 14.66
12/29/2021 3:45:00 PM 3.41 38.138 0.272 8.44 3.73 14.65
12/29/2021 4:00:00 PM 3.42 38.156 0.272 8.43 3.62 14.66
12/29/2021 4:15:00 PM 3.42 38.156 0.272 8.44 3.92 14.64
12/29/2021 4:30:00 PM 3.42 38.156 0.272 8.44 3.83 14.62
12/29/2021 4:45:00 PM 3.42 38.156 0.272 8.43 3.63 14.56
12/29/2021 5:00:00 PM 3.42 38.156 0.272 8.41 3.98 14.49
12/29/2021 5:15:00 PM 3.42 38.156 0.272 8.38 3.73 14.4
12/29/2021 5:30:00 PM 3.42 38.156 0.272 8.37 3.92 14.33
12/29/2021 5:45:00 PM 3.41 38.138 0.272 8.34 3.73 14.26
12/29/2021 6:00:00 PM 3.41 38.138 0.272 8.32 3.61 14.2
12/29/2021 6:15:00 PM 3.41 38.138 0.272 8.31 3.93 14.14
12/29/2021 6:30:00 PM 3.41 38.138 0.272 8.29 3.82 14.09
12/29/2021 6:45:00 PM 3.41 38.138 0.272 8.27 3.72 14.04
12/29/2021 7:00:00 PM 3.41 38.138 0.271 8.26 3.83 13.99
12/29/2021 7:15:00 PM 3.41 38.138 0.271 8.24 3.96 13.95
12/29/2021 7:30:00 PM 3.41 38.138 0.271 8.23 3.84 13.92
12/29/2021 7:45:00 PM 3.41 38.138 0.271 8.22 3.69 13.89
12/29/2021 8:00:00 PM 3.41 38.138 0.271 8.22 3.88 13.87
12/29/2021 8:15:00 PM 3.42 38.156 0.271 8.21 3.86 13.84
12/29/2021 8:30:00 PM 3.42 38.156 0.271 8.2 3.91 13.81
12/29/2021 8:45:00 PM 3.42 38.156 0.271 8.19 4.08 13.79
12/29/2021 9:00:00 PM 3.43 38.174 0.271 8.18 3.66 13.76
12/29/2021 9:15:00 PM 3.43 38.174 0.271 8.17 4.06 13.73
12/29/2021 9:30:00 PM 3.43 38.174 0.271 8.17 3.92 13.71
12/29/2021 9:45:00 PM 3.43 38.174 0.271 8.15 3.75 13.67
12/29/2021 10:00:00 PM 3.44 38.192 0.271 8.15 3.78 13.66
12/29/2021 10:15:00 PM 3.44 38.192 0.272 8.14 3.67 13.63
12/29/2021 10:30:00 PM 3.45 38.21 0.272 8.13 3.87 13.61
12/29/2021 10:45:00 PM 3.45 38.21 0.272 8.13 3.74 13.58
12/29/2021 11:00:00 PM 3.46 38.228 0.272 8.12 3.78 13.56
12/29/2021 11:15:00 PM 3.46 38.228 0.273 8.12 3.96 13.54
12/29/2021 11:30:00 PM 3.47 38.246 0.273 8.11 3.92 13.53
12/29/2021 11:45:00 PM 3.48 38.264 0.273 8.11 3.93 13.5
12/30/2021 12:00:00 AM 3.49 38.282 0.273 8.11 3.93 13.49
12/30/2021 12:15:00 AM 3.5 38.3 0.274 8.11 3.74 13.47
12/30/2021 12:30:00 AM 3.51 38.318 0.274 8.1 4.17 13.46
12/30/2021 12:45:00 AM 3.52 38.336 0.274 8.1 4.02 13.43
12/30/2021 1:00:00 AM 3.52 38.336 0.274 8.1 4.01 13.42
12/30/2021 1:15:00 AM 3.53 38.354 0.274 8.09 4 13.39
12/30/2021 1:30:00 AM 3.54 38.372 0.274 8.09 4.08 13.37
12/30/2021 1:45:00 AM 3.55 38.39 0.274 8.09 4.18 13.35
12/30/2021 2:00:00 AM 3.56 38.408 0.274 8.08 4.35 13.32
12/30/2021 2:15:00 AM 3.57 38.426 0.274 8.07 4.47 13.3
12/30/2021 2:30:00 AM 3.58 38.444 0.273 8.07 4.02 13.26
12/30/2021 2:45:00 AM 3.58 38.444 0.273 8.06 4.42 13.24
12/30/2021 3:00:00 AM 3.59 38.462 0.272 8.05 4.4 13.22
12/30/2021 3:15:00 AM 3.6 38.48 0.271 8.05 4.28 13.18
12/30/2021 3:30:00 AM 3.6 38.48 0.271 8.03 4.07 13.15
12/30/2021 3:45:00 AM 3.61 38.498 0.27 8.03 4.24 13.13
12/30/2021 4:00:00 AM 3.62 38.516 0.269 8.02 4.48 13.11
12/30/2021 4:15:00 AM 3.62 38.516 0.268 8.02 4.4 13.07
12/30/2021 4:30:00 AM 3.63 38.534 0.267 8.01 4.37 13.05
12/30/2021 4:45:00 AM 3.63 38.534 0.266 8 4.71 13.02
12/30/2021 5:00:00 AM 3.64 38.552 0.265 7.98 4.38 12.99
12/30/2021 5:15:00 AM 3.64 38.552 0.265 7.98 4.29 12.97
12/30/2021 5:30:00 AM 3.65 38.57 0.264 7.97 4.74 12.95
12/30/2021 5:45:00 AM 3.65 38.57 0.264 7.97 4.99 12.92
12/30/2021 6:00:00 AM 3.66 38.588 0.263 7.96 4.87 12.9
12/30/2021 6:15:00 AM 3.66 38.588 0.263 7.95 4.63 12.88
12/30/2021 6:30:00 AM 3.67 38.606 0.262 7.94 4.61 12.86
12/30/2021 6:45:00 AM 3.67 38.606 0.262 7.93 4.72 12.84
12/30/2021 7:00:00 AM 3.68 38.624 0.261 7.93 5.09 12.82
12/30/2021 7:15:00 AM 3.68 38.624 0.261 7.92 5.14 12.81
12/30/2021 7:30:00 AM 3.68 38.624 0.261 7.91 4.73 12.79
12/30/2021 7:45:00 AM 3.69 38.642 0.26 7.91 5.05 12.78
12/30/2021 8:00:00 AM 3.69 38.642 0.26 7.9 5.57 12.77
12/30/2021 8:15:00 AM 3.7 38.66 0.26 7.89 5.53 12.76
12/30/2021 8:30:00 AM 3.71 38.678 0.259 7.9 5.29 12.77
12/30/2021 8:45:00 AM 3.71 38.678 0.259 7.9 6.19 12.78
12/30/2021 9:00:00 AM 3.72 38.696 0.259 7.9 5.72 12.79
12/30/2021 9:15:00 AM 3.73 38.714 0.259 7.91 5.67 12.82
12/30/2021 9:30:00 AM 3.74 38.732 0.258 7.91 5.29 12.84
12/30/2021 9:45:00 AM 3.75 38.75 0.258 7.91 5.46 12.87
12/30/2021 10:00:00 AM 3.77 38.786 0.258 7.93 5.29 12.92
12/30/2021 10:15:00 AM 3.78 38.804 0.258 7.93 5.66 12.95
12/30/2021 10:30:00 AM 3.8 38.84 0.258 7.95 5.62 13
12/30/2021 10:45:00 AM 3.81 38.858 0.258 7.96 5.65 13.05
12/30/2021 11:00:00 AM 3.82 38.876 0.258 7.97 5.75 13.1
12/30/2021 11:15:00 AM 3.84 38.912 0.258 7.99 5.33 13.15
12/30/2021 11:30:00 AM 3.86 38.948 0.258 7.99 5.51 13.2
12/30/2021 11:45:00 AM 3.88 38.984 0.258 8.02 5.47 13.25
12/30/2021 12:00:00 PM 3.9 39.02 0.258 8.03 5.83 13.33
12/30/2021 12:15:00 PM 3.92 39.056 0.258 8.06 5.55 13.4
12/30/2021 12:30:00 PM 3.95 39.11 0.258 8.08 5.65 13.48
12/30/2021 12:45:00 PM 3.97 39.146 0.258 8.1 5.82 13.55
12/30/2021 1:00:00 PM 3.99 39.182 0.258 8.12 5.75 13.61
12/30/2021 1:15:00 PM 4.01 39.218 0.258 8.14 5.79 13.66
12/30/2021 1:30:00 PM 4.03 39.254 0.258 8.16 5.71 13.7
12/30/2021 1:45:00 PM 4.04 39.272 0.258 8.17 6.19 13.72
12/30/2021 2:00:00 PM 4.05 39.29 0.258 8.17 6.17 13.72
12/30/2021 2:15:00 PM 4.05 39.29 0.257 8.18 6.14 13.72
12/30/2021 2:30:00 PM 4.05 39.29 0.257 8.18 6.25 13.71
12/30/2021 2:45:00 PM 4.06 39.308 0.257 8.17 6.71 13.69
12/30/2021 3:00:00 PM 4.06 39.308 0.257 8.17 6.94 13.66
12/30/2021 3:15:00 PM 4.06 39.308 0.257 8.16 6.65 13.64
12/30/2021 3:30:00 PM 4.06 39.308 0.257 8.15 7.15 13.6
12/30/2021 3:45:00 PM 4.06 39.308 0.257 8.14 6.88 13.55
12/30/2021 4:00:00 PM 4.06 39.308 0.257 8.13 7.21 13.5
12/30/2021 4:15:00 PM 4.05 39.29 0.257 8.11 8.41 13.44
12/30/2021 4:30:00 PM 4.05 39.29 0.257 8.09 7.7 13.38
12/30/2021 4:45:00 PM 4.05 39.29 0.257 8.08 8.19 13.34
12/30/2021 5:00:00 PM 4.05 39.29 0.257 8.06 8.18 13.28
12/30/2021 5:15:00 PM 4.05 39.29 0.257 8.05 7.89 13.24
12/30/2021 5:30:00 PM 4.05 39.29 0.257 8.04 8.01 13.2
12/30/2021 5:45:00 PM 4.05 39.29 0.257 8.02 8.76 13.18
12/30/2021 6:00:00 PM 4.06 39.308 0.257 8.02 8.56 13.15
12/30/2021 6:15:00 PM 4.06 39.308 0.257 8.01 8.8 13.13
12/30/2021 6:30:00 PM 4.07 39.326 0.256 8 8.83 13.11
12/30/2021 6:45:00 PM 4.07 39.326 0.256 8 9.01 13.09
12/30/2021 7:00:00 PM 4.08 39.344 0.256 7.99 8.61 13.07
12/30/2021 7:15:00 PM 4.08 39.344 0.255 7.99 8.9 13.06
12/30/2021 7:30:00 PM 4.09 39.362 0.255 7.99 8.63 13.05
12/30/2021 7:45:00 PM 4.1 39.38 0.254 7.98 8.52 13.04
12/30/2021 8:00:00 PM 4.1 39.38 0.254 7.98 8.17 13.03
12/30/2021 8:15:00 PM 4.11 39.398 0.254 7.98 7.94 13.02
12/30/2021 8:30:00 PM 4.11 39.398 0.253 7.97 13.21 13.01
12/30/2021 8:45:00 PM 4.12 39.416 0.252 7.98 7.89 13.01
12/30/2021 9:00:00 PM 4.12 39.416 0.252 7.97 8.61 13.01
12/30/2021 9:15:00 PM 4.13 39.434 0.252 7.97 8 13.01
12/30/2021 9:30:00 PM 4.14 39.452 0.251 7.97 8.08 13
12/30/2021 9:45:00 PM 4.14 39.452 0.251 7.97 7.7 13
12/30/2021 10:00:00 PM 4.15 39.47 0.251 7.97 8.23 12.99
12/30/2021 10:15:00 PM 4.16 39.488 0.251 7.97 8.03 12.99
12/30/2021 10:30:00 PM 4.16 39.488 0.251 7.97 8.09 12.99
12/30/2021 10:45:00 PM 4.17 39.506 0.25 7.97 8 12.99
12/30/2021 11:00:00 PM 4.18 39.524 0.25 7.97 7.66 12.97
12/30/2021 11:15:00 PM 4.18 39.524 0.25 7.97 7.94 12.96
12/30/2021 11:30:00 PM 4.19 39.542 0.25 7.97 7.74 12.95
12/30/2021 11:45:00 PM 4.19 39.542 0.25 7.97 7.35 12.94
12/31/2021 12:00:00 AM 4.2 39.56 0.25 7.96 7.49 12.93
12/31/2021 12:15:00 AM 4.2 39.56 0.25 7.96 7.66 12.92
12/31/2021 12:30:00 AM 4.21 39.578 0.25 7.96 7.52 12.9
12/31/2021 12:45:00 AM 4.21 39.578 0.25 7.95 7.57 12.88
12/31/2021 1:00:00 AM 4.22 39.596 0.25 7.95 7.63 12.86
12/31/2021 1:15:00 AM 4.22 39.596 0.251 7.95 7.99 12.85
12/31/2021 1:30:00 AM 4.23 39.614 0.251 7.95 8.06 12.83
12/31/2021 1:45:00 AM 4.23 39.614 0.251 7.94 8.19 12.81
12/31/2021 2:00:00 AM 4.23 39.614 0.251 7.93 7.85 12.8
12/31/2021 2:15:00 AM 4.24 39.632 0.251 7.93 7.39 12.78
12/31/2021 2:30:00 AM 4.24 39.632 0.251 7.93 8.32 12.76
12/31/2021 2:45:00 AM 4.24 39.632 0.251 7.93 7.37 12.74
12/31/2021 3:00:00 AM 4.24 39.632 0.251 7.92 8.04 12.73
12/31/2021 3:15:00 AM 4.25 39.65 0.251 7.91 7.48 12.71
12/31/2021 3:30:00 AM 4.25 39.65 0.251 7.91 7.92 12.69
12/31/2021 3:45:00 AM 4.25 39.65 0.251 7.9 7.42 12.68
12/31/2021 4:00:00 AM 4.25 39.65 0.251 7.9 7.75 12.67
12/31/2021 4:15:00 AM 4.25 39.65 0.251 7.89 7.61 12.65
12/31/2021 4:30:00 AM 4.26 39.668 0.251 7.89 7.92 12.64
12/31/2021 4:45:00 AM 4.26 39.668 0.251 7.88 7.36 12.62
12/31/2021 5:00:00 AM 4.26 39.668 0.25 7.88 7.26 12.61
12/31/2021 5:15:00 AM 4.27 39.686 0.25 7.87 9.73 12.58
12/31/2021 5:30:00 AM 4.27 39.686 0.251 7.87 7.23 12.58
12/31/2021 5:45:00 AM 4.27 39.686 0.25 7.86 7.62 12.57
12/31/2021 6:00:00 AM 4.28 39.704 0.25 7.86 7.36 12.56
12/31/2021 6:15:00 AM 4.28 39.704 0.25 7.86 7.38 12.54
12/31/2021 6:30:00 AM 4.28 39.704 0.25 7.86 7.6 12.54
12/31/2021 6:45:00 AM 4.28 39.704 0.25 7.86 7.15 12.53
12/31/2021 7:00:00 AM 4.29 39.722 0.25 7.85 7.15 12.52
12/31/2021 7:15:00 AM 4.29 39.722 0.249 7.85 7.21 12.51
12/31/2021 7:30:00 AM 4.29 39.722 0.249 7.85 7.61 12.5
12/31/2021 7:45:00 AM 4.29 39.722 0.249 7.85 7.02 12.5
12/31/2021 8:00:00 AM 4.29 39.722 0.249 7.85 6.82 12.49
12/31/2021 8:15:00 AM 4.3 39.74 0.248 7.85 6.92 12.5
12/31/2021 8:30:00 AM 4.3 39.74 0.248 7.85 7.33 12.5
12/31/2021 8:45:00 AM 4.31 39.758 0.248 7.85 7.24 12.53
12/31/2021 9:00:00 AM 4.31 39.758 0.248 7.85 7.47 12.56
12/31/2021 9:15:00 AM 4.31 39.758 0.247 7.86 6.71 12.6
12/31/2021 9:30:00 AM 4.32 39.776 0.247 7.87 6.67 12.63
12/31/2021 9:45:00 AM 4.33 39.794 0.247 7.87 6.73 12.68
12/31/2021 10:00:00 AM 4.34 39.812 0.246 7.89 6.7 12.73
12/31/2021 10:15:00 AM 4.36 39.848 0.246 7.9 6.74 12.79
12/31/2021 10:30:00 AM 4.39 39.902 0.246 7.92 6.98 12.87
12/31/2021 10:45:00 AM 4.41 39.938 0.246 7.94 6.73 12.95
12/31/2021 11:00:00 AM 4.43 39.974 0.246 7.97 6.54 13.03
12/31/2021 11:15:00 AM 4.45 40.01 0.246 7.99 6.21 13.12
12/31/2021 11:30:00 AM 4.5 40.1 0.245 8.02 6.89 13.23
12/31/2021 11:45:00 AM 4.54 40.172 0.245 8.05 6.24 13.31
12/31/2021 12:00:00 PM 4.58 40.244 0.245 8.08 6.41 13.41
12/31/2021 12:15:00 PM 4.63 40.334 0.245 8.1 6.54 13.5
12/31/2021 12:30:00 PM 4.66 40.388 0.245 8.14 6.28 13.57
12/31/2021 12:45:00 PM 4.7 40.46 0.244 8.17 6.1 13.65
12/31/2021 1:00:00 PM 4.72 40.496 0.244 8.19 6.91 13.71
12/31/2021 1:15:00 PM 4.75 40.55 0.244 8.22 6.61 13.78
12/31/2021 1:30:00 PM 4.78 40.604 0.244 8.24 6.75 13.84
12/31/2021 1:45:00 PM 4.81 40.658 0.243 8.26 6.43 13.88
12/31/2021 2:00:00 PM 4.81 40.658 0.243 8.27 7.29 13.87
12/31/2021 2:15:00 PM 4.79 40.622 0.243 8.27 6.77 13.86
12/31/2021 2:30:00 PM 4.77 40.586 0.243 8.26 6.41 13.82
12/31/2021 2:45:00 PM 4.75 40.55 0.243 8.25 6.72 13.78
12/31/2021 3:00:00 PM 4.72 40.496 0.243 8.24 6.54 13.75
12/31/2021 3:15:00 PM 4.71 40.478 0.243 8.24 6.26 13.72
12/31/2021 3:30:00 PM 4.68 40.424 0.243 8.23 6.47 13.69
12/31/2021 3:45:00 PM 4.67 40.406 0.243 8.22 6.45 13.66
12/31/2021 4:00:00 PM 4.65 40.37 0.243 8.21 6.31 13.63
12/31/2021 4:15:00 PM 4.64 40.352 0.243 8.2 6.25 13.61
12/31/2021 4:30:00 PM 4.63 40.334 0.243 8.19 6.43 13.57
12/31/2021 4:45:00 PM 4.62 40.316 0.243 8.18 6.62 13.54
12/31/2021 5:00:00 PM 4.61 40.298 0.243 8.17 6.91 13.52
12/31/2021 5:15:00 PM 4.61 40.298 0.243 8.17 6.6 13.49
12/31/2021 5:30:00 PM 4.6 40.28 0.243 8.16 6.6 13.46
12/31/2021 5:45:00 PM 4.61 40.298 0.243 8.14 6.3 13.44
12/31/2021 6:00:00 PM 4.61 40.298 0.243 8.14 6.22 13.42
12/31/2021 6:15:00 PM 4.61 40.298 0.243 8.13 6.56 13.4
12/31/2021 6:30:00 PM 4.62 40.316 0.243 8.13 6.05 13.37
12/31/2021 6:45:00 PM 4.63 40.334 0.243 8.12 6.39 13.36
12/31/2021 7:00:00 PM 4.63 40.334 0.243 8.12 6.11 13.34
12/31/2021 7:15:00 PM 4.64 40.352 0.243 8.12 6.23 13.33
12/31/2021 7:30:00 PM 4.66 40.388 0.243 8.12 6.68 13.32
12/31/2021 7:45:00 PM 4.67 40.406 0.243 8.11 6.02 13.31
12/31/2021 8:00:00 PM 4.68 40.424 0.243 8.12 5.86 13.3
12/31/2021 8:15:00 PM 4.69 40.442 0.243 8.11 5.9 13.28
12/31/2021 8:30:00 PM 4.69 40.442 0.243 8.11 6.34 13.26
12/31/2021 8:45:00 PM 4.69 40.442 0.243 8.1 5.95 13.23
12/31/2021 9:00:00 PM 4.69 40.442 0.243 8.1 6.17 13.21
12/31/2021 9:15:00 PM 4.69 40.442 0.243 8.1 6.15 13.19
12/31/2021 9:30:00 PM 4.69 40.442 0.243 8.09 5.84 13.16
12/31/2021 9:45:00 PM 4.69 40.442 0.243 8.08 6.16 13.14
12/31/2021 10:00:00 PM 4.69 40.442 0.243 8.07 6.07 13.11
12/31/2021 10:15:00 PM 4.69 40.442 0.243 8.07 6.23 13.09
12/31/2021 10:30:00 PM 4.69 40.442 0.243 8.07 6.1 13.07
12/31/2021 10:45:00 PM 4.69 40.442 0.243 8.06 5.88 13.05
12/31/2021 11:00:00 PM 4.69 40.442 0.243 8.06 5.98 13.02
12/31/2021 11:15:00 PM 4.7 40.46 0.243 8.05 5.89 13.01
12/31/2021 11:30:00 PM 4.71 40.478 0.243 8.05 6.14 12.99
12/31/2021 11:45:00 PM 4.72 40.496 0.243 8.04 6.27 12.96
1/1/2022 12:00:00 AM 4.73 40.514 0.243 8.04 5.68 12.94
1/1/2022 12:15:00 AM 4.73 40.514 0.243 8.03 6.01 12.91
1/1/2022 12:30:00 AM 4.74 40.532 0.243 8.03 5.93 12.89
1/1/2022 12:45:00 AM 4.75 40.55 0.243 8.03 5.63 12.87
1/1/2022 1:00:00 AM 4.76 40.568 0.243 8.02 5.84 12.84
1/1/2022 1:15:00 AM 4.76 40.568 0.243 8.02 6.03 12.82
1/1/2022 1:30:00 AM 4.76 40.568 0.244 8.01 5.61 12.79
1/1/2022 1:45:00 AM 4.77 40.586 0.244 8 5.91 12.76
1/1/2022 2:00:00 AM 4.77 40.586 0.244 8 5.86 12.74
1/1/2022 2:15:00 AM 4.78 40.604 0.244 8 5.81 12.72
1/1/2022 2:30:00 AM 4.78 40.604 0.245 7.99 5.53 12.7
1/1/2022 2:45:00 AM 4.79 40.622 0.245 7.98 5.9 12.67
1/1/2022 3:00:00 AM 4.8 40.64 0.245 7.98 6.38 12.65
1/1/2022 3:15:00 AM 4.81 40.658 0.245 7.97 5.66 12.62
1/1/2022 3:30:00 AM 4.82 40.676 0.246 7.97 5.55 12.6
1/1/2022 3:45:00 AM 4.83 40.694 0.246 7.96 5.36 12.57
1/1/2022 4:00:00 AM 4.84 40.712 0.246 7.96 5.6 12.55
1/1/2022 4:15:00 AM 4.85 40.73 0.247 7.95 5.45 12.52
1/1/2022 4:30:00 AM 4.86 40.748 0.247 7.95 5.15 12.5
1/1/2022 4:45:00 AM 4.86 40.748 0.247 7.94 5.47 12.46
1/1/2022 5:00:00 AM 4.87 40.766 0.248 7.94 5.44 12.45
1/1/2022 5:15:00 AM 4.87 40.766 0.248 7.93 5.13 12.42
1/1/2022 5:30:00 AM 4.88 40.784 0.248 7.92 6.08 12.4
1/1/2022 5:45:00 AM 4.89 40.802 0.249 7.92 5.43 12.37
1/1/2022 6:00:00 AM 4.89 40.802 0.249 7.92 5.32 12.35
1/1/2022 6:15:00 AM 4.9 40.82 0.25 7.9 5.01 12.33
1/1/2022 6:30:00 AM 4.9 40.82 0.25 7.9 5.29 12.31
1/1/2022 6:45:00 AM 4.9 40.82 0.25 7.89 5.12 12.29
1/1/2022 7:00:00 AM 4.91 40.838 0.251 7.89 5.1 12.27
1/1/2022 7:15:00 AM 4.91 40.838 0.251 7.88 4.99 12.26
1/1/2022 7:30:00 AM 4.91 40.838 0.251 7.88 5.12 12.24
1/1/2022 7:45:00 AM 4.92 40.856 0.251 7.88 4.99 12.23
1/1/2022 8:00:00 AM 4.92 40.856 0.252 7.87 5.14 12.22
1/1/2022 8:15:00 AM 4.92 40.856 0.252 7.87 5.16 12.22
1/1/2022 8:30:00 AM 4.92 40.856 0.252 7.87 4.77 12.22
1/1/2022 8:45:00 AM 4.93 40.874 0.252 7.87 4.88 12.24
1/1/2022 9:00:00 AM 4.93 40.874 0.252 7.87 4.74 12.26
1/1/2022 9:15:00 AM 4.94 40.892 0.252 7.88 4.68 12.28
1/1/2022 9:30:00 AM 4.95 40.91 0.252 7.88 4.74 12.3
1/1/2022 9:45:00 AM 4.96 40.928 0.252 7.88 4.9 12.33
1/1/2022 10:00:00 AM 4.97 40.946 0.252 7.89 4.75 12.36
1/1/2022 10:15:00 AM 4.98 40.964 0.252 7.89 4.63 12.39
1/1/2022 10:30:00 AM 5 41 0.252 7.9 4.59 12.45
1/1/2022 10:45:00 AM 5.01 41.018 0.253 7.92 4.58 12.51
1/1/2022 11:00:00 AM 5.02 41.036 0.253 7.93 4.52 12.55
1/1/2022 11:15:00 AM 5.04 41.072 0.253 7.94 4.57 12.6
1/1/2022 11:30:00 AM 5.06 41.108 0.253 7.95 4.4 12.65
1/1/2022 11:45:00 AM 5.07 41.126 0.254 7.97 4.52 12.69
1/1/2022 12:00:00 PM 5.09 41.162 0.254 7.98 4.46 12.74
1/1/2022 12:15:00 PM 5.11 41.198 0.254 7.99 4.46 12.8
1/1/2022 12:30:00 PM 5.12 41.216 0.254 8.01 4.54 12.84
1/1/2022 12:45:00 PM 5.14 41.252 0.254 8.03 4.52 12.9
1/1/2022 1:00:00 PM 5.16 41.288 0.254 8.04 4.62 12.93
1/1/2022 1:15:00 PM 5.18 41.324 0.254 8.05 4.34 12.97
1/1/2022 1:30:00 PM 5.19 41.342 0.254 8.06 4.56 13.01
1/1/2022 1:45:00 PM 5.2 41.36 0.255 8.08 4.41 13.06
1/1/2022 2:00:00 PM 5.22 41.396 0.255 8.09 4.59 13.09
1/1/2022 2:15:00 PM 5.23 41.414 0.255 8.11 4.57 13.14
1/1/2022 2:30:00 PM 5.24 41.432 0.255 8.12 4.38 13.17
1/1/2022 2:45:00 PM 5.25 41.45 0.255 8.13 4.54 13.19
1/1/2022 3:00:00 PM 5.25 41.45 0.255 8.14 4.31 13.21
1/1/2022 3:15:00 PM 5.25 41.45 0.254 8.14 4.46 13.2
1/1/2022 3:30:00 PM 5.25 41.45 0.254 8.14 4.68 13.21
1/1/2022 3:45:00 PM 5.25 41.45 0.254 8.14 4.23 13.19
1/1/2022 4:00:00 PM 5.25 41.45 0.254 8.13 4.47 13.16
1/1/2022 4:15:00 PM 5.24 41.432 0.255 8.12 4.31 13.12
1/1/2022 4:30:00 PM 5.24 41.432 0.255 8.11 4.67 13.08
1/1/2022 4:45:00 PM 5.24 41.432 0.254 8.09 4.19 13.03
1/1/2022 5:00:00 PM 5.23 41.414 0.254 8.08 5.06 12.97
1/1/2022 5:15:00 PM 5.23 41.414 0.255 8.07 4.81 12.93
1/1/2022 5:30:00 PM 5.23 41.414 0.255 8.05 4.54 12.89
1/1/2022 5:45:00 PM 5.23 41.414 0.255 8.04 4.46 12.84
1/1/2022 6:00:00 PM 5.23 41.414 0.255 8.03 4.49 12.8
1/1/2022 6:15:00 PM 5.23 41.414 0.255 8.02 4.59 12.77
1/1/2022 6:30:00 PM 5.23 41.414 0.255 8.01 4.7 12.73
1/1/2022 6:45:00 PM 5.24 41.432 0.254 8 4.56 12.71
1/1/2022 7:00:00 PM 5.24 41.432 0.254 8 4.86 12.69
1/1/2022 7:15:00 PM 5.25 41.45 0.254 7.98 4.87 12.66
1/1/2022 7:30:00 PM 5.25 41.45 0.254 7.98 4.34 12.64
1/1/2022 7:45:00 PM 5.25 41.45 0.254 7.98 4.76 12.62
1/1/2022 8:00:00 PM 5.25 41.45 0.253 7.97 5.07 12.6
1/1/2022 8:15:00 PM 5.25 41.45 0.253 7.96 4.74 12.58
1/1/2022 8:30:00 PM 5.25 41.45 0.253 7.96 4.85 12.57
1/1/2022 8:45:00 PM 5.25 41.45 0.253 7.96 4.85 12.56
1/1/2022 9:00:00 PM 5.25 41.45 0.253 7.95 4.71 12.55
1/1/2022 9:15:00 PM 5.26 41.468 0.253 7.95 5.09 12.53
1/1/2022 9:30:00 PM 5.26 41.468 0.252 7.95 4.93 12.52
1/1/2022 9:45:00 PM 5.26 41.468 0.252 7.95 4.65 12.51
1/1/2022 10:00:00 PM 5.25 41.45 0.252 7.94 5.09 12.5
1/1/2022 10:15:00 PM 5.25 41.45 0.252 7.95 4.88 12.5
1/1/2022 10:30:00 PM 5.25 41.45 0.251 7.94 4.89 12.49
1/1/2022 10:45:00 PM 5.24 41.432 0.251 7.94 5.15 12.47
1/1/2022 11:00:00 PM 5.24 41.432 0.251 7.93 5.38 12.46
1/1/2022 11:15:00 PM 5.23 41.414 0.25 7.94 5.07 12.46
1/1/2022 11:30:00 PM 5.23 41.414 0.25 7.93 5.54 12.45
1/1/2022 11:45:00 PM 5.22 41.396 0.25 7.93 5.06 12.44
1/2/2022 12:00:00 AM 5.21 41.378 0.249 7.93 5.14 12.43
1/2/2022 12:15:00 AM 5.2 41.36 0.249 7.93 5.05 12.42
1/2/2022 12:30:00 AM 5.19 41.342 0.248 7.92 5.25 12.41
1/2/2022 12:45:00 AM 5.19 41.342 0.248 7.92 5.33 12.39
1/2/2022 1:00:00 AM 5.18 41.324 0.248 7.91 5.23 12.38
1/2/2022 1:15:00 AM 5.17 41.306 0.248 7.91 5.43 12.36
1/2/2022 1:30:00 AM 5.16 41.288 0.247 7.91 5.4 12.34
1/2/2022 1:45:00 AM 5.15 41.27 0.247 7.9 5.2 12.33
1/2/2022 2:00:00 AM 5.14 41.252 0.246 7.9 5.34 12.31
1/2/2022 2:15:00 AM 5.12 41.216 0.246 7.89 5.3 12.29
1/2/2022 2:30:00 AM 5.11 41.198 0.246 7.87 5.52 12.28
1/2/2022 2:45:00 AM 5.1 41.18 0.245 7.87 5.61 12.27
1/2/2022 3:00:00 AM 5.09 41.162 0.245 7.87 5.4 12.24
1/2/2022 3:15:00 AM 5.08 41.144 0.244 7.86 5.67 12.24
1/2/2022 3:30:00 AM 5.07 41.126 0.244 7.86 5.48 12.22
1/2/2022 3:45:00 AM 5.06 41.108 0.243 7.86 5.44 12.2
1/2/2022 4:00:00 AM 5.05 41.09 0.243 7.84 6.1 12.19
1/2/2022 4:15:00 AM 5.03 41.054 0.242 7.85 5.7 12.18
1/2/2022 4:30:00 AM 5.02 41.036 0.242 7.83 6.14 12.17
1/2/2022 4:45:00 AM 5.02 41.036 0.242 7.84 6.22 12.16
1/2/2022 5:00:00 AM 5.01 41.018 0.242 7.83 6 12.15
1/2/2022 5:15:00 AM 5 41 0.242 7.83 6.22 12.14
1/2/2022 5:30:00 AM 4.98 40.964 0.242 7.83 6.22 12.13
1/2/2022 5:45:00 AM 4.98 40.964 0.242 7.83 6.47 12.13
1/2/2022 6:00:00 AM 4.97 40.946 0.241 7.82 6.09 12.12
1/2/2022 6:15:00 AM 4.96 40.928 0.241 7.82 7.43 12.11
1/2/2022 6:30:00 AM 4.95 40.91 0.241 7.82 6.97 12.11
1/2/2022 6:45:00 AM 4.93 40.874 0.241 7.82 6.92 12.11
1/2/2022 7:00:00 AM 4.92 40.856 0.241 7.82 6.79 12.1
1/2/2022 7:15:00 AM 4.91 40.838 0.241 7.81 6.66 12.1
1/2/2022 7:30:00 AM 4.9 40.82 0.241 7.81 8.13 12.1
1/2/2022 7:45:00 AM 4.89 40.802 0.241 7.81 7.25 12.09
1/2/2022 8:00:00 AM 4.88 40.784 0.241 7.8 7.23 12.09
1/2/2022 8:15:00 AM 4.87 40.766 0.241 7.8 8.04 12.09
1/2/2022 8:30:00 AM 4.86 40.748 0.241 7.8 8.18 12.09
1/2/2022 8:45:00 AM 4.85 40.73 0.241 7.81 8.51 12.11
1/2/2022 9:00:00 AM 4.84 40.712 0.241 7.81 8.78 12.12
1/2/2022 9:15:00 AM 4.83 40.694 0.241 7.8 8.28 12.12
1/2/2022 9:30:00 AM 4.81 40.658 0.241 7.81 8.16 12.15
1/2/2022 9:45:00 AM 4.8 40.64 0.241 7.81 7.91 12.16
1/2/2022 10:00:00 AM 4.79 40.622 0.241 7.82 9.47 12.18
1/2/2022 10:15:00 AM 4.78 40.604 0.241 7.82 8.77 12.2
1/2/2022 10:30:00 AM 4.77 40.586 0.241 7.83 10.14 12.23
1/2/2022 10:45:00 AM 4.76 40.568 0.24 7.82 9.3 12.25
1/2/2022 11:00:00 AM 4.75 40.55 0.24 7.82 9.19 12.27
1/2/2022 11:15:00 AM 4.74 40.532 0.24 7.83 11.29 12.29
1/2/2022 11:30:00 AM 4.73 40.514 0.24 7.83 10.02 12.32
1/2/2022 11:45:00 AM 4.72 40.496 0.24 7.84 12.23 12.34
1/2/2022 12:00:00 PM 4.72 40.496 0.239 7.83 10.99 12.36
1/2/2022 12:15:00 PM 4.72 40.496 0.238 7.85 10.97 12.39
1/2/2022 12:30:00 PM 4.71 40.478 0.238 7.86 11.55 12.43
1/2/2022 12:45:00 PM 4.7 40.46 0.237 7.86 12.82 12.46
1/2/2022 1:00:00 PM 4.69 40.442 0.236 7.87 11.61 12.46
1/2/2022 1:15:00 PM 4.68 40.424 0.236 7.86 13.05 12.47
1/2/2022 1:30:00 PM 4.66 40.388 0.235 7.87 13.51 12.48
1/2/2022 1:45:00 PM 4.64 40.352 0.235 7.87 14.74 12.48
1/2/2022 2:00:00 PM 4.63 40.334 0.234 7.87 15.2 12.47
1/2/2022 2:15:00 PM 4.62 40.316 0.234 7.87 38.72 12.49
1/2/2022 2:30:00 PM 4.6 40.28 0.233 7.86 17.15 12.5
1/2/2022 2:45:00 PM 4.58 40.244 0.233 7.87 11.44 12.5
1/2/2022 3:00:00 PM 4.56 40.208 0.233 7.87 13.15 12.5
1/2/2022 3:15:00 PM 4.54 40.172 0.233 7.86 11.08 12.5
1/2/2022 3:30:00 PM 4.52 40.136 0.233 7.87 17.74 12.5
1/2/2022 3:45:00 PM 4.5 40.1 0.233 7.87 16.44 12.5
1/2/2022 4:00:00 PM 4.48 40.064 0.233 7.85 16.03 12.5
1/2/2022 4:15:00 PM 4.46 40.028 0.233 7.86 18.44 12.49
1/2/2022 4:30:00 PM 4.44 39.992 0.233 7.86 26.92 12.49
1/2/2022 4:45:00 PM 4.42 39.956 0.233 7.86 16.25 12.48
1/2/2022 5:00:00 PM 4.4 39.92 0.233 7.86 27.81 12.47
1/2/2022 5:15:00 PM 4.38 39.884 0.233 7.85 17.72 12.46
1/2/2022 5:30:00 PM 4.37 39.866 0.233 7.84 18.26 12.45
1/2/2022 5:45:00 PM 4.35 39.83 0.233 7.84 25.57 12.45
1/2/2022 6:00:00 PM 4.33 39.794 0.233 7.84 22.02 12.44
1/2/2022 6:15:00 PM 4.32 39.776 0.233 7.83 23.42 12.44
1/2/2022 6:30:00 PM 4.3 39.74 0.233 7.83 24.95 12.43
1/2/2022 6:45:00 PM 4.28 39.704 0.232 7.83 22.48 12.42
1/2/2022 7:00:00 PM 4.26 39.668 0.232 7.82 31.26 12.42
1/2/2022 7:15:00 PM 4.24 39.632 0.232 7.83 30.98 12.42
1/2/2022 7:30:00 PM 4.22 39.596 0.232 7.82 29.04 12.43
1/2/2022 7:45:00 PM 4.21 39.578 0.231 7.83 31.45 12.43
1/2/2022 8:00:00 PM 4.19 39.542 0.231 7.81 39.36 12.43
1/2/2022 8:15:00 PM 4.17 39.506 0.231 7.82 84.56 12.44
1/2/2022 8:30:00 PM 4.15 39.47 0.231 7.82 23.68 12.44
1/2/2022 8:45:00 PM 4.13 39.434 0.231 7.81 47.48 12.45
1/2/2022 9:00:00 PM 4.11 39.398 0.23 7.82 37.42 12.45
1/2/2022 9:15:00 PM 4.09 39.362 0.23 7.82 29.22 12.45
1/2/2022 9:30:00 PM 4.07 39.326 0.23 7.82 43.01 12.46
1/2/2022 9:45:00 PM 4.05 39.29 0.23 7.82 70.05 12.46
1/2/2022 10:00:00 PM 4.03 39.254 0.23 7.82 25.22 12.47
1/2/2022 10:15:00 PM 4.01 39.218 0.23 7.82 19.96 12.48
1/2/2022 10:30:00 PM 3.99 39.182 0.23 7.82 32.12 12.48
1/2/2022 10:45:00 PM 3.97 39.146 0.231 7.82 49.79 12.49
1/2/2022 11:00:00 PM 3.95 39.11 0.231 7.81 29.74 12.49
1/2/2022 11:15:00 PM 3.93 39.074 0.231 7.82 26.86 12.5
1/2/2022 11:30:00 PM 3.9 39.02 0.231 7.81 34.18 12.5
1/2/2022 11:45:00 PM 3.88 38.984 0.23 7.82 24.77 12.51
1/3/2022 12:00:00 AM 3.85 38.93 0.23 7.82 33.84 12.53
1/3/2022 12:15:00 AM 3.82 38.876 0.23 7.81 51.74 12.52
1/3/2022 12:30:00 AM 3.78 38.804 0.23 7.82 26.7 12.54
1/3/2022 12:45:00 AM 3.74 38.732 0.23 7.81 30.68 12.54
1/3/2022 1:00:00 AM 3.7 38.66 0.23 7.82 25.15 12.56
1/3/2022 1:15:00 AM 3.67 38.606 0.229 7.82 40.79 12.56
1/3/2022 1:30:00 AM 3.63 38.534 0.229 7.81 23.8 12.58
1/3/2022 1:45:00 AM 3.59 38.462 0.228 7.81 26.07 12.59
1/3/2022 2:00:00 AM 3.56 38.408 0.228 7.81 27.01 12.6
1/3/2022 2:15:00 AM 3.52 38.336 0.227 7.81 21.29 12.6
1/3/2022 2:30:00 AM 3.49 38.282 0.227 7.81 25.98 12.62
1/3/2022 2:45:00 AM 3.46 38.228 0.226 7.81 33.12 12.62
1/3/2022 3:00:00 AM 3.42 38.156 0.225 7.8 30.25 12.63
1/3/2022 3:15:00 AM 3.39 38.102 0.225 7.8 37.65 12.64
1/3/2022 3:30:00 AM 3.35 38.03 0.224 7.8 58.71 12.65
1/3/2022 3:45:00 AM 3.31 37.958 0.224 7.8 44.04 12.67
1/3/2022 4:00:00 AM 3.27 37.886 0.223 7.8 55.63 12.68
1/3/2022 4:15:00 AM 3.23 37.814 0.223 7.8 50.96 12.69
1/3/2022 4:30:00 AM 3.19 37.742 0.222 7.8 47.02 12.71
1/3/2022 4:45:00 AM 3.15 37.67 0.222 7.8 44.32 12.73
1/3/2022 5:00:00 AM 3.09 37.562 0.221 7.8 54.47 12.75
1/3/2022 5:15:00 AM 3.05 37.49 0.221 7.8 40.68 12.76
1/3/2022 5:30:00 AM 3.01 37.418 0.22 7.79 54.22 12.77
1/3/2022 5:45:00 AM 2.98 37.364 0.22 7.79 41.39 12.79
1/3/2022 6:00:00 AM 2.94 37.292 0.22 7.79 76.87 12.8
1/3/2022 6:15:00 AM 2.91 37.238 0.22 7.79 39.97 12.82
1/3/2022 6:30:00 AM 2.87 37.166 0.219 7.79 41.38 12.83
1/3/2022 6:45:00 AM 2.84 37.112 0.219 7.79 54.28 12.83
1/3/2022 7:00:00 AM 2.81 37.058 0.219 7.78 36.64 12.84
1/3/2022 7:15:00 AM 2.77 36.986 0.219 7.79 40.16 12.86
1/3/2022 7:30:00 AM 2.74 36.932 0.219 7.78 43.02 12.87
1/3/2022 7:45:00 AM 2.7 36.86 0.219 7.78 47.38 12.88
1/3/2022 8:00:00 AM 2.67 36.806 0.219 7.78 53.68 12.89
1/3/2022 8:15:00 AM 2.64 36.752 0.219 7.77 38.8 12.91
1/3/2022 8:30:00 AM 2.61 36.698 0.219 7.78 41.25 12.92
1/3/2022 8:45:00 AM 2.58 36.644 0.22 7.77 40.48 12.94
1/3/2022 9:00:00 AM 2.56 36.608 0.22 7.78 46.48 12.95
1/3/2022 9:15:00 AM 2.54 36.572 0.22 7.77 45.13 12.97
1/3/2022 9:30:00 AM 2.52 36.536 0.22 7.78 33.74 12.99
1/3/2022 9:45:00 AM 2.5 36.5 0.22 7.77 58.97 13.01
1/3/2022 10:00:00 AM 2.49 36.482 0.22 7.78 41.24 13.03
1/3/2022 10:15:00 AM 2.48 36.464 0.22 7.79 41.1 13.06
1/3/2022 10:30:00 AM 2.47 36.446 0.22 7.78 43.18 13.07
1/3/2022 10:45:00 AM 2.46 36.428 0.221 7.79 30.96 13.09
1/3/2022 11:00:00 AM 2.44 36.392 0.221 7.79 28.15 13.12
1/3/2022 11:15:00 AM 2.43 36.374 0.221 7.8 30.96 13.14
1/3/2022 11:30:00 AM 2.43 36.374 0.22 7.8 42.53 13.17
1/3/2022 11:45:00 AM 2.41 36.338 0.22 7.8 29.75 13.19
1/3/2022 12:00:00 PM 2.4 36.32 0.22 7.8 40.17 13.22
1/3/2022 12:15:00 PM 2.39 36.302 0.22 7.81 27.92 13.25
1/3/2022 12:30:00 PM 2.38 36.284 0.219 7.82 33.78 13.27
1/3/2022 12:45:00 PM 2.36 36.248 0.219 7.82 23.75 13.3
1/3/2022 1:00:00 PM 2.35 36.23 0.219 7.82 28.21 13.33
1/3/2022 1:15:00 PM 2.33 36.194 0.219 7.83 29.26 13.36
1/3/2022 1:30:00 PM 2.31 36.158 0.218 7.83 28.03 13.39
1/3/2022 1:45:00 PM 2.29 36.122 0.218 7.83 23.63 13.4
1/3/2022 2:00:00 PM 2.26 36.068 0.218 7.83 31.82 13.43
1/3/2022 2:15:00 PM 2.22 35.996 0.218 7.83 26.56 13.44
1/3/2022 2:30:00 PM 2.19 35.942 0.218 7.84 20.89 13.45
1/3/2022 2:45:00 PM 2.16 35.888 0.218 7.84 26.25 13.46
1/3/2022 3:00:00 PM 2.13 35.834 0.219 7.83 23.83 13.47
1/3/2022 3:15:00 PM 2.09 35.762 0.219 7.83 22.12 13.49
1/3/2022 3:30:00 PM 2.07 35.726 0.219 7.83 26.33 13.51
1/3/2022 3:45:00 PM 2.04 35.672 0.219 7.84 27.34 13.53
1/3/2022 4:00:00 PM 2.02 35.636 0.219 7.84 28.11 13.55
1/3/2022 4:15:00 PM 1.99 35.582 0.22 7.84 22.95 13.56
1/3/2022 4:30:00 PM 1.96 35.528 0.22 7.84 21.7 13.58
1/3/2022 4:45:00 PM 1.92 35.456 0.22 7.84 24.21 13.59
1/3/2022 5:00:00 PM 1.89 35.402 0.221 7.84 20.56 13.6
1/3/2022 5:15:00 PM 1.86 35.348 0.221 7.84 20.29 13.6
1/3/2022 5:30:00 PM 1.83 35.294 0.221 7.84 18.77 13.61
1/3/2022 5:45:00 PM 1.81 35.258 0.221 7.84 19.53 13.62
1/3/2022 6:00:00 PM 1.8 35.24 0.222 7.84 21.51 13.63
1/3/2022 6:15:00 PM 1.78 35.204 0.222 7.84 19.83 13.64
1/3/2022 6:30:00 PM 1.76 35.168 0.222 7.84 19.29 13.66
1/3/2022 6:45:00 PM 1.74 35.132 0.222 7.84 19.94 13.67
1/3/2022 7:00:00 PM 1.72 35.096 0.223 7.85 20.03 13.69
1/3/2022 7:15:00 PM 1.69 35.042 0.223 7.84 19.5 13.71
1/3/2022 7:30:00 PM 1.65 34.97 0.223 7.85 19.32 13.72
1/3/2022 7:45:00 PM 1.63 34.934 0.223 7.85 20.06 13.74
1/3/2022 8:00:00 PM 1.61 34.898 0.223 7.85 19.53 13.76
1/3/2022 8:15:00 PM 1.59 34.862 0.224 7.85 19.07 13.76
1/3/2022 8:30:00 PM 1.57 34.826 0.224 7.85 18.01 13.78
1/3/2022 8:45:00 PM 1.55 34.79 0.224 7.86 18.19 13.79
1/3/2022 9:00:00 PM 1.52 34.736 0.224 7.86 17.24 13.8
1/3/2022 9:15:00 PM 1.5 34.7 0.224 7.86 16.87 13.82
1/3/2022 9:30:00 PM 1.47 34.646 0.224 7.86 26.26 13.83
1/3/2022 9:45:00 PM 1.45 34.61 0.225 7.86 18.1 13.84
1/3/2022 10:00:00 PM 1.42 34.556 0.225 7.87 19.19 13.85
1/3/2022 10:15:00 PM 1.4 34.52 0.225 7.87 17.24 13.88
1/3/2022 10:30:00 PM 1.37 34.466 0.225 7.87 16.77 13.89
1/3/2022 10:45:00 PM 1.34 34.412 0.225 7.87 20.24 13.91
1/3/2022 11:00:00 PM 1.3 34.34 0.225 7.87 16.96 13.91
1/3/2022 11:15:00 PM 1.26 34.268 0.226 7.87 18.93 13.93
1/3/2022 11:30:00 PM 1.23 34.214 0.226 7.87 15.03 13.93
1/3/2022 11:45:00 PM 1.19 34.142 0.226 7.87 17.83 13.94
1/4/2022 12:00:00 AM 1.16 34.088 0.227 7.87 14.98 13.96
1/4/2022 12:15:00 AM 1.12 34.016 0.227 7.87 15.36 13.96
1/4/2022 12:30:00 AM 1.09 33.962 0.227 7.87 14.89 13.97
1/4/2022 12:45:00 AM 1.05 33.89 0.228 7.87 16.11 13.99
1/4/2022 1:00:00 AM 1.02 33.836 0.228 7.87 15.98 13.98
1/4/2022 1:15:00 AM 0.99 33.782 0.228 7.87 15.34 13.99
1/4/2022 1:30:00 AM 0.96 33.728 0.228 7.87 14.98 14
1/4/2022 1:45:00 AM 0.93 33.674 0.228 7.87 14.75 14
1/4/2022 2:00:00 AM 0.9 33.62 0.229 7.87 14.95 13.99
1/4/2022 2:15:00 AM 0.87 33.566 0.229 7.86 15.49 14
1/4/2022 2:30:00 AM 0.84 33.512 0.229 7.86 14.6 14.01
1/4/2022 2:45:00 AM 0.81 33.458 0.23 7.87 14.86 14.01
1/4/2022 3:00:00 AM 0.78 33.404 0.23 7.85 13.91 14.01
1/4/2022 3:15:00 AM 0.76 33.368 0.23 7.86 14.23 14.01
1/4/2022 3:30:00 AM 0.74 33.332 0.23 7.86 13.59 14.01
1/4/2022 3:45:00 AM 0.72 33.296 0.231 7.86 14.22 14.01
1/4/2022 4:00:00 AM 0.7 33.26 0.231 7.86 13.54 14.01
1/4/2022 4:15:00 AM 0.67 33.206 0.231 7.85 12.75 14.01
1/4/2022 4:30:00 AM 0.65 33.17 0.231 7.85 13.85 14.01
1/4/2022 4:45:00 AM 0.64 33.152 0.232 7.85 15.01 14.01
1/4/2022 5:00:00 AM 0.62 33.116 0.232 7.84 13.43 14.01
1/4/2022 5:15:00 AM 0.6 33.08 0.232 7.85 13.96 14.01
1/4/2022 5:30:00 AM 0.59 33.062 0.233 7.84 13.81 14.01
1/4/2022 5:45:00 AM 0.57 33.026 0.233 7.84 13.67 14.01
1/4/2022 6:00:00 AM 0.55 32.99 0.233 7.84 13.4 14.02
1/4/2022 6:15:00 AM 0.52 32.936 0.233 7.83 10.49 14.02
1/4/2022 6:30:00 AM 0.5 32.9 0.233 7.83 13.35 14.02
1/4/2022 6:45:00 AM 0.47 32.846 0.233 7.83 13.26 14.03
1/4/2022 7:00:00 AM 0.44 32.792 0.233 7.83 13.69 14.04
1/4/2022 7:15:00 AM 0.41 32.738 0.234 7.83 13.22 14.04
1/4/2022 7:30:00 AM 0.38 32.684 0.234 7.81 13.82 14.05
1/4/2022 7:45:00 AM 0.35 32.63 0.234 7.82 12.91 14.05
1/4/2022 8:00:00 AM 0.33 32.594 0.234 7.82 13.39 14.06
1/4/2022 8:15:00 AM 0.3 32.54 0.235 7.82 13.53 14.06
1/4/2022 8:30:00 AM 0.27 32.486 0.235 7.82 11.96 14.09
1/4/2022 8:45:00 AM 0.25 32.45 0.235 7.82 12.8 14.1
1/4/2022 9:00:00 AM 0.23 32.414 0.235 7.82 14.37 14.13
1/4/2022 9:15:00 AM 0.22 32.396 0.235 7.82 12.36 14.16
1/4/2022 9:30:00 AM 0.21 32.378 0.235 7.83 11.8 14.2
1/4/2022 9:45:00 AM 0.21 32.378 0.236 7.83 12.63 14.23
1/4/2022 10:00:00 AM 0.2 32.36 0.236 7.84 10.91 14.28
1/4/2022 10:15:00 AM 0.21 32.378 0.236 7.85 12.34 14.32
1/4/2022 10:30:00 AM 0.21 32.378 0.237 7.86 12.72 14.36
1/4/2022 10:45:00 AM 0.22 32.396 0.237 7.87 12.94 14.4
1/4/2022 11:00:00 AM 0.24 32.432 0.238 7.87 11.13 14.44
1/4/2022 11:15:00 AM 0.25 32.45 0.238 7.88 11.11 14.48
1/4/2022 11:30:00 AM 0.26 32.468 0.238 7.89 11.47 14.52
1/4/2022 11:45:00 AM 0.28 32.504 0.238 7.9 11.45 14.55
1/4/2022 12:00:00 PM 0.29 32.522 0.239 7.9 11.18 14.59
1/4/2022 12:15:00 PM 0.31 32.558 0.239 7.91 10.47 14.63
1/4/2022 12:30:00 PM 0.32 32.576 0.239 7.92 10.84 14.67
1/4/2022 12:45:00 PM 0.34 32.612 0.24 7.93 10.59 14.71
1/4/2022 1:00:00 PM 0.35 32.63 0.24 7.94 11.89 14.74
1/4/2022 1:15:00 PM 0.37 32.666 0.24 7.95 10.7 14.78
1/4/2022 1:30:00 PM 0.38 32.684 0.24 7.95 10.28 14.8
1/4/2022 1:45:00 PM 0.4 32.72 0.241 7.97 9.9 14.84
1/4/2022 2:00:00 PM 0.41 32.738 0.241 7.97 10.28 14.87
1/4/2022 2:15:00 PM 0.42 32.756 0.241 7.98 10.33 14.89
1/4/2022 2:30:00 PM 0.43 32.774 0.241 7.99 9.65 14.92
1/4/2022 2:45:00 PM 0.44 32.792 0.242 8 9.79 14.93
1/4/2022 3:00:00 PM 0.44 32.792 0.242 8 9.1 14.95
1/4/2022 3:15:00 PM 0.44 32.792 0.242 8.01 9.21 14.95
1/4/2022 3:30:00 PM 0.44 32.792 0.243 8.01 9.67 14.95
1/4/2022 3:45:00 PM 0.44 32.792 0.243 8.01 9.82 14.96
1/4/2022 4:00:00 PM 0.44 32.792 0.243 8.01 9.45 14.96
1/4/2022 4:15:00 PM 0.44 32.792 0.244 8.01 10.59 14.96
1/4/2022 4:30:00 PM 0.44 32.792 0.244 8.01 9.7 14.95
1/4/2022 4:45:00 PM 0.44 32.792 0.244 8.01 9.56 14.94
1/4/2022 5:00:00 PM 0.44 32.792 0.244 8.01 8.84 14.92
1/4/2022 5:15:00 PM 0.44 32.792 0.245 8.01 8.84 14.9
1/4/2022 5:30:00 PM 0.44 32.792 0.245 8 8.56 14.88
1/4/2022 5:45:00 PM 0.44 32.792 0.245 8 8.83 14.85
1/4/2022 6:00:00 PM 0.45 32.81 0.245 7.99 8.79 14.83
1/4/2022 6:15:00 PM 0.45 32.81 0.246 7.99 9.38 14.82
1/4/2022 6:30:00 PM 0.45 32.81 0.246 7.98 9.15 14.8
1/4/2022 6:45:00 PM 0.46 32.828 0.246 7.98 8.69 14.78
1/4/2022 7:00:00 PM 0.46 32.828 0.246 7.97 9.18 14.76
1/4/2022 7:15:00 PM 0.46 32.828 0.246 7.97 9.27 14.74
1/4/2022 7:30:00 PM 0.47 32.846 0.246 7.97 8.24 14.72
1/4/2022 7:45:00 PM 0.47 32.846 0.246 7.97 9.18 14.72
1/4/2022 8:00:00 PM 0.47 32.846 0.247 7.97 9.02 14.7
1/4/2022 8:15:00 PM 0.47 32.846 0.247 7.97 9.11 14.69
1/4/2022 8:30:00 PM 0.48 32.864 0.247 7.97 9 14.69
1/4/2022 8:45:00 PM 0.48 32.864 0.247 7.96 8.85 14.67
1/4/2022 9:00:00 PM 0.48 32.864 0.248 7.96 7.98 14.66
1/4/2022 9:15:00 PM 0.47 32.846 0.248 7.96 8.75 14.65
1/4/2022 9:30:00 PM 0.47 32.846 0.248 7.96 8.52 14.64
1/4/2022 9:45:00 PM 0.47 32.846 0.248 7.95 8.42 14.62
1/4/2022 10:00:00 PM 0.46 32.828 0.248 7.95 8.68 14.61
1/4/2022 10:15:00 PM 0.45 32.81 0.248 7.95 8.45 14.6
1/4/2022 10:30:00 PM 0.45 32.81 0.248 7.94 8.69 14.58
1/4/2022 10:45:00 PM 0.45 32.81 0.249 7.95 8.45 14.57
1/4/2022 11:00:00 PM 0.44 32.792 0.249 7.95 7.94 14.56
1/4/2022 11:15:00 PM 0.44 32.792 0.249 7.94 8.12 14.54
1/4/2022 11:30:00 PM 0.43 32.774 0.249 7.94 7.9 14.54
1/4/2022 11:45:00 PM 0.43 32.774 0.249 7.94 8.04 14.53
1/5/2022 12:00:00 AM 0.43 32.774 0.249 7.94 8.12 14.52
1/5/2022 12:15:00 AM 0.43 32.774 0.249 7.93 8.06 14.51
1/5/2022 12:30:00 AM 0.43 32.774 0.249 7.93 7.78 14.5
1/5/2022 12:45:00 AM 0.43 32.774 0.249 7.93 7.84 14.49
1/5/2022 1:00:00 AM 0.43 32.774 0.25 7.93 7.93 14.47
1/5/2022 1:15:00 AM 0.43 32.774 0.25 7.93 8.49 14.46
1/5/2022 1:30:00 AM 0.43 32.774 0.25 7.93 7.66 14.45
1/5/2022 1:45:00 AM 0.43 32.774 0.251 7.93 11.21 14.43
1/5/2022 2:00:00 AM 0.43 32.774 0.251 7.93 8 14.43
1/5/2022 2:15:00 AM 0.43 32.774 0.252 7.92 8.3 14.41
1/5/2022 2:30:00 AM 0.43 32.774 0.252 7.93 7.55 14.4
1/5/2022 2:45:00 AM 0.43 32.774 0.253 7.93 7.78 14.38
1/5/2022 3:00:00 AM 0.42 32.756 0.253 7.92 7.82 14.37
1/5/2022 3:15:00 AM 0.42 32.756 0.254 7.92 7.39 14.36
1/5/2022 3:30:00 AM 0.41 32.738 0.254 7.92 7.63 14.34
1/5/2022 3:45:00 AM 0.41 32.738 0.254 7.92 7.98 14.32
1/5/2022 4:00:00 AM 0.4 32.72 0.255 7.91 7.63 14.31
1/5/2022 4:15:00 AM 0.39 32.702 0.255 7.91 7.9 14.3
1/5/2022 4:30:00 AM 0.38 32.684 0.256 7.91 7.57 14.28
1/5/2022 4:45:00 AM 0.38 32.684 0.256 7.91 7.67 14.26
1/5/2022 5:00:00 AM 0.37 32.666 0.256 7.9 8.62 14.25
1/5/2022 5:15:00 AM 0.37 32.666 0.256 7.89 7.71 14.23
1/5/2022 5:30:00 AM 0.37 32.666 0.257 7.89 7.42 14.21
1/5/2022 5:45:00 AM 0.36 32.648 0.257 7.89 7.22 14.2
1/5/2022 6:00:00 AM 0.36 32.648 0.257 7.89 7.71 14.18
1/5/2022 6:15:00 AM 0.36 32.648 0.258 7.88 7.52 14.17
1/5/2022 6:30:00 AM 0.36 32.648 0.258 7.88 7.92 14.15
1/5/2022 6:45:00 AM 0.35 32.63 0.259 7.87 7.16 14.14
1/5/2022 7:00:00 AM 0.34 32.612 0.259 7.87 7.15 14.12
1/5/2022 7:15:00 AM 0.34 32.612 0.259 7.87 7.2 14.11
1/5/2022 7:30:00 AM 0.33 32.594 0.259 7.87 7 14.1
1/5/2022 7:45:00 AM 0.33 32.594 0.259 7.86 7.52 14.09
1/5/2022 8:00:00 AM 0.32 32.576 0.259 7.86 7.32 14.09
1/5/2022 8:15:00 AM 0.33 32.594 0.259 7.86 7.18 14.09
1/5/2022 8:30:00 AM 0.33 32.594 0.259 7.86 6.66 14.1
1/5/2022 8:45:00 AM 0.34 32.612 0.259 7.87 8.49 14.13
1/5/2022 9:00:00 AM 0.34 32.612 0.259 7.87 7.58 14.16
1/5/2022 9:15:00 AM 0.35 32.63 0.259 7.88 7.26 14.21
1/5/2022 9:30:00 AM 0.37 32.666 0.259 7.88 6.84 14.25
1/5/2022 9:45:00 AM 0.39 32.702 0.259 7.9 7.41 14.31
1/5/2022 10:00:00 AM 0.42 32.756 0.259 7.91 7.12 14.36
1/5/2022 10:15:00 AM 0.45 32.81 0.259 7.92 7.08 14.42
1/5/2022 10:30:00 AM 0.48 32.864 0.259 7.94 6.93 14.47
1/5/2022 10:45:00 AM 0.51 32.918 0.259 7.95 6.84 14.52
1/5/2022 11:00:00 AM 0.54 32.972 0.259 7.97 6.99 14.57
1/5/2022 11:15:00 AM 0.57 33.026 0.259 7.98 6.58 14.61
1/5/2022 11:30:00 AM 0.6 33.08 0.259 7.99 7.3 14.66
1/5/2022 11:45:00 AM 0.63 33.134 0.259 8.01 6.76 14.71
1/5/2022 12:00:00 PM 0.67 33.206 0.259 8.02 6.76 14.75
1/5/2022 12:15:00 PM 0.7 33.26 0.259 8.03 6.85 14.79
1/5/2022 12:30:00 PM 0.73 33.314 0.258 8.05 7.36 14.83
1/5/2022 12:45:00 PM 0.76 33.368 0.258 8.07 6.48 14.86
1/5/2022 1:00:00 PM 0.79 33.422 0.258 8.08 7.34 14.91
1/5/2022 1:15:00 PM 0.82 33.476 0.258 8.09 6.26 14.93
1/5/2022 1:30:00 PM 0.85 33.53 0.258 8.11 6.43 14.96
1/5/2022 1:45:00 PM 0.88 33.584 0.258 8.12 7.05 15
1/5/2022 2:00:00 PM 0.91 33.638 0.258 8.14 6.36 15.03
1/5/2022 2:15:00 PM 0.95 33.71 0.257 8.15 6.25 15.06
1/5/2022 2:30:00 PM 0.98 33.764 0.257 8.16 6.32 15.1
1/5/2022 2:45:00 PM 1.01 33.818 0.257 8.18 6.34 15.12
1/5/2022 3:00:00 PM 1.03 33.854 0.257 8.19 6.77 15.13
1/5/2022 3:15:00 PM 1.05 33.89 0.257 8.2 6.66 15.14
1/5/2022 3:30:00 PM 1.06 33.908 0.257 8.2 6.57 15.16
1/5/2022 3:45:00 PM 1.06 33.908 0.257 8.21 6.72 15.15
1/5/2022 4:00:00 PM 1.06 33.908 0.257 8.21 6.98 15.14
1/5/2022 4:15:00 PM 1.06 33.908 0.257 8.21 6.65 15.14
1/5/2022 4:30:00 PM 1.05 33.89 0.257 8.21 6.55 15.11
1/5/2022 4:45:00 PM 1.05 33.89 0.257 8.21 7.03 15.1
1/5/2022 5:00:00 PM 1.05 33.89 0.257 8.2 6.75 15.06
1/5/2022 5:15:00 PM 1.04 33.872 0.257 8.19 6.71 15.02
1/5/2022 5:30:00 PM 1.04 33.872 0.257 8.18 6.83 14.97
1/5/2022 5:45:00 PM 1.04 33.872 0.257 8.18 6.66 14.94
1/5/2022 6:00:00 PM 1.04 33.872 0.257 8.16 6.56 14.9
1/5/2022 6:15:00 PM 1.03 33.854 0.257 8.15 6.56 14.86
1/5/2022 6:30:00 PM 1.03 33.854 0.257 8.14 6.57 14.81
1/5/2022 6:45:00 PM 1.03 33.854 0.257 8.13 7.26 14.78
1/5/2022 7:00:00 PM 1.03 33.854 0.257 8.12 6.7 14.74
1/5/2022 7:15:00 PM 1.04 33.872 0.257 8.11 6.24 14.69
1/5/2022 7:30:00 PM 1.04 33.872 0.257 8.1 6.65 14.66
1/5/2022 7:45:00 PM 1.04 33.872 0.257 8.1 6.61 14.63
1/5/2022 8:00:00 PM 1.04 33.872 0.257 8.09 6.53 14.61
1/5/2022 8:15:00 PM 1.05 33.89 0.257 8.08 6.22 14.58
1/5/2022 8:30:00 PM 1.05 33.89 0.257 8.08 6.59 14.55
1/5/2022 8:45:00 PM 1.06 33.908 0.258 8.07 6.44 14.52
1/5/2022 9:00:00 PM 1.06 33.908 0.258 8.07 6.36 14.49
1/5/2022 9:15:00 PM 1.07 33.926 0.258 8.06 6.36 14.47
1/5/2022 9:30:00 PM 1.07 33.926 0.259 8.06 6.21 14.45
1/5/2022 9:45:00 PM 1.08 33.944 0.259 8.06 6.71 14.42
1/5/2022 10:00:00 PM 1.08 33.944 0.259 8.05 6.73 14.4
1/5/2022 10:15:00 PM 1.09 33.962 0.259 8.04 6.32 14.37
1/5/2022 10:30:00 PM 1.1 33.98 0.26 8.04 6.1 14.33
1/5/2022 10:45:00 PM 1.11 33.998 0.26 8.03 5.9 14.31
1/5/2022 11:00:00 PM 1.12 34.016 0.26 8.03 6.09 14.29
1/5/2022 11:15:00 PM 1.12 34.016 0.261 8.03 5.92 14.27
1/5/2022 11:30:00 PM 1.14 34.052 0.261 8.02 6.01 14.26
1/5/2022 11:45:00 PM 1.15 34.07 0.261 8.02 6.09 14.23
1/6/2022 12:00:00 AM 1.16 34.088 0.261 8.02 6.16 14.2
1/6/2022 12:15:00 AM 1.17 34.106 0.262 8.02 5.73 14.18
1/6/2022 12:30:00 AM 1.18 34.124 0.262 8.02 6.04 14.15
1/6/2022 12:45:00 AM 1.19 34.142 0.262 8.01 5.98 14.13
1/6/2022 1:00:00 AM 1.19 34.142 0.262 8.01 5.84 14.12
1/6/2022 1:15:00 AM 1.19 34.142 0.262 8.01 5.96 14.09
1/6/2022 1:30:00 AM 1.2 34.16 0.262 8 6.12 14.07
1/6/2022 1:45:00 AM 1.2 34.16 0.262 8 6.12 14.07
1/6/2022 2:00:00 AM 1.22 34.196 0.262 8 6.16 14.04
1/6/2022 2:15:00 AM 1.23 34.214 0.262 7.99 5.85 14.01
1/6/2022 2:30:00 AM 1.23 34.214 0.263 7.99 5.77 14
1/6/2022 2:45:00 AM 1.24 34.232 0.263 7.98 5.65 13.98
1/6/2022 3:00:00 AM 1.24 34.232 0.263 7.98 5.72 13.95
1/6/2022 3:15:00 AM 1.23 34.214 0.263 7.98 5.7 13.93
1/6/2022 3:30:00 AM 1.22 34.196 0.263 7.98 5.49 13.91
1/6/2022 3:45:00 AM 1.22 34.196 0.263 7.97 5.8 13.89
1/6/2022 4:00:00 AM 1.21 34.178 0.263 7.96 5.8 13.88
1/6/2022 4:15:00 AM 1.2 34.16 0.263 7.96 5.44 13.86
1/6/2022 4:30:00 AM 1.19 34.142 0.263 7.96 5.35 13.84
1/6/2022 4:45:00 AM 1.17 34.106 0.262 7.95 5.47 13.83
1/6/2022 5:00:00 AM 1.15 34.07 0.262 7.95 5.14 13.81
1/6/2022 5:15:00 AM 1.13 34.034 0.262 7.94 5.51 13.8
1/6/2022 5:30:00 AM 1.12 34.016 0.262 7.94 5.34 13.78
1/6/2022 5:45:00 AM 1.11 33.998 0.262 7.93 5.83 13.77
1/6/2022 6:00:00 AM 1.1 33.98 0.262 7.93 5.42 13.76
1/6/2022 6:15:00 AM 1.09 33.962 0.262 7.92 5.29 13.75
1/6/2022 6:30:00 AM 1.07 33.926 0.261 7.92 5.58 13.73
1/6/2022 6:45:00 AM 1.06 33.908 0.261 7.91 6.24 13.71
1/6/2022 7:00:00 AM 1.05 33.89 0.261 7.91 5.29 13.7
1/6/2022 7:15:00 AM 1.04 33.872 0.261 7.9 5.25 13.69
1/6/2022 7:30:00 AM 1.03 33.854 0.261 7.9 5.33 13.69
1/6/2022 7:45:00 AM 1.02 33.836 0.261 7.89 5.44 13.68
1/6/2022 8:00:00 AM 1.01 33.818 0.261 7.89 5.31 13.68
1/6/2022 8:15:00 AM 1 33.8 0.261 7.89 5.43 13.68
1/6/2022 8:30:00 AM 0.99 33.782 0.261 7.89 5.5 13.7
1/6/2022 8:45:00 AM 0.98 33.764 0.261 7.89 5.57 13.71
1/6/2022 9:00:00 AM 0.97 33.746 0.261 7.9 5.33 13.74
1/6/2022 9:15:00 AM 0.96 33.728 0.261 7.9 5.43 13.78
1/6/2022 9:30:00 AM 0.96 33.728 0.261 7.9 5.47 13.82
1/6/2022 9:45:00 AM 0.95 33.71 0.26 7.91 5.4 13.87
1/6/2022 10:00:00 AM 0.96 33.728 0.26 7.93 5.55 13.92
1/6/2022 10:15:00 AM 0.97 33.746 0.26 7.94 5.59 13.98
1/6/2022 10:30:00 AM 0.99 33.782 0.26 7.95 5.39 14.05
1/6/2022 10:45:00 AM 1.01 33.818 0.26 7.97 5.7 14.11
1/6/2022 11:00:00 AM 1.04 33.872 0.26 7.98 5.22 14.19
1/6/2022 11:15:00 AM 1.06 33.908 0.26 7.99 5.29 14.24
1/6/2022 11:30:00 AM 1.08 33.944 0.26 8.01 5.52 14.29
1/6/2022 11:45:00 AM 1.09 33.962 0.26 8.02 5.14 14.34
1/6/2022 12:00:00 PM 1.11 33.998 0.26 8.03 5.39 14.38
1/6/2022 12:15:00 PM 1.12 34.016 0.26 8.05 5.37 14.43
1/6/2022 12:30:00 PM 1.13 34.034 0.26 8.06 5.53 14.46
1/6/2022 12:45:00 PM 1.14 34.052 0.26 8.07 5.83 14.51
1/6/2022 1:00:00 PM 1.15 34.07 0.26 8.09 6.15 14.56
1/6/2022 1:15:00 PM 1.16 34.088 0.26 8.1 6.15 14.61
1/6/2022 1:30:00 PM 1.17 34.106 0.26 8.12 6.53 14.67
1/6/2022 1:45:00 PM 1.19 34.142 0.26 8.13 5.99 14.71
1/6/2022 2:00:00 PM 1.2 34.16 0.26 8.15 6.06 14.75
1/6/2022 2:15:00 PM 1.22 34.196 0.26 8.16 6.48 14.8
1/6/2022 2:30:00 PM 1.23 34.214 0.26 8.17 6.34 14.83
1/6/2022 2:45:00 PM 1.23 34.214 0.26 8.19 6.41 14.88
1/6/2022 3:00:00 PM 1.23 34.214 0.26 8.2 6.31 14.91
1/6/2022 3:15:00 PM 1.24 34.232 0.26 8.21 6.29 14.93
1/6/2022 3:30:00 PM 1.24 34.232 0.26 8.22 6.25 14.95
1/6/2022 3:45:00 PM 1.24 34.232 0.26 8.23 6.13 14.96
1/6/2022 4:00:00 PM 1.24 34.232 0.26 8.23 6.33 14.97
1/6/2022 4:15:00 PM 1.24 34.232 0.26 8.24 6.26 14.96
1/6/2022 4:30:00 PM 1.25 34.25 0.26 8.23 6.07 14.95
1/6/2022 4:45:00 PM 1.25 34.25 0.26 8.23 6.41 14.92
1/6/2022 5:00:00 PM 1.25 34.25 0.26 8.22 5.65 14.88
1/6/2022 5:15:00 PM 1.25 34.25 0.261 8.22 5.99 14.86
1/6/2022 5:30:00 PM 1.25 34.25 0.261 8.21 6.19 14.82
1/6/2022 5:45:00 PM 1.25 34.25 0.261 8.2 5.82 14.79
1/6/2022 6:00:00 PM 1.25 34.25 0.261 8.19 6.08 14.75
1/6/2022 6:15:00 PM 1.25 34.25 0.261 8.18 5.53 14.72
1/6/2022 6:30:00 PM 1.25 34.25 0.261 8.17 5.88 14.69
1/6/2022 6:45:00 PM 1.25 34.25 0.261 8.16 5.54 14.65
1/6/2022 7:00:00 PM 1.24 34.232 0.261 8.15 5.61 14.61
1/6/2022 7:15:00 PM 1.24 34.232 0.261 8.14 5.62 14.57
1/6/2022 7:30:00 PM 1.23 34.214 0.261 8.13 5.44 14.54
1/6/2022 7:45:00 PM 1.23 34.214 0.261 8.12 5.58 14.52
1/6/2022 8:00:00 PM 1.23 34.214 0.261 8.11 5.65 14.49
1/6/2022 8:15:00 PM 1.23 34.214 0.261 8.1 5.43 14.47
1/6/2022 8:30:00 PM 1.23 34.214 0.261 8.1 5.45 14.45
1/6/2022 8:45:00 PM 1.23 34.214 0.262 8.09 5.47 14.42
1/6/2022 9:00:00 PM 1.23 34.214 0.262 8.09 5.42 14.4
1/6/2022 9:15:00 PM 1.23 34.214 0.262 8.08 5.5 14.38
1/6/2022 9:30:00 PM 1.23 34.214 0.262 8.07 5.59 14.36
1/6/2022 9:45:00 PM 1.22 34.196 0.262 8.07 5.34 14.32
1/6/2022 10:00:00 PM 1.22 34.196 0.262 8.06 5.2 14.3
1/6/2022 10:15:00 PM 1.21 34.178 0.262 8.06 5.48 14.28
1/6/2022 10:30:00 PM 1.21 34.178 0.262 8.05 5.68 14.25
1/6/2022 10:45:00 PM 1.2 34.16 0.262 8.04 5.3 14.24
1/6/2022 11:00:00 PM 1.19 34.142 0.262 8.04 5.38 14.21
1/6/2022 11:15:00 PM 1.18 34.124 0.262 8.03 5.46 14.21
1/6/2022 11:30:00 PM 1.17 34.106 0.262 8.03 5.55 14.19
1/6/2022 11:45:00 PM 1.15 34.07 0.262 8.03 5.5 14.16
1/7/2022 12:00:00 AM 1.14 34.052 0.262 8.02 5.68 14.15
1/7/2022 12:15:00 AM 1.13 34.034 0.262 8.02 5.75 14.14
1/7/2022 12:30:00 AM 1.12 34.016 0.262 8.01 5.83 14.12
1/7/2022 12:45:00 AM 1.1 33.98 0.262 8.01 6.01 14.11
1/7/2022 1:00:00 AM 1.09 33.962 0.262 8.01 5.89 14.09
1/7/2022 1:15:00 AM 1.08 33.944 0.261 8 6.66 14.08
1/7/2022 1:30:00 AM 1.08 33.944 0.261 8 6.61 14.08
1/7/2022 1:45:00 AM 1.07 33.926 0.261 7.99 6.8 14.05
1/7/2022 2:00:00 AM 1.07 33.926 0.261 7.99 6.4 14.04
1/7/2022 2:15:00 AM 1.07 33.926 0.261 7.99 6.62 14.02
1/7/2022 2:30:00 AM 1.07 33.926 0.261 7.98 6.11 14.01
1/7/2022 2:45:00 AM 1.06 33.908 0.261 7.98 6.21 13.99
1/7/2022 3:00:00 AM 1.06 33.908 0.261 7.98 6.27 13.99
1/7/2022 3:15:00 AM 1.06 33.908 0.261 7.97 5.93 13.96
1/7/2022 3:30:00 AM 1.06 33.908 0.261 7.97 6.36 13.95
1/7/2022 3:45:00 AM 1.05 33.89 0.261 7.97 5.91 13.94
1/7/2022 4:00:00 AM 1.04 33.872 0.261 7.96 5.44 13.92
1/7/2022 4:15:00 AM 1.03 33.854 0.261 7.96 5.49 13.91
1/7/2022 4:30:00 AM 1.02 33.836 0.26 7.95 5.7 13.9
1/7/2022 4:45:00 AM 1.01 33.818 0.26 7.95 5.75 13.88
1/7/2022 5:00:00 AM 1 33.8 0.26 7.94 5.46 13.88
1/7/2022 5:15:00 AM 0.99 33.782 0.26 7.94 5.08 13.86
1/7/2022 5:30:00 AM 0.97 33.746 0.26 7.93 5.55 13.85
1/7/2022 5:45:00 AM 0.96 33.728 0.26 7.93 5.51 13.83
1/7/2022 6:00:00 AM 0.95 33.71 0.26 7.92 5.15 13.82
1/7/2022 6:15:00 AM 0.94 33.692 0.26 7.92 5.47 13.82
1/7/2022 6:30:00 AM 0.93 33.674 0.26 7.91 5.56 13.79
1/7/2022 6:45:00 AM 0.92 33.656 0.26 7.91 5.09 13.79
1/7/2022 7:00:00 AM 0.91 33.638 0.26 7.91 5.27 13.78
1/7/2022 7:15:00 AM 0.89 33.602 0.26 7.9 5.19 13.77
1/7/2022 7:30:00 AM 0.88 33.584 0.26 7.89 5.27 13.76
1/7/2022 7:45:00 AM 0.87 33.566 0.26 7.89 5.31 13.75
1/7/2022 8:00:00 AM 0.86 33.548 0.26 7.89 5.26 13.75
1/7/2022 8:15:00 AM 0.85 33.53 0.26 7.88 5.12 13.76
1/7/2022 8:30:00 AM 0.84 33.512 0.26 7.89 5.05 13.78
1/7/2022 8:45:00 AM 0.84 33.512 0.26 7.89 5.09 13.81
1/7/2022 9:00:00 AM 0.84 33.512 0.26 7.9 5 13.86
1/7/2022 9:15:00 AM 0.84 33.512 0.26 7.91 5.25 13.91
1/7/2022 9:30:00 AM 0.84 33.512 0.26 7.92 5.36 13.98
1/7/2022 9:45:00 AM 0.85 33.53 0.26 7.93 5.2 14.05
1/7/2022 10:00:00 AM 0.87 33.566 0.26 7.95 5.47 14.11
1/7/2022 10:15:00 AM 0.89 33.602 0.26 7.95 5.26 14.18
1/7/2022 10:30:00 AM 0.92 33.656 0.26 7.98 4.93 14.25
1/7/2022 10:45:00 AM 0.94 33.692 0.26 7.99 5.5 14.31
1/7/2022 11:00:00 AM 0.95 33.71 0.26 8 4.88 14.39
1/7/2022 11:15:00 AM 0.98 33.764 0.26 8.02 5.14 14.44
1/7/2022 11:30:00 AM 0.98 33.764 0.26 8.04 5.16 14.49
1/7/2022 11:45:00 AM 1 33.8 0.26 8.05 5.1 14.55
1/7/2022 12:00:00 PM 1 33.8 0.26 8.06 4.95 14.59
1/7/2022 12:15:00 PM 1.02 33.836 0.26 8.08 5.45 14.65
1/7/2022 12:30:00 PM 1.04 33.872 0.26 8.09 5.4 14.69
1/7/2022 12:45:00 PM 1.06 33.908 0.26 8.11 5.69 14.74
1/7/2022 1:00:00 PM 1.07 33.926 0.26 8.13 5.3 14.79
1/7/2022 1:15:00 PM 1.09 33.962 0.261 8.14 5.18 14.85
1/7/2022 1:30:00 PM 1.1 33.98 0.261 8.16 5.58 14.89
1/7/2022 1:45:00 PM 1.11 33.998 0.261 8.18 5.35 14.92
1/7/2022 2:00:00 PM 1.12 34.016 0.261 8.19 5.18 14.97
1/7/2022 2:15:00 PM 1.12 34.016 0.261 8.2 5.32 15.01
1/7/2022 2:30:00 PM 1.11 33.998 0.261 8.21 5.24 15.02
1/7/2022 2:45:00 PM 1.11 33.998 0.261 8.22 5.35 15.05
1/7/2022 3:00:00 PM 1.1 33.98 0.261 8.24 5.2 15.08
1/7/2022 3:15:00 PM 1.1 33.98 0.261 8.24 5.24 15.1
1/7/2022 3:30:00 PM 1.08 33.944 0.261 8.25 5.58 15.11
1/7/2022 3:45:00 PM 1.06 33.908 0.261 8.26 5.39 15.13
1/7/2022 4:00:00 PM 1.04 33.872 0.261 8.26 5.26 15.11
1/7/2022 4:15:00 PM 1.02 33.836 0.262 8.25 5.19 15.1
1/7/2022 4:30:00 PM 1 33.8 0.262 8.25 5.41 15.08
1/7/2022 4:45:00 PM 0.98 33.764 0.262 8.25 5.07 15.05
1/7/2022 5:00:00 PM 0.97 33.746 0.262 8.24 5.03 15.03
1/7/2022 5:15:00 PM 0.95 33.71 0.262 8.23 5.07 15.01
1/7/2022 5:30:00 PM 0.94 33.692 0.263 8.23 5.66 14.98
1/7/2022 5:45:00 PM 0.92 33.656 0.263 8.22 5.18 14.94
1/7/2022 6:00:00 PM 0.91 33.638 0.263 8.21 4.99 14.9
1/7/2022 6:15:00 PM 0.91 33.638 0.264 8.2 5.29 14.86
1/7/2022 6:30:00 PM 0.9 33.62 0.264 8.19 5.1 14.84
1/7/2022 6:45:00 PM 0.88 33.584 0.264 8.18 5.49 14.8
1/7/2022 7:00:00 PM 0.86 33.548 0.264 8.17 5.19 14.77
1/7/2022 7:15:00 PM 0.83 33.494 0.264 8.16 5.34 14.74
1/7/2022 7:30:00 PM 0.8 33.44 0.264 8.15 5.14 14.71
1/7/2022 7:45:00 PM 0.76 33.368 0.264 8.14 5.25 14.68
1/7/2022 8:00:00 PM 0.72 33.296 0.265 8.13 5.26 14.66
1/7/2022 8:15:00 PM 0.68 33.224 0.265 8.11 5.13 14.64
1/7/2022 8:30:00 PM 0.65 33.17 0.265 8.11 5.22 14.62
1/7/2022 8:45:00 PM 0.62 33.116 0.265 8.1 5.28 14.6
1/7/2022 9:00:00 PM 0.58 33.044 0.266 8.09 5.33 14.58
1/7/2022 9:15:00 PM 0.55 32.99 0.266 8.09 5.34 14.56
1/7/2022 9:30:00 PM 0.51 32.918 0.267 8.08 5.29 14.55
1/7/2022 9:45:00 PM 0.48 32.864 0.267 8.07 5.2 14.53
1/7/2022 10:00:00 PM 0.47 32.846 0.268 8.07 5.11 14.52
1/7/2022 10:15:00 PM 0.45 32.81 0.268 8.06 5.41 14.51
1/7/2022 10:30:00 PM 0.43 32.774 0.268 8.05 5.56 14.5
1/7/2022 10:45:00 PM 0.42 32.756 0.269 8.05 5.26 14.49
1/7/2022 11:00:00 PM 0.41 32.738 0.269 8.05 5.32 14.49
1/7/2022 11:15:00 PM 0.39 32.702 0.269 8.04 4.95 14.48
1/7/2022 11:30:00 PM 0.37 32.666 0.269 8.04 5.27 14.47
1/7/2022 11:45:00 PM 0.34 32.612 0.269 8.04 5.23 14.46
1/8/2022 12:00:00 AM 0.32 32.576 0.269 8.03 5.52 14.45
1/8/2022 12:15:00 AM 0.29 32.522 0.269 8.03 5.36 14.45
1/8/2022 12:30:00 AM 0.27 32.486 0.269 8.03 5 14.44
1/8/2022 12:45:00 AM 0.23 32.414 0.269 8.02 5.51 14.44
1/8/2022 1:00:00 AM 0.2 32.36 0.269 8.01 5.05 14.44
1/8/2022 1:15:00 AM 0.17 32.306 0.269 8.01 5.39 14.42
1/8/2022 1:30:00 AM 0.13 32.234 0.269 8.01 5.15 14.42
1/8/2022 1:45:00 AM 0.1 32.18 0.269 8 4.98 14.42
1/8/2022 2:00:00 AM 0.07 32.126 0.269 8 4.83 14.43
1/8/2022 2:15:00 AM 0.04 32.072 0.269 7.99 5.37 14.41
1/8/2022 2:30:00 AM 0.02 32.036 0.269 8 5.31 14.41
1/8/2022 2:45:00 AM -0.01 31.982 0.269 7.99 5.19 14.41
1/8/2022 3:00:00 AM -0.03 31.946 0.269 7.99 4.94 14.4
1/8/2022 3:15:00 AM -0.05 31.91 0.269 7.98 5.06 14.4
1/8/2022 3:30:00 AM -0.07 31.874 0.269 7.98 5.37 14.39
1/8/2022 3:45:00 AM -0.09 31.838 0.269 7.98 5.28 14.4
1/8/2022 4:00:00 AM -0.1 31.82 0.269 7.97 5.28 14.39
1/8/2022 4:15:00 AM -0.11 31.802 0.269 7.97 4.93 14.39
1/8/2022 4:30:00 AM -0.11 31.802 0.27 7.96 4.92 14.38
1/8/2022 4:45:00 AM -0.1 31.82 0.27 7.96 5.43 14.39
1/8/2022 5:00:00 AM -0.1 31.82 0.27 7.96 5.2 14.39
1/8/2022 5:15:00 AM -0.1 31.82 0.27 7.95 5.21 14.38
1/8/2022 5:30:00 AM -0.1 31.82 0.27 7.94 5.08 14.39
1/8/2022 5:45:00 AM -0.09 31.838 0.27 7.94 5.57 14.38
1/8/2022 6:00:00 AM -0.09 31.838 0.27 7.94 5.2 14.38
1/8/2022 6:15:00 AM -0.09 31.838 0.271 7.94 5.36 14.38
1/8/2022 6:30:00 AM -0.09 31.838 0.271 7.93 4.97 14.38
1/8/2022 6:45:00 AM -0.09 31.838 0.271 7.92 5.39 14.37
1/8/2022 7:00:00 AM -0.09 31.838 0.271 7.92 5.38 14.37
1/8/2022 7:15:00 AM -0.09 31.838 0.272 7.91 5.2 14.37
1/8/2022 7:30:00 AM -0.09 31.838 0.272 7.92 4.91 14.36
1/8/2022 7:45:00 AM -0.09 31.838 0.272 7.91 5.01 14.36
1/8/2022 8:00:00 AM -0.09 31.838 0.273 7.9 5.44 14.37
1/8/2022 8:15:00 AM -0.09 31.838 0.273 7.9 5.04 14.37
1/8/2022 8:30:00 AM -0.08 31.856 0.274 7.9 5.12 14.38
1/8/2022 8:45:00 AM -0.09 31.838 0.274 7.9 5.31 14.41
1/8/2022 9:00:00 AM -0.09 31.838 0.275 7.91 4.69 14.45
1/8/2022 9:15:00 AM -0.08 31.856 0.275 7.91 4.91 14.48
1/8/2022 9:30:00 AM -0.08 31.856 0.275 7.92 5.49 14.54
1/8/2022 9:45:00 AM -0.08 31.856 0.276 7.93 5.17 14.58
1/8/2022 10:00:00 AM -0.08 31.856 0.276 7.92 4.83 14.65
1/8/2022 10:15:00 AM -0.08 31.856 0.277 7.94 4.98 14.71
1/8/2022 10:30:00 AM -0.07 31.874 0.277 7.95 5.18 14.77
1/8/2022 10:45:00 AM -0.07 31.874 0.278 7.96 5.1 14.82
1/8/2022 11:00:00 AM -0.07 31.874 0.278 7.98 5.1 14.9
1/8/2022 11:15:00 AM -0.07 31.874 0.278 7.99 5.35 14.95
1/8/2022 11:30:00 AM -0.06 31.892 0.278 8 5.09 15
1/8/2022 11:45:00 AM -0.06 31.892 0.278 8.01 5.85 15.04
1/8/2022 12:00:00 PM -0.06 31.892 0.278 8.02 5.57 15.1
1/8/2022 12:15:00 PM -0.05 31.91 0.278 8.04 5.26 15.14
1/8/2022 12:30:00 PM -0.05 31.91 0.278 8.05 5.13 15.19
1/8/2022 12:45:00 PM -0.05 31.91 0.278 8.06 5.02 15.24
1/8/2022 1:00:00 PM -0.05 31.91 0.278 8.07 5.47 15.26
1/8/2022 1:15:00 PM -0.04 31.928 0.278 8.09 5.14 15.33
1/8/2022 1:30:00 PM -0.03 31.946 0.278 8.1 4.72 15.38
1/8/2022 1:45:00 PM -0.02 31.964 0.278 8.11 5.14 15.45
1/8/2022 2:00:00 PM -0.02 31.964 0.278 8.13 5.11 15.48
1/8/2022 2:15:00 PM -0.03 31.946 0.278 8.15 5.06 15.52
1/8/2022 2:30:00 PM -0.04 31.928 0.278 8.16 4.81 15.56
1/8/2022 2:45:00 PM -0.05 31.91 0.278 8.17 5.02 15.6
1/8/2022 3:00:00 PM -0.06 31.892 0.278 8.18 5.04 15.62
1/8/2022 3:15:00 PM -0.05 31.91 0.278 8.19 4.97 15.63
1/8/2022 3:30:00 PM -0.06 31.892 0.278 8.19 4.68 15.65
1/8/2022 3:45:00 PM -0.06 31.892 0.278 8.2 4.95 15.67
1/8/2022 4:00:00 PM -0.06 31.892 0.278 8.2 4.9 15.68
1/8/2022 4:15:00 PM -0.07 31.874 0.279 8.21 5.27 15.69
1/8/2022 4:30:00 PM -0.07 31.874 0.279 8.21 5.13 15.69
1/8/2022 4:45:00 PM -0.08 31.856 0.279 8.21 4.74 15.67
1/8/2022 5:00:00 PM -0.08 31.856 0.279 8.21 5.31 15.65
1/8/2022 5:15:00 PM -0.09 31.838 0.279 8.2 5.16 15.63
1/8/2022 5:30:00 PM -0.09 31.838 0.28 8.19 4.73 15.59
1/8/2022 5:45:00 PM -0.09 31.838 0.28 8.19 4.76 15.55
1/8/2022 6:00:00 PM -0.09 31.838 0.28 8.18 4.55 15.51
1/8/2022 6:15:00 PM -0.09 31.838 0.28 8.16 4.79 15.48
1/8/2022 6:30:00 PM -0.09 31.838 0.28 8.16 4.73 15.44
1/8/2022 6:45:00 PM -0.09 31.838 0.281 8.15 4.64 15.41
1/8/2022 7:00:00 PM -0.09 31.838 0.281 8.14 4.65 15.38
1/8/2022 7:15:00 PM -0.09 31.838 0.281 8.14 4.77 15.35
1/8/2022 7:30:00 PM -0.09 31.838 0.282 8.13 4.68 15.33
1/8/2022 7:45:00 PM -0.09 31.838 0.282 8.13 4.79 15.3
1/8/2022 8:00:00 PM -0.09 31.838 0.283 8.11 5.07 15.26
1/8/2022 8:15:00 PM -0.08 31.856 0.283 8.11 4.61 15.23
1/8/2022 8:30:00 PM -0.08 31.856 0.283 8.1 4.89 15.2
1/8/2022 8:45:00 PM -0.08 31.856 0.284 8.1 4.82 15.17
1/8/2022 9:00:00 PM -0.07 31.874 0.284 8.09 5 15.14
1/8/2022 9:15:00 PM -0.07 31.874 0.284 8.08 4.82 15.12
1/8/2022 9:30:00 PM -0.07 31.874 0.284 8.08 4.63 15.09
1/8/2022 9:45:00 PM -0.06 31.892 0.284 8.08 4.89 15.07
1/8/2022 10:00:00 PM -0.06 31.892 0.285 8.07 4.82 15.05
1/8/2022 10:15:00 PM -0.06 31.892 0.285 8.07 4.79 15.02
1/8/2022 10:30:00 PM -0.06 31.892 0.285 8.06 4.71 15
1/8/2022 10:45:00 PM -0.06 31.892 0.285 8.06 4.92 14.98
1/8/2022 11:00:00 PM -0.05 31.91 0.285 8.05 4.85 14.96
1/8/2022 11:15:00 PM -0.06 31.892 0.285 8.05 4.99 14.93
1/8/2022 11:30:00 PM -0.06 31.892 0.285 8.03 5.1 14.91
1/8/2022 11:45:00 PM -0.06 31.892 0.285 8.03 4.86 14.89
1/9/2022 12:00:00 AM -0.06 31.892 0.285 8.02 5.23 14.87
1/9/2022 12:15:00 AM -0.06 31.892 0.285 8.02 4.97 14.84
1/9/2022 12:30:00 AM -0.06 31.892 0.285 8.01 4.73 14.82
1/9/2022 12:45:00 AM -0.06 31.892 0.285 8 5.08 14.8
1/9/2022 1:00:00 AM -0.06 31.892 0.285 8 4.97 14.78
1/9/2022 1:15:00 AM -0.06 31.892 0.285 7.99 4.98 14.77
1/9/2022 1:30:00 AM -0.07 31.874 0.285 7.99 4.83 14.74
1/9/2022 1:45:00 AM -0.06 31.892 0.284 7.98 4.81 14.73
1/9/2022 2:00:00 AM -0.06 31.892 0.284 7.97 4.95 14.71
1/9/2022 2:15:00 AM -0.07 31.874 0.284 7.97 5.13 14.69
1/9/2022 2:30:00 AM -0.06 31.892 0.284 7.96 4.74 14.67
1/9/2022 2:45:00 AM -0.06 31.892 0.284 7.96 4.8 14.66
1/9/2022 3:00:00 AM -0.06 31.892 0.284 7.95 5.11 14.64
1/9/2022 3:15:00 AM -0.06 31.892 0.284 7.95 4.73 14.63
1/9/2022 3:30:00 AM -0.06 31.892 0.284 7.95 4.64 14.61
1/9/2022 3:45:00 AM -0.06 31.892 0.284 7.94 5.07 14.6
1/9/2022 4:00:00 AM -0.06 31.892 0.284 7.94 4.86 14.59
1/9/2022 4:15:00 AM -0.06 31.892 0.284 7.93 6.7 14.57
1/9/2022 4:30:00 AM -0.06 31.892 0.284 7.93 4.98 14.56
1/9/2022 4:45:00 AM -0.06 31.892 0.284 7.93 4.76 14.55
1/9/2022 5:00:00 AM -0.06 31.892 0.284 7.93 4.54 14.53
1/9/2022 5:15:00 AM -0.06 31.892 0.285 7.92 4.69 14.52
1/9/2022 5:30:00 AM -0.06 31.892 0.285 7.93 4.48 14.51
1/9/2022 5:45:00 AM -0.06 31.892 0.285 7.92 4.55 14.51
1/9/2022 6:00:00 AM -0.05 31.91 0.285 7.92 4.92 14.49
1/9/2022 6:15:00 AM -0.05 31.91 0.285 7.92 4.59 14.48
1/9/2022 6:30:00 AM -0.05 31.91 0.285 7.92 4.88 14.46
1/9/2022 6:45:00 AM -0.05 31.91 0.286 7.92 4.6 14.45
1/9/2022 7:00:00 AM -0.05 31.91 0.286 7.92 4.49 14.43
1/9/2022 7:15:00 AM -0.05 31.91 0.287 7.91 4.55 14.41
1/9/2022 7:30:00 AM -0.04 31.928 0.287 7.9 4.59 14.4
1/9/2022 7:45:00 AM -0.04 31.928 0.287 7.91 4.85 14.39
1/9/2022 8:00:00 AM -0.04 31.928 0.288 7.9 23.9 14.36
1/9/2022 8:15:00 AM -0.03 31.946 0.288 7.91 4.8 14.38
1/9/2022 8:30:00 AM -0.03 31.946 0.289 7.9 4.54 14.38
1/9/2022 8:45:00 AM -0.02 31.964 0.289 7.91 4.57 14.39
1/9/2022 9:00:00 AM -0.01 31.982 0.289 7.92 4.46 14.41
1/9/2022 9:15:00 AM 0 32 0.29 7.92 4.41 14.45
1/9/2022 9:30:00 AM 0.03 32.054 0.29 7.93 4.65 14.48
1/9/2022 9:45:00 AM 0.04 32.072 0.291 7.94 4.48 14.52
1/9/2022 10:00:00 AM 0.06 32.108 0.291 7.95 4.33 14.57
1/9/2022 10:15:00 AM 0.1 32.18 0.292 7.96 4.46 14.63
1/9/2022 10:30:00 AM 0.12 32.216 0.293 7.97 4.29 14.68
1/9/2022 10:45:00 AM 0.16 32.288 0.293 7.98 5.31 14.74
1/9/2022 11:00:00 AM 0.21 32.378 0.294 8 4.24 14.8
1/9/2022 11:15:00 AM 0.23 32.414 0.294 8.01 4.52 14.84
1/9/2022 11:30:00 AM 0.26 32.468 0.295 8.02 4.32 14.9
1/9/2022 11:45:00 AM 0.29 32.522 0.295 8.04 4.07 14.93
1/9/2022 12:00:00 PM 0.31 32.558 0.296 8.05 4.42 14.98
1/9/2022 12:15:00 PM 0.34 32.612 0.297 8.06 4.52 15.01
1/9/2022 12:30:00 PM 0.35 32.63 0.297 8.07 4.18 15.03
1/9/2022 12:45:00 PM 0.36 32.648 0.298 8.08 4.13 15.05
1/9/2022 1:00:00 PM 0.38 32.684 0.298 8.09 4.15 15.07
1/9/2022 1:15:00 PM 0.39 32.702 0.298 8.09 3.98 15.08
1/9/2022 1:30:00 PM 0.4 32.72 0.299 8.1 4.15 15.08
1/9/2022 1:45:00 PM 0.41 32.738 0.299 8.1 4.13 15.08
1/9/2022 2:00:00 PM 0.42 32.756 0.3 8.11 4.04 15.09
1/9/2022 2:15:00 PM 0.43 32.774 0.3 8.11 3.99 15.09
1/9/2022 2:30:00 PM 0.44 32.792 0.3 8.1 3.94 15.08
1/9/2022 2:45:00 PM 0.45 32.81 0.301 8.11 3.97 15.08
1/9/2022 3:00:00 PM 0.46 32.828 0.301 8.11 4.21 15.08
1/9/2022 3:15:00 PM 0.48 32.864 0.301 8.12 3.88 15.09
1/9/2022 3:30:00 PM 0.5 32.9 0.301 8.12 3.93 15.11
1/9/2022 3:45:00 PM 0.51 32.918 0.301 8.13 3.82 15.11
1/9/2022 4:00:00 PM 0.53 32.954 0.301 8.14 3.86 15.12
1/9/2022 4:15:00 PM 0.54 32.972 0.301 8.14 4.08 15.11
1/9/2022 4:30:00 PM 0.55 32.99 0.302 8.14 3.77 15.11
1/9/2022 4:45:00 PM 0.56 33.008 0.301 8.14 3.93 15.08
1/9/2022 5:00:00 PM 0.56 33.008 0.302 8.14 3.89 15.04
1/9/2022 5:15:00 PM 0.57 33.026 0.302 8.13 3.87 15.01
1/9/2022 5:30:00 PM 0.59 33.062 0.302 8.13 4.1 14.97
1/9/2022 5:45:00 PM 0.6 33.08 0.302 8.12 3.9 14.93
1/9/2022 6:00:00 PM 0.62 33.116 0.302 8.11 3.95 14.9
1/9/2022 6:15:00 PM 0.63 33.134 0.303 8.12 3.92 14.87
1/9/2022 6:30:00 PM 0.65 33.17 0.303 8.11 3.91 14.84
1/9/2022 6:45:00 PM 0.66 33.188 0.304 8.11 3.97 14.81
1/9/2022 7:00:00 PM 0.68 33.224 0.305 8.09 3.92 14.78
1/9/2022 7:15:00 PM 0.69 33.242 0.305 8.1 3.97 14.75
1/9/2022 7:30:00 PM 0.71 33.278 0.306 8.09 3.93 14.72
1/9/2022 7:45:00 PM 0.72 33.296 0.307 8.09 3.97 14.68
1/9/2022 8:00:00 PM 0.73 33.314 0.307 8.08 3.94 14.64
1/9/2022 8:15:00 PM 0.73 33.314 0.308 8.07 4.06 14.61
1/9/2022 8:30:00 PM 0.73 33.314 0.309 8.07 3.73 14.58
1/9/2022 8:45:00 PM 0.74 33.332 0.31 8.06 3.95 14.54
1/9/2022 9:00:00 PM 0.74 33.332 0.311 8.06 3.93 14.5
1/9/2022 9:15:00 PM 0.74 33.332 0.312 8.05 3.86 14.47
1/9/2022 9:30:00 PM 0.73 33.314 0.314 8.04 3.96 14.45
1/9/2022 9:45:00 PM 0.73 33.314 0.315 8.04 4.02 14.42
1/9/2022 10:00:00 PM 0.71 33.278 0.317 8.03 4.18 14.39
1/9/2022 10:15:00 PM 0.7 33.26 0.319 8.02 3.92 14.37
1/9/2022 10:30:00 PM 0.69 33.242 0.32 8.02 3.86 14.34
1/9/2022 10:45:00 PM 0.67 33.206 0.322 8.01 3.95 14.32
1/9/2022 11:00:00 PM 0.66 33.188 0.323 8.01 3.83 14.3
1/9/2022 11:15:00 PM 0.64 33.152 0.324 8 3.93 14.28
1/9/2022 11:30:00 PM 0.62 33.116 0.324 8 4.05 14.27
1/9/2022 11:45:00 PM 0.61 33.098 0.324 7.99 3.87 14.25
1/10/2022 12:00:00 AM 0.59 33.062 0.324 7.99 4.01 14.24
1/10/2022 12:15:00 AM 0.58 33.044 0.323 7.99 3.99 14.23
1/10/2022 12:30:00 AM 0.56 33.008 0.323 7.98 3.98 14.21
1/10/2022 12:45:00 AM 0.55 32.99 0.322 7.98 4.07 14.2
1/10/2022 1:00:00 AM 0.53 32.954 0.321 7.98 3.95 14.19
1/10/2022 1:15:00 AM 0.5 32.9 0.32 7.97 4.5 14.19
1/10/2022 1:30:00 AM 0.48 32.864 0.319 7.97 4.09 14.17
1/10/2022 1:45:00 AM 0.46 32.828 0.318 7.97 4.06 14.17
1/10/2022 2:00:00 AM 0.44 32.792 0.317 7.97 4.12 14.16
1/10/2022 2:15:00 AM 0.42 32.756 0.316 7.96 4.13 14.16
1/10/2022 2:30:00 AM 0.4 32.72 0.315 7.96 3.98 14.14
1/10/2022 2:45:00 AM 0.39 32.702 0.314 7.96 4.08 14.14
1/10/2022 3:00:00 AM 0.37 32.666 0.314 7.95 3.9 14.14
1/10/2022 3:15:00 AM 0.35 32.63 0.313 7.96 3.95 14.12
1/10/2022 3:30:00 AM 0.32 32.576 0.313 7.96 4.52 14.12
1/10/2022 3:45:00 AM 0.3 32.54 0.313 7.95 4.04 14.12
1/10/2022 4:00:00 AM 0.28 32.504 0.312 7.95 4.37 14.12
1/10/2022 4:15:00 AM 0.26 32.468 0.312 7.95 3.93 14.11
1/10/2022 4:30:00 AM 0.24 32.432 0.312 7.95 4.07 14.11
1/10/2022 4:45:00 AM 0.23 32.414 0.312 7.95 4.02 14.1
1/10/2022 5:00:00 AM 0.22 32.396 0.312 7.95 3.99 14.1
1/10/2022 5:15:00 AM 0.18 32.324 0.312 7.94 4.3 14.1
1/10/2022 5:30:00 AM 0.16 32.288 0.312 7.95 3.94 14.09
1/10/2022 5:45:00 AM 0.14 32.252 0.312 7.94 4.09 14.09
1/10/2022 6:00:00 AM 0.13 32.234 0.312 7.94 4.02 14.08
1/10/2022 6:15:00 AM 0.11 32.198 0.312 7.94 4.27 14.08
1/10/2022 6:30:00 AM 0.1 32.18 0.312 7.94 4.15 14.07
1/10/2022 6:45:00 AM 0.07 32.126 0.312 7.94 4.23 14.07
1/10/2022 7:00:00 AM 0.06 32.108 0.312 7.93 4.13 14.07
1/10/2022 7:15:00 AM 0.04 32.072 0.313 7.93 4.06 14.07
1/10/2022 7:30:00 AM 0.02 32.036 0.313 7.93 4.15 14.06
1/10/2022 7:45:00 AM 0 32 0.313 7.92 4.27 14.06
1/10/2022 8:00:00 AM -0.01 31.982 0.313 7.92 4.08 14.07
1/10/2022 8:15:00 AM -0.02 31.964 0.314 7.93 4.2 14.08
1/10/2022 8:30:00 AM -0.03 31.946 0.314 7.92 4.08 14.1
1/10/2022 8:45:00 AM -0.04 31.928 0.313 7.93 4.11 14.13
1/10/2022 9:00:00 AM -0.05 31.91 0.313 7.94 4.23 14.17
1/10/2022 9:15:00 AM -0.05 31.91 0.313 7.93 4.27 14.23
1/10/2022 9:30:00 AM -0.05 31.91 0.312 7.95 4.08 14.28
1/10/2022 9:45:00 AM -0.05 31.91 0.311 7.95 4.06 14.36
1/10/2022 10:00:00 AM -0.05 31.91 0.31 7.97 4.07 14.42
1/10/2022 10:15:00 AM -0.05 31.91 0.309 7.98 4.22 14.49
1/10/2022 10:30:00 AM -0.04 31.928 0.308 7.99 4.22 14.55
1/10/2022 10:45:00 AM -0.03 31.946 0.307 8 4.34 14.62
1/10/2022 11:00:00 AM -0.03 31.946 0.306 8.02 4.12 14.69
1/10/2022 11:15:00 AM -0.02 31.964 0.305 8.03 4.26 14.75
1/10/2022 11:30:00 AM -0.01 31.982 0.304 8.04 4.16 14.82
1/10/2022 11:45:00 AM 0 32 0.304 8.06 4.14 14.9
1/10/2022 12:00:00 PM 0 32 0.303 8.07 4.08 14.95
1/10/2022 12:15:00 PM 0.01 32.018 0.302 8.09 4.27 15.01
1/10/2022 12:30:00 PM 0.01 32.018 0.302 8.1 4.08 15.08
1/10/2022 12:45:00 PM 0.03 32.054 0.302 8.12 4.16 15.13
1/10/2022 1:00:00 PM 0.05 32.09 0.301 8.13 4.31 15.19
1/10/2022 1:15:00 PM 0.07 32.126 0.301 8.15 4.04 15.25
1/10/2022 1:30:00 PM 0.09 32.162 0.301 8.17 4.17 15.3
1/10/2022 1:45:00 PM 0.13 32.234 0.301 8.19 4.05 15.36
1/10/2022 2:00:00 PM 0.14 32.252 0.301 8.2 3.95 15.4
1/10/2022 2:15:00 PM 0.15 32.27 0.301 8.22 4.16 15.45
1/10/2022 2:30:00 PM 0.17 32.306 0.301 8.23 4.01 15.49
1/10/2022 2:45:00 PM 0.16 32.288 0.301 8.25 4.35 15.52
1/10/2022 3:00:00 PM 0.15 32.27 0.301 8.26 4.04 15.53
1/10/2022 3:15:00 PM 0.13 32.234 0.301 8.27 4.27 15.56
1/10/2022 3:30:00 PM 0.12 32.216 0.301 8.27 4.37 15.57
1/10/2022 3:45:00 PM 0.12 32.216 0.301 8.28 4.21 15.59
1/10/2022 4:00:00 PM 0.12 32.216 0.301 8.29 4.47 15.6
1/10/2022 4:15:00 PM 0.11 32.198 0.301 8.3 4.01 15.61
1/10/2022 4:30:00 PM 0.11 32.198 0.301 8.3 4.17 15.61
1/10/2022 4:45:00 PM 0.08 32.144 0.301 8.3 4.13 15.6
1/10/2022 5:00:00 PM 0.05 32.09 0.301 8.3 4.29 15.57
1/10/2022 5:15:00 PM 0.02 32.036 0.301 8.29 4.19 15.54
1/10/2022 5:30:00 PM -0.01 31.982 0.301 8.28 4.27 15.5
1/10/2022 5:45:00 PM -0.05 31.91 0.302 8.27 4.67 15.44
1/10/2022 6:00:00 PM -0.08 31.856 0.302 8.26 4.61 15.42
1/10/2022 6:15:00 PM -0.1 31.82 0.302 8.25 4.49 15.38
1/10/2022 6:30:00 PM -0.1 31.82 0.302 8.23 4.63 15.35
1/10/2022 6:45:00 PM -0.09 31.838 0.302 8.23 6.02 15.32
1/10/2022 7:00:00 PM -0.09 31.838 0.303 8.22 4.35 15.29
1/10/2022 7:15:00 PM -0.08 31.856 0.303 8.21 4.61 15.26
1/10/2022 7:30:00 PM -0.08 31.856 0.303 8.2 4.62 15.24
1/10/2022 7:45:00 PM -0.08 31.856 0.303 8.19 4.4 15.2
1/10/2022 8:00:00 PM -0.08 31.856 0.303 8.19 4.45 15.18
1/10/2022 8:15:00 PM -0.08 31.856 0.303 8.18 4.28 15.15
1/10/2022 8:30:00 PM -0.08 31.856 0.303 8.18 4.65 15.12
1/10/2022 8:45:00 PM -0.08 31.856 0.303 8.17 4.49 15.09
1/10/2022 9:00:00 PM -0.08 31.856 0.303 8.16 4.71 15.08
1/10/2022 9:15:00 PM -0.08 31.856 0.303 8.16 4.82 15.06
1/10/2022 9:30:00 PM -0.09 31.838 0.303 8.15 4.79 15.04
1/10/2022 9:45:00 PM -0.09 31.838 0.303 8.14 4.89 15.02
1/10/2022 10:00:00 PM -0.09 31.838 0.303 8.14 4.68 15
1/10/2022 10:15:00 PM -0.09 31.838 0.303 8.13 4.64 14.98
1/10/2022 10:30:00 PM -0.09 31.838 0.303 8.12 4.66 14.96
1/10/2022 10:45:00 PM -0.09 31.838 0.303 8.12 5.06 14.95
1/10/2022 11:00:00 PM -0.09 31.838 0.303 8.11 5.02 14.93
1/10/2022 11:15:00 PM -0.09 31.838 0.304 8.11 4.61 14.92
1/10/2022 11:30:00 PM -0.09 31.838 0.304 8.1 4.65 14.9
1/10/2022 11:45:00 PM -0.09 31.838 0.304 8.1 4.8 14.88
1/11/2022 12:00:00 AM -0.08 31.856 0.304 8.08 4.52 14.87
1/11/2022 12:15:00 AM -0.08 31.856 0.304 8.08 4.94 14.86
1/11/2022 12:30:00 AM -0.08 31.856 0.304 8.07 4.55 14.84
1/11/2022 12:45:00 AM -0.08 31.856 0.304 8.07 4.62 14.83
1/11/2022 1:00:00 AM -0.08 31.856 0.304 8.06 4.43 14.81
1/11/2022 1:15:00 AM -0.09 31.838 0.304 8.06 4.59 14.8
1/11/2022 1:30:00 AM -0.08 31.856 0.303 8.05 4.55 14.79
1/11/2022 1:45:00 AM -0.08 31.856 0.303 8.05 4.73 14.78
1/11/2022 2:00:00 AM -0.09 31.838 0.303 8.04 4.64 14.77
1/11/2022 2:15:00 AM -0.08 31.856 0.303 8.04 4.71 14.75
1/11/2022 2:30:00 AM -0.08 31.856 0.303 8.03 4.97 14.74
1/11/2022 2:45:00 AM -0.09 31.838 0.303 8.03 4.58 14.74
1/11/2022 3:00:00 AM -0.08 31.856 0.303 8.03 4.57 14.73
1/11/2022 3:15:00 AM -0.08 31.856 0.303 8.02 4.56 14.72
1/11/2022 3:30:00 AM -0.08 31.856 0.303 8.02 4.78 14.71
1/11/2022 3:45:00 AM -0.08 31.856 0.303 8.01 4.43 14.69
1/11/2022 4:00:00 AM -0.08 31.856 0.303 8 4.82 14.69
1/11/2022 4:15:00 AM -0.08 31.856 0.303 8.01 4.57 14.68
1/11/2022 4:30:00 AM -0.09 31.838 0.303 8 4.39 14.67
1/11/2022 4:45:00 AM -0.08 31.856 0.303 7.99 4.96 14.66
1/11/2022 5:00:00 AM -0.08 31.856 0.303 7.99 5.02 14.65
1/11/2022 5:15:00 AM -0.08 31.856 0.303 7.99 4.99 14.65
1/11/2022 5:30:00 AM -0.08 31.856 0.303 7.99 4.9 14.64
1/11/2022 5:45:00 AM -0.08 31.856 0.304 7.99 4.65 14.64
1/11/2022 6:00:00 AM -0.08 31.856 0.304 7.98 5.02 14.62
1/11/2022 6:15:00 AM -0.08 31.856 0.304 7.98 4.84 14.6
1/11/2022 6:30:00 AM -0.08 31.856 0.304 7.98 5.01 14.61
1/11/2022 6:45:00 AM -0.08 31.856 0.304 7.97 4.57 14.61
1/11/2022 7:00:00 AM -0.08 31.856 0.304 7.97 4.96 14.59
1/11/2022 7:15:00 AM -0.08 31.856 0.305 7.96 5.06 14.59
1/11/2022 7:30:00 AM -0.08 31.856 0.305 7.97 5.11 14.59
1/11/2022 7:45:00 AM -0.08 31.856 0.305 7.96 4.83 14.57
1/11/2022 8:00:00 AM -0.08 31.856 0.305 7.96 4.95 14.58
1/11/2022 8:15:00 AM -0.08 31.856 0.305 7.96 5.24 14.6
1/11/2022 8:30:00 AM -0.08 31.856 0.305 7.96 5.13 14.61
1/11/2022 8:45:00 AM -0.08 31.856 0.306 7.96 4.92 14.65
1/11/2022 9:00:00 AM -0.08 31.856 0.306 7.97 4.67 14.67
1/11/2022 9:15:00 AM -0.08 31.856 0.306 7.97 5.14 14.71
1/11/2022 9:30:00 AM -0.08 31.856 0.306 7.98 4.58 14.74
1/11/2022 9:45:00 AM -0.08 31.856 0.306 7.98 4.83 14.8
1/11/2022 10:00:00 AM -0.08 31.856 0.306 7.99 4.62 14.86
1/11/2022 10:15:00 AM -0.08 31.856 0.306 8 4.59 14.9
1/11/2022 10:30:00 AM -0.08 31.856 0.306 8.01 4.73 14.97
1/11/2022 10:45:00 AM -0.08 31.856 0.306 8.01 4.71 15.01
1/11/2022 11:00:00 AM -0.08 31.856 0.306 8.03 4.74 15.06
1/11/2022 11:15:00 AM -0.08 31.856 0.307 8.04 4.88 15.14
1/11/2022 11:30:00 AM -0.07 31.874 0.307 8.06 4.95 15.2
1/11/2022 11:45:00 AM -0.07 31.874 0.307 8.06 4.68 15.25
1/11/2022 12:00:00 PM -0.08 31.856 0.307 8.08 5.05 15.29
1/11/2022 12:15:00 PM -0.07 31.874 0.307 8.09 5.1 15.37
1/11/2022 12:30:00 PM -0.07 31.874 0.307 8.11 5.23 15.41
1/11/2022 12:45:00 PM -0.07 31.874 0.308 8.12 5.46 15.47
1/11/2022 1:00:00 PM -0.07 31.874 0.308 8.13 5.88 15.53
1/11/2022 1:15:00 PM -0.07 31.874 0.308 8.13 5.02 15.55
1/11/2022 1:30:00 PM -0.06 31.892 0.308 8.15 4.98 15.62
1/11/2022 1:45:00 PM -0.06 31.892 0.308 8.17 5.14 15.67
1/11/2022 2:00:00 PM -0.06 31.892 0.308 8.18 5.15 15.72
1/11/2022 2:15:00 PM -0.06 31.892 0.308 8.19 5.01 15.77
1/11/2022 2:30:00 PM -0.06 31.892 0.308 8.2 5.19 15.8
1/11/2022 2:45:00 PM -0.07 31.874 0.308 8.21 5.09 15.83
1/11/2022 3:00:00 PM -0.07 31.874 0.308 8.22 5.02 15.87
1/11/2022 3:15:00 PM -0.07 31.874 0.308 8.23 5 15.91
1/11/2022 3:30:00 PM -0.08 31.856 0.308 8.24 4.9 15.93
1/11/2022 3:45:00 PM -0.08 31.856 0.308 8.24 4.77 15.95
1/11/2022 4:00:00 PM -0.08 31.856 0.308 8.26 5.28 15.96
1/11/2022 4:15:00 PM -0.08 31.856 0.308 8.26 4.97 15.96
1/11/2022 4:30:00 PM -0.08 31.856 0.308 8.25 4.77 15.97
1/11/2022 4:45:00 PM -0.09 31.838 0.309 8.26 5.05 15.96
1/11/2022 5:00:00 PM -0.08 31.856 0.309 8.26 5.31 15.96
1/11/2022 5:15:00 PM -0.09 31.838 0.309 8.26 4.94 15.95
1/11/2022 5:30:00 PM -0.09 31.838 0.309 8.26 4.7 15.94
1/11/2022 5:45:00 PM -0.09 31.838 0.309 8.26 4.94 15.92
1/11/2022 6:00:00 PM -0.09 31.838 0.309 8.25 4.83 15.89
1/11/2022 6:15:00 PM -0.09 31.838 0.31 8.25 4.91 15.87
1/11/2022 6:30:00 PM -0.09 31.838 0.31 8.23 4.9 15.81
1/11/2022 6:45:00 PM -0.09 31.838 0.31 8.23 5.06 15.8
1/11/2022 7:00:00 PM -0.09 31.838 0.31 8.23 4.89 15.78
1/11/2022 7:15:00 PM -0.09 31.838 0.31 8.22 4.82 15.76
1/11/2022 7:30:00 PM -0.09 31.838 0.31 8.22 4.71 15.73
1/11/2022 7:45:00 PM -0.09 31.838 0.311 8.21 4.66 15.7
1/11/2022 8:00:00 PM -0.09 31.838 0.311 8.21 4.57 15.67
1/11/2022 8:15:00 PM -0.09 31.838 0.311 8.2 4.6 15.65
1/11/2022 8:30:00 PM -0.09 31.838 0.311 8.19 4.5 15.6
1/11/2022 8:45:00 PM -0.09 31.838 0.311 8.18 5.09 15.6
1/11/2022 9:00:00 PM -0.09 31.838 0.312 8.18 4.74 15.57
1/11/2022 9:15:00 PM -0.09 31.838 0.312 8.18 4.82 15.57
1/11/2022 9:30:00 PM -0.09 31.838 0.312 8.17 4.69 15.52
1/11/2022 9:45:00 PM -0.09 31.838 0.312 8.16 5.04 15.49
1/11/2022 10:00:00 PM -0.09 31.838 0.313 8.15 4.63 15.46
1/11/2022 10:15:00 PM -0.09 31.838 0.313 8.15 4.53 15.43
1/11/2022 10:30:00 PM -0.09 31.838 0.313 8.14 4.84 15.42
1/11/2022 10:45:00 PM -0.09 31.838 0.313 8.13 4.79 15.38
1/11/2022 11:00:00 PM -0.09 31.838 0.313 8.13 4.86 15.36
1/11/2022 11:15:00 PM -0.09 31.838 0.313 8.12 4.69 15.3
1/11/2022 11:30:00 PM -0.08 31.856 0.314 8.12 4.38 15.32
1/11/2022 11:45:00 PM -0.09 31.838 0.314 8.11 4.89 15.29
1/12/2022 12:00:00 AM -0.08 31.856 0.314 8.11 5.02 15.25
1/12/2022 12:15:00 AM -0.08 31.856 0.314 8.1 4.61 15.14
1/12/2022 12:30:00 AM -0.08 31.856 0.314 8.09 4.91 15.22
1/12/2022 12:45:00 AM -0.08 31.856 0.314 8.09 5.01 15.18
1/12/2022 1:00:00 AM -0.08 31.856 0.314 8.08 5 15.13
1/12/2022 1:15:00 AM -0.08 31.856 0.314 8.08 4.38 15.11
1/12/2022 1:30:00 AM -0.08 31.856 0.314 8.07 5.49 15.09
1/12/2022 1:45:00 AM -0.08 31.856 0.314 8.07 4.83 15.13
1/12/2022 2:00:00 AM -0.08 31.856 0.314 8.07 4.78 15.07
1/12/2022 2:15:00 AM -0.08 31.856 0.315 8.06 5.39 14.98
1/12/2022 2:30:00 AM -0.08 31.856 0.315 8.06 4.61 15
1/12/2022 2:45:00 AM -0.08 31.856 0.315 8.05 5.05 14.96
1/12/2022 3:00:00 AM -0.08 31.856 0.315 8.05 5.08 15.01
1/12/2022 3:15:00 AM -0.08 31.856 0.315 8.05 5.04 15.04
1/12/2022 3:30:00 AM -0.08 31.856 0.316 8.04 5.23 15
1/12/2022 3:45:00 AM -0.08 31.856 0.316 8.03 5.06 14.98
1/12/2022 4:00:00 AM -0.08 31.856 0.316 8.03 5.11 14.97
1/12/2022 4:15:00 AM -0.07 31.874 0.316 8.02 4.99 14.93
1/12/2022 4:30:00 AM -0.07 31.874 0.316 8.01 5 14.91
1/12/2022 4:45:00 AM -0.07 31.874 0.316 8 5.07 14.9
1/12/2022 5:00:00 AM -0.07 31.874 0.316 8 5.13 14.86
1/12/2022 5:15:00 AM -0.07 31.874 0.316 7.99 4.95 14.85
1/12/2022 5:30:00 AM -0.07 31.874 0.316 7.98 4.87 14.82
1/12/2022 5:45:00 AM -0.07 31.874 0.316 7.97 4.9 14.8
1/12/2022 6:00:00 AM -0.07 31.874 0.316 7.97 5.17 14.77
1/12/2022 6:15:00 AM -0.07 31.874 0.317 7.96 4.98 14.75
1/12/2022 6:30:00 AM -0.07 31.874 0.317 7.95 4.73 14.72
1/12/2022 6:45:00 AM -0.07 31.874 0.317 7.95 5.06 14.67
1/12/2022 7:00:00 AM -0.07 31.874 0.317 7.95 5.19 14.69
1/12/2022 7:15:00 AM -0.07 31.874 0.317 7.95 5.08 14.66
1/12/2022 7:30:00 AM -0.07 31.874 0.317 7.94 5.32 14.64
1/12/2022 7:45:00 AM -0.07 31.874 0.317 7.94 4.84 14.65
1/12/2022 8:00:00 AM -0.07 31.874 0.317 7.94 5.09 14.63
1/12/2022 8:15:00 AM -0.07 31.874 0.317 7.93 5.6 14.61
1/12/2022 8:30:00 AM -0.07 31.874 0.318 7.94 5.64 14.6
1/12/2022 8:45:00 AM -0.07 31.874 0.318 7.93 5.92 14.58
1/12/2022 9:00:00 AM -0.07 31.874 0.318 7.93 5.49 14.57
1/12/2022 9:15:00 AM -0.07 31.874 0.318 7.93 5.13 14.55
1/12/2022 9:30:00 AM -0.07 31.874 0.318 7.93 5.44 14.56
1/12/2022 9:45:00 AM -0.07 31.874 0.318 7.92 5.22 14.58
1/12/2022 10:00:00 AM -0.07 31.874 0.318 7.93 5.06 14.58
1/12/2022 10:15:00 AM -0.07 31.874 0.318 7.92 5.01 14.59
1/12/2022 10:30:00 AM -0.06 31.892 0.318 7.94 5.09 14.61
1/12/2022 10:45:00 AM -0.06 31.892 0.318 7.94 5.12 14.65
1/12/2022 11:00:00 AM -0.06 31.892 0.318 7.94 5.09 14.68
1/12/2022 11:15:00 AM -0.06 31.892 0.318 7.95 5.08 14.72
1/12/2022 11:30:00 AM -0.06 31.892 0.318 7.95 4.9 14.75
1/12/2022 11:45:00 AM -0.06 31.892 0.317 7.96 5.29 14.81
1/12/2022 12:00:00 PM -0.06 31.892 0.317 7.97 5.11 14.85
1/12/2022 12:15:00 PM -0.05 31.91 0.318 7.98 5.4 14.9
1/12/2022 12:30:00 PM -0.05 31.91 0.317 7.99 5.28 14.95
1/12/2022 12:45:00 PM -0.04 31.928 0.317 8 5.33 14.98
1/12/2022 1:00:00 PM -0.04 31.928 0.317 8.02 4.88 15
1/12/2022 1:15:00 PM -0.04 31.928 0.317 8.03 5.07 15.1
1/12/2022 1:30:00 PM -0.04 31.928 0.318 8.05 5.5 15.12
1/12/2022 1:45:00 PM -0.05 31.91 0.318 8.06 5.88 15.18
1/12/2022 2:00:00 PM -0.05 31.91 0.318 8.08 4.94 15.23
1/12/2022 2:15:00 PM -0.05 31.91 0.318 8.1 5.67 15.26
1/12/2022 2:30:00 PM -0.05 31.91 0.319 8.12 6.53 15.31
1/12/2022 2:45:00 PM -0.06 31.892 0.321 8.13 10.6 15.34
1/12/2022 3:00:00 PM -0.06 31.892 0.321 8.15 7.56 15.37
1/12/2022 3:15:00 PM -0.07 31.874 0.322 8.16 6.24 15.38
1/12/2022 3:30:00 PM -0.07 31.874 0.322 8.16 5.06 15.38
1/12/2022 3:45:00 PM -0.07 31.874 0.323 8.14 5.93 15.38
1/12/2022 4:00:00 PM -0.07 31.874 0.323 8.11 6.42 15.33
1/12/2022 4:15:00 PM -0.08 31.856 0.326 8.13 9.34 15.4
1/12/2022 4:30:00 PM -0.07 31.874 0.324 8.1 7.23 15.36
1/12/2022 4:45:00 PM -0.07 31.874 0.325 8.11 6.82 15.36
1/12/2022 5:00:00 PM -0.05 31.91 0.326 8.13 5.63 15.36
1/12/2022 5:15:00 PM -0.04 31.928 0.326 8.13 5.19 15.38
1/12/2022 5:30:00 PM -0.05 31.91 0.326 8.14 5.11 15.37
1/12/2022 5:45:00 PM -0.05 31.91 0.327 8.14 5.09 15.36
1/12/2022 6:00:00 PM -0.05 31.91 0.327 8.15 4.8 15.36
1/12/2022 6:15:00 PM -0.04 31.928 0.328 8.15 4.98 15.37
1/12/2022 6:30:00 PM -0.04 31.928 0.328 8.15 4.76 15.37
1/12/2022 6:45:00 PM -0.04 31.928 0.328 8.15 4.84 15.32
1/12/2022 7:00:00 PM -0.04 31.928 0.329 8.15 4.89 15.31
1/12/2022 7:15:00 PM -0.04 31.928 0.329 8.15 5.2 15.33
1/12/2022 7:30:00 PM -0.04 31.928 0.33 8.15 4.8 15.3
1/12/2022 7:45:00 PM -0.04 31.928 0.33 8.14 4.77 15.24
1/12/2022 8:00:00 PM -0.04 31.928 0.33 8.13 5.04 15.2
1/12/2022 8:15:00 PM -0.04 31.928 0.331 8.14 4.83 15.19
1/12/2022 8:30:00 PM -0.05 31.91 0.331 8.13 4.91 15.16
1/12/2022 8:45:00 PM -0.05 31.91 0.332 8.13 4.8 15.15
1/12/2022 9:00:00 PM -0.05 31.91 0.333 8.13 4.67 15.13
1/12/2022 9:15:00 PM -0.05 31.91 0.334 8.12 4.92 15.09
1/12/2022 9:30:00 PM -0.04 31.928 0.335 8.12 4.92 15.05
1/12/2022 9:45:00 PM -0.05 31.91 0.335 8.11 4.81 15.02
1/12/2022 10:00:00 PM -0.04 31.928 0.336 8.1 4.73 14.98
1/12/2022 10:15:00 PM -0.04 31.928 0.336 8.09 4.9 14.94
1/12/2022 10:30:00 PM -0.04 31.928 0.337 8.09 4.51 14.88
1/12/2022 10:45:00 PM -0.04 31.928 0.337 8.08 4.29 14.86
1/12/2022 11:00:00 PM -0.04 31.928 0.337 8.07 4.75 14.81
1/12/2022 11:15:00 PM -0.04 31.928 0.337 8.06 4.25 14.78
1/12/2022 11:30:00 PM -0.04 31.928 0.337 8.06 4.76 14.73
1/12/2022 11:45:00 PM -0.04 31.928 0.337 8.04 4.46 14.69
1/13/2022 12:00:00 AM -0.04 31.928 0.337 8.03 4.6 14.64
1/13/2022 12:15:00 AM -0.04 31.928 0.337 8.03 4.77 14.62
1/13/2022 12:30:00 AM -0.05 31.91 0.337 8.01 4.56 14.59
1/13/2022 12:45:00 AM -0.05 31.91 0.337 8.01 4.83 14.57
1/13/2022 1:00:00 AM -0.05 31.91 0.337 8 4.59 14.53
1/13/2022 1:15:00 AM -0.05 31.91 0.337 7.99 5.02 14.5
1/13/2022 1:30:00 AM -0.06 31.892 0.337 7.97 4.81 14.47
1/13/2022 1:45:00 AM -0.06 31.892 0.337 7.96 4.57 14.44
1/13/2022 2:00:00 AM -0.06 31.892 0.337 7.96 4.63 14.42
1/13/2022 2:15:00 AM -0.06 31.892 0.337 7.95 4.65 14.38
1/13/2022 2:30:00 AM -0.06 31.892 0.337 7.95 4.46 14.36
1/13/2022 2:45:00 AM -0.06 31.892 0.337 7.93 4.55 14.33
1/13/2022 3:00:00 AM -0.06 31.892 0.337 7.92 4.63 14.31
1/13/2022 3:15:00 AM -0.07 31.874 0.336 7.93 4.3 14.29
1/13/2022 3:30:00 AM -0.07 31.874 0.336 7.94 4.75 14.28
1/13/2022 3:45:00 AM -0.06 31.892 0.335 7.94 4.69 14.26
1/13/2022 4:00:00 AM -0.06 31.892 0.335 7.93 4.4 14.25
1/13/2022 4:15:00 AM -0.06 31.892 0.334 7.92 4.45 14.24
1/13/2022 4:30:00 AM -0.06 31.892 0.333 7.91 4.62 14.22
1/13/2022 4:45:00 AM -0.06 31.892 0.332 7.9 4.19 14.2
1/13/2022 5:00:00 AM -0.06 31.892 0.332 7.91 4.8 14.21
1/13/2022 5:15:00 AM -0.06 31.892 0.331 7.89 4.56 14.18
1/13/2022 5:30:00 AM -0.06 31.892 0.33 7.91 4.57 14.18
1/13/2022 5:45:00 AM -0.05 31.91 0.329 7.87 4.66 14.15
1/13/2022 6:00:00 AM -0.06 31.892 0.329 7.89 4.46 14.16
1/13/2022 6:15:00 AM -0.06 31.892 0.328 7.89 4.55 14.15
1/13/2022 6:30:00 AM -0.06 31.892 0.327 7.9 4.77 14.15
1/13/2022 6:45:00 AM -0.06 31.892 0.327 7.89 4.54 14.14
1/13/2022 7:00:00 AM -0.06 31.892 0.327 7.88 4.33 14.12
1/13/2022 7:15:00 AM -0.06 31.892 0.327 7.88 4.52 14.12
1/13/2022 7:30:00 AM -0.05 31.91 0.326 7.9 4.57 14.11
1/13/2022 7:45:00 AM -0.05 31.91 0.325 7.89 4.57 14.11
1/13/2022 8:00:00 AM -0.05 31.91 0.325 7.88 4.56 14.08
1/13/2022 8:15:00 AM -0.05 31.91 0.325 7.89 4.43 14.09
1/13/2022 8:30:00 AM -0.05 31.91 0.324 7.89 4.19 14.08
1/13/2022 8:45:00 AM -0.05 31.91 0.324 7.88 4.34 14.08
1/13/2022 9:00:00 AM -0.04 31.928 0.324 7.88 4.31 14.07
1/13/2022 9:15:00 AM -0.04 31.928 0.324 7.89 4.52 14.1
1/13/2022 9:30:00 AM -0.04 31.928 0.324 7.89 4.75 14.11
1/13/2022 9:45:00 AM -0.03 31.946 0.324 7.89 4.15 14.16
1/13/2022 10:00:00 AM -0.03 31.946 0.324 7.9 4.76 14.19
1/13/2022 10:15:00 AM -0.03 31.946 0.323 7.91 4.17 14.22
1/13/2022 10:30:00 AM -0.02 31.964 0.323 7.91 4.17 14.25
1/13/2022 10:45:00 AM -0.02 31.964 0.323 7.92 4.67 14.31
1/13/2022 11:00:00 AM -0.01 31.982 0.323 7.93 4.44 14.34
1/13/2022 11:15:00 AM 0 32 0.323 7.93 4.44 14.39
1/13/2022 11:30:00 AM 0 32 0.323 7.95 4.32 14.44
1/13/2022 11:45:00 AM 0.01 32.018 0.323 7.95 4.43 14.46
1/13/2022 12:00:00 PM 0.01 32.018 0.323 7.96 4.47 14.52
1/13/2022 12:15:00 PM 0.01 32.018 0.324 7.96 4.31 14.56
1/13/2022 12:30:00 PM 0.02 32.036 0.324 7.94 3.99 14.53
1/13/2022 12:45:00 PM 0.02 32.036 0.324 7.96 4.11 14.59
1/13/2022 1:00:00 PM 0.02 32.036 0.324 7.98 4.36 14.65
1/13/2022 1:15:00 PM -0.01 31.982 0.324 8 4.28 14.64
1/13/2022 1:30:00 PM 0.01 32.018 0.324 8.01 4.25 14.66
1/13/2022 1:45:00 PM 0 32 0.324 8.03 4.24 14.69
1/13/2022 2:00:00 PM 0.05 32.09 0.325 8.05 4.42 14.86
1/13/2022 2:15:00 PM 0.06 32.108 0.325 8.06 3.95 14.9
1/13/2022 2:30:00 PM 0.07 32.126 0.325 8.07 4.19 14.97
1/13/2022 2:45:00 PM 0.04 32.072 0.325 8.11 4.43 15.05
1/13/2022 3:00:00 PM 0.07 32.126 0.326 8.14 6.51 15.14
1/13/2022 3:15:00 PM 0.08 32.144 0.325 8.15 3.93 15.1
1/13/2022 3:30:00 PM 0.07 32.126 0.325 8.15 4.23 15.03
1/13/2022 3:45:00 PM 0.04 32.072 0.325 8.13 4.52 15.02
1/13/2022 4:00:00 PM 0.06 32.108 0.326 8.15 3.9 15.06
1/13/2022 4:15:00 PM 0.04 32.072 0.326 8.13 4.03 15
1/13/2022 4:30:00 PM 0.03 32.054 0.326 8.14 3.9 15.04
1/13/2022 4:45:00 PM 0.14 32.252 0.326 8.19 3.92 14.98
1/13/2022 5:00:00 PM 0.07 32.126 0.326 8.18 3.89 15.04
1/13/2022 5:15:00 PM 0.07 32.126 0.326 8.2 3.94 15.06
1/13/2022 5:30:00 PM 0.06 32.108 0.326 8.19 3.66 15.01
1/13/2022 5:45:00 PM 0.05 32.09 0.326 8.2 4.06 14.99
1/13/2022 6:00:00 PM 0.06 32.108 0.326 8.2 3.85 14.86
1/13/2022 6:15:00 PM 0.07 32.126 0.326 8.2 3.7 14.84
1/13/2022 6:30:00 PM 0.07 32.126 0.326 8.19 3.91 14.88
1/13/2022 6:45:00 PM 0.07 32.126 0.326 8.19 3.77 14.77
1/13/2022 7:00:00 PM 0.1 32.18 0.326 8.18 4.03 14.83
1/13/2022 7:15:00 PM 0.1 32.18 0.326 8.16 3.89 14.65
1/13/2022 7:30:00 PM 0.13 32.234 0.327 8.17 3.67 14.68
1/13/2022 7:45:00 PM 0.12 32.216 0.326 8.16 3.86 14.73
1/13/2022 8:00:00 PM 0.14 32.252 0.327 8.14 3.79 14.57
1/13/2022 8:15:00 PM 0.2 32.36 0.327 8.15 3.76 14.62
1/13/2022 8:30:00 PM 0.19 32.342 0.327 8.15 3.81 14.55
1/13/2022 8:45:00 PM 0.21 32.378 0.327 8.14 3.94 14.52
1/13/2022 9:00:00 PM 0.25 32.45 0.327 8.14 3.74 14.52
1/13/2022 9:15:00 PM 0.25 32.45 0.327 8.12 4.15 14.44
1/13/2022 9:30:00 PM 0.25 32.45 0.327 8.12 3.95 14.45
1/13/2022 9:45:00 PM 0.25 32.45 0.327 8.11 3.82 14.45
1/13/2022 10:00:00 PM 0.26 32.468 0.327 8.11 4.1 14.45
1/13/2022 10:15:00 PM 0.34 32.612 0.328 8.09 4.03 14.41
1/13/2022 10:30:00 PM 0.44 32.792 0.328 8.1 5.27 14.43
1/13/2022 10:45:00 PM 0.44 32.792 0.328 8.09 4.12 14.38
1/13/2022 11:00:00 PM 0.46 32.828 0.328 8.08 4.04 14.39
1/13/2022 11:15:00 PM 0.49 32.882 0.328 8.08 4.15 14.36
1/13/2022 11:30:00 PM 0.5 32.9 0.328 8.07 3.84 14.34
1/13/2022 11:45:00 PM 0.51 32.918 0.328 8.07 5.44 14.32
1/14/2022 12:00:00 AM 0.52 32.936 0.328 8.06 3.78 14.3
1/14/2022 12:15:00 AM 0.52 32.936 0.328 8.06 4.1 14.28
1/14/2022 12:30:00 AM 0.52 32.936 0.328 8.05 3.96 14.25
1/14/2022 12:45:00 AM 0.53 32.954 0.328 8.04 3.93 14.25
1/14/2022 1:00:00 AM 0.52 32.936 0.328 8.04 3.76 14.24
1/14/2022 1:15:00 AM 0.51 32.918 0.328 8.03 3.96 14.21
1/14/2022 1:30:00 AM 0.5 32.9 0.328 8.03 3.97 14.2
1/14/2022 1:45:00 AM 0.5 32.9 0.328 8.02 4.16 14.19
1/14/2022 2:00:00 AM 0.49 32.882 0.328 8.01 4.23 14.17
1/14/2022 2:15:00 AM 0.48 32.864 0.328 8.02 4.02 14.15
1/14/2022 2:30:00 AM 0.48 32.864 0.328 8 3.93 14.14
1/14/2022 2:45:00 AM 0.47 32.846 0.327 8.01 3.99 14.13
1/14/2022 3:00:00 AM 0.47 32.846 0.327 8.01 3.63 14.1
1/14/2022 3:15:00 AM 0.46 32.828 0.327 8 4.02 14.1
1/14/2022 3:30:00 AM 0.46 32.828 0.327 7.99 3.91 14.07
1/14/2022 3:45:00 AM 0.45 32.81 0.327 7.99 3.92 14.06
1/14/2022 4:00:00 AM 0.45 32.81 0.326 7.99 3.92 14.06
1/14/2022 4:15:00 AM 0.44 32.792 0.326 7.98 3.79 14.04
1/14/2022 4:30:00 AM 0.44 32.792 0.325 7.98 3.99 14.03
1/14/2022 4:45:00 AM 0.44 32.792 0.325 7.98 3.88 14.02
1/14/2022 5:00:00 AM 0.44 32.792 0.325 7.98 3.92 14
1/14/2022 5:15:00 AM 0.44 32.792 0.324 7.97 3.94 13.99
1/14/2022 5:30:00 AM 0.43 32.774 0.324 7.97 3.82 13.98
1/14/2022 5:45:00 AM 0.43 32.774 0.324 7.97 3.68 13.96
1/14/2022 6:00:00 AM 0.43 32.774 0.323 7.97 3.71 13.96
1/14/2022 6:15:00 AM 0.43 32.774 0.323 7.97 4.01 13.95
1/14/2022 6:30:00 AM 0.42 32.756 0.322 7.96 3.9 13.93
1/14/2022 6:45:00 AM 0.43 32.774 0.322 7.96 3.8 13.92
1/14/2022 7:00:00 AM 0.42 32.756 0.321 7.96 3.9 13.91
1/14/2022 7:15:00 AM 0.42 32.756 0.321 7.96 4.11 13.9
1/14/2022 7:30:00 AM 0.42 32.756 0.32 7.95 3.94 13.89
1/14/2022 7:45:00 AM 0.41 32.738 0.32 7.95 3.83 13.87
1/14/2022 8:00:00 AM 0.41 32.738 0.319 7.94 3.99 13.86
1/14/2022 8:15:00 AM 0.41 32.738 0.319 7.94 4.07 13.85
1/14/2022 8:30:00 AM 0.42 32.756 0.318 7.94 3.92 13.85
1/14/2022 8:45:00 AM 0.42 32.756 0.318 7.94 3.71 13.85
1/14/2022 9:00:00 AM 0.42 32.756 0.317 7.94 3.88 13.85
1/14/2022 9:15:00 AM 0.43 32.774 0.317 7.95 3.91 13.87
1/14/2022 9:30:00 AM 0.43 32.774 0.317 7.95 3.86 13.88
1/14/2022 9:45:00 AM 0.43 32.774 0.316 7.95 3.87 13.89
1/14/2022 10:00:00 AM 0.44 32.792 0.316 7.95 3.84 13.92
1/14/2022 10:15:00 AM 0.44 32.792 0.316 7.95 3.95 13.95
1/14/2022 10:30:00 AM 0.45 32.81 0.315 7.96 3.74 13.96
1/14/2022 10:45:00 AM 0.44 32.792 0.315 7.96 3.98 13.97
1/14/2022 11:00:00 AM 0.44 32.792 0.315 7.97 4.08 14
1/14/2022 11:15:00 AM 0.45 32.81 0.315 7.96 6.59 14.04
1/14/2022 11:30:00 AM 0.46 32.828 0.314 7.98 3.9 14.1
1/14/2022 11:45:00 AM 0.47 32.846 0.314 7.99 4.17 14.13
1/14/2022 12:00:00 PM 0.47 32.846 0.314 8 4.16 14.17
1/14/2022 12:15:00 PM 0.47 32.846 0.314 8 4.08 14.21
1/14/2022 12:30:00 PM 0.47 32.846 0.313 8.01 4.04 14.24
1/14/2022 12:45:00 PM 0.48 32.864 0.313 8.02 4.11 14.28
1/14/2022 1:00:00 PM 0.48 32.864 0.313 8.02 3.97 14.31
1/14/2022 1:15:00 PM 0.48 32.864 0.312 8.04 4.15 14.35
1/14/2022 1:30:00 PM 0.5 32.9 0.312 8.05 4.14 14.41
1/14/2022 1:45:00 PM 0.51 32.918 0.312 8.06 4.27 14.45
1/14/2022 2:00:00 PM 0.5 32.9 0.312 8.06 4.37 14.5
1/14/2022 2:15:00 PM 0.51 32.918 0.312 8.08 4.4 14.54
1/14/2022 2:30:00 PM 0.51 32.918 0.311 8.09 4.2 14.58
1/14/2022 2:45:00 PM 0.51 32.918 0.311 8.1 4.15 14.6
1/14/2022 3:00:00 PM 0.51 32.918 0.311 8.11 4.03 14.64
1/14/2022 3:15:00 PM 0.51 32.918 0.311 8.11 4.19 14.66
1/14/2022 3:30:00 PM 0.51 32.918 0.311 8.12 4.16 14.7
1/14/2022 3:45:00 PM 0.49 32.882 0.311 8.13 4.2 14.73
1/14/2022 4:00:00 PM 0.48 32.864 0.311 8.14 4.05 14.74
1/14/2022 4:15:00 PM 0.46 32.828 0.311 8.14 4.16 14.76
1/14/2022 4:30:00 PM 0.45 32.81 0.311 8.15 4.31 14.76
1/14/2022 4:45:00 PM 0.44 32.792 0.312 8.15 4.23 14.77
1/14/2022 5:00:00 PM 0.42 32.756 0.312 8.15 4.27 14.76
1/14/2022 5:15:00 PM 0.4 32.72 0.312 8.15 4.12 14.74
1/14/2022 5:30:00 PM 0.37 32.666 0.312 8.14 4.27 14.72
1/14/2022 5:45:00 PM 0.35 32.63 0.312 8.14 4.05 14.7
1/14/2022 6:00:00 PM 0.32 32.576 0.312 8.13 4.05 14.67
1/14/2022 6:15:00 PM 0.28 32.504 0.312 8.13 4.4 14.64
1/14/2022 6:30:00 PM 0.25 32.45 0.313 8.13 3.86 14.61
1/14/2022 6:45:00 PM 0.23 32.414 0.313 8.11 4.24 14.59
1/14/2022 7:00:00 PM 0.2 32.36 0.313 8.11 4.37 14.56
1/14/2022 7:15:00 PM 0.19 32.342 0.313 8.1 4.63 14.54
1/14/2022 7:30:00 PM 0.17 32.306 0.313 8.1 4.24 14.5
1/14/2022 7:45:00 PM 0.13 32.234 0.313 8.09 4.13 14.48
1/14/2022 8:00:00 PM 0.12 32.216 0.314 8.07 4.41 14.45
1/14/2022 8:15:00 PM 0.1 32.18 0.314 8.08 4.46 14.44
1/14/2022 8:30:00 PM 0.07 32.126 0.314 8.07 4.33 14.42
1/14/2022 8:45:00 PM 0.05 32.09 0.314 8.06 4.23 14.41
1/14/2022 9:00:00 PM 0.03 32.054 0.314 8.05 4.51 14.39
1/14/2022 9:15:00 PM 0 32 0.314 8.06 4.16 14.38
1/14/2022 9:30:00 PM -0.01 31.982 0.315 8.05 4.25 14.38
1/14/2022 9:45:00 PM -0.03 31.946 0.315 8.05 4.5 14.37
1/14/2022 10:00:00 PM -0.05 31.91 0.315 8.04 4.56 14.36
1/14/2022 10:15:00 PM -0.06 31.892 0.315 8.04 6.54 14.36
1/14/2022 10:30:00 PM -0.08 31.856 0.315 8.04 4.53 14.36
1/14/2022 10:45:00 PM -0.09 31.838 0.315 8.04 4.3 14.36
1/14/2022 11:00:00 PM -0.09 31.838 0.315 8.03 4.2 14.35
1/14/2022 11:15:00 PM -0.09 31.838 0.315 8.03 4.31 14.34
1/14/2022 11:30:00 PM -0.09 31.838 0.316 8.02 4.43 14.33
1/14/2022 11:45:00 PM -0.09 31.838 0.316 8.02 4.43 14.33
1/15/2022 12:00:00 AM -0.08 31.856 0.316 8.02 4.37 14.33
1/15/2022 12:15:00 AM -0.09 31.838 0.316 8.01 4.36 14.32
1/15/2022 12:30:00 AM -0.08 31.856 0.317 8.01 4.47 14.31
1/15/2022 12:45:00 AM -0.09 31.838 0.317 8 4.33 14.31
1/15/2022 1:00:00 AM -0.09 31.838 0.317 8 4.28 14.3
1/15/2022 1:15:00 AM -0.09 31.838 0.317 8 4.48 14.29
1/15/2022 1:30:00 AM -0.08 31.856 0.318 7.98 4.46 14.28
1/15/2022 1:45:00 AM -0.08 31.856 0.318 7.98 4.46 14.28
1/15/2022 2:00:00 AM -0.08 31.856 0.318 7.98 4.28 14.27
1/15/2022 2:15:00 AM -0.08 31.856 0.319 7.97 4.44 14.27
1/15/2022 2:30:00 AM -0.08 31.856 0.319 7.97 4.63 14.25
1/15/2022 2:45:00 AM -0.08 31.856 0.319 7.97 4.6 14.25
1/15/2022 3:00:00 AM -0.08 31.856 0.319 7.96 4.52 14.24
1/15/2022 3:15:00 AM -0.08 31.856 0.319 7.96 4.7 14.24
1/15/2022 3:30:00 AM -0.08 31.856 0.32 7.95 4.2 14.24
1/15/2022 3:45:00 AM -0.08 31.856 0.32 7.96 4.39 14.24
1/15/2022 4:00:00 AM -0.08 31.856 0.32 7.96 4.39 14.23
1/15/2022 4:15:00 AM -0.09 31.838 0.32 7.96 4.48 14.24
1/15/2022 4:30:00 AM -0.08 31.856 0.32 7.95 4.21 14.22
1/15/2022 4:45:00 AM -0.08 31.856 0.32 7.94 4.72 14.22
1/15/2022 5:00:00 AM -0.08 31.856 0.32 7.94 4.66 14.23
1/15/2022 5:15:00 AM -0.08 31.856 0.321 7.95 4.4 14.24
1/15/2022 5:30:00 AM -0.08 31.856 0.321 7.94 4.43 14.23
1/15/2022 5:45:00 AM -0.08 31.856 0.321 7.94 4.43 14.24
1/15/2022 6:00:00 AM -0.08 31.856 0.322 7.94 4.24 14.24
1/15/2022 6:15:00 AM -0.08 31.856 0.322 7.94 4.57 14.24
1/15/2022 6:30:00 AM -0.08 31.856 0.322 7.94 4.6 14.24
1/15/2022 6:45:00 AM -0.08 31.856 0.322 7.93 4.49 14.25
1/15/2022 7:00:00 AM -0.08 31.856 0.323 7.93 4.8 14.24
1/15/2022 7:15:00 AM -0.08 31.856 0.323 7.93 4.38 14.25
1/15/2022 7:30:00 AM -0.08 31.856 0.323 7.93 4.45 14.25
1/15/2022 7:45:00 AM -0.09 31.838 0.324 7.93 4.65 14.26
1/15/2022 8:00:00 AM -0.08 31.856 0.324 7.92 4.39 14.27
1/15/2022 8:15:00 AM -0.08 31.856 0.324 7.91 4.48 14.27
1/15/2022 8:30:00 AM -0.08 31.856 0.325 7.91 4.48 14.27
1/15/2022 8:45:00 AM -0.08 31.856 0.325 7.91 4.98 14.29
1/15/2022 9:00:00 AM -0.08 31.856 0.325 7.91 4.76 14.33
1/15/2022 9:15:00 AM -0.08 31.856 0.326 7.91 4.73 14.37
1/15/2022 9:30:00 AM -0.08 31.856 0.326 7.92 4.68 14.41
1/15/2022 9:45:00 AM -0.08 31.856 0.326 7.92 4.76 14.47
1/15/2022 10:00:00 AM -0.08 31.856 0.326 7.93 4.68 14.53
1/15/2022 10:15:00 AM -0.08 31.856 0.326 7.94 4.95 14.59
1/15/2022 10:30:00 AM -0.07 31.874 0.326 7.96 4.85 14.66
1/15/2022 10:45:00 AM -0.07 31.874 0.326 7.97 4.6 14.72
1/15/2022 11:00:00 AM -0.06 31.892 0.326 7.97 4.61 14.76
1/15/2022 11:15:00 AM -0.06 31.892 0.326 7.99 4.42 14.85
1/15/2022 11:30:00 AM -0.06 31.892 0.326 7.99 4.59 14.92
1/15/2022 11:45:00 AM -0.06 31.892 0.327 8.01 4.88 14.98
1/15/2022 12:00:00 PM -0.05 31.91 0.327 8.03 4.57 15.04
1/15/2022 12:15:00 PM -0.05 31.91 0.327 8.04 4.67 15.11
1/15/2022 12:30:00 PM -0.05 31.91 0.327 8.05 4.62 15.14
1/15/2022 12:45:00 PM -0.06 31.892 0.327 8.06 4.53 15.2
1/15/2022 1:00:00 PM -0.06 31.892 0.327 8.07 4.7 15.25
1/15/2022 1:15:00 PM -0.05 31.91 0.327 8.08 4.64 15.3
1/15/2022 1:30:00 PM -0.05 31.91 0.327 8.09 4.77 15.35
1/15/2022 1:45:00 PM -0.05 31.91 0.327 8.11 4.56 15.38
1/15/2022 2:00:00 PM -0.05 31.91 0.327 8.12 4.64 15.45
1/15/2022 2:15:00 PM -0.05 31.91 0.328 8.12 4.55 15.44
1/15/2022 2:30:00 PM -0.05 31.91 0.328 8.14 4.39 15.48
1/15/2022 2:45:00 PM -0.05 31.91 0.328 8.14 4.32 15.52
1/15/2022 3:00:00 PM -0.06 31.892 0.328 8.16 4.34 15.52
1/15/2022 3:15:00 PM -0.06 31.892 0.328 8.17 4.23 15.56
1/15/2022 3:30:00 PM -0.06 31.892 0.328 8.17 4.54 15.63
1/15/2022 3:45:00 PM -0.06 31.892 0.329 8.2 4.44 15.64
1/15/2022 4:00:00 PM -0.07 31.874 0.329 8.21 4.65 15.72
1/15/2022 4:15:00 PM -0.07 31.874 0.329 8.21 4.35 15.73
1/15/2022 4:30:00 PM -0.07 31.874 0.329 8.23 4.23 15.75
1/15/2022 4:45:00 PM -0.07 31.874 0.329 8.23 4.08 15.68
1/15/2022 5:00:00 PM -0.06 31.892 0.33 8.22 5.13 15.65
1/15/2022 5:15:00 PM -0.07 31.874 0.33 8.24 4.34 15.71
1/15/2022 5:30:00 PM -0.06 31.892 0.33 8.24 4.54 15.66
1/15/2022 5:45:00 PM -0.05 31.91 0.33 8.24 4.18 15.66
1/15/2022 6:00:00 PM -0.07 31.874 0.33 8.26 3.99 15.9
1/15/2022 6:15:00 PM -0.06 31.892 0.331 8.26 4.16 15.81
1/15/2022 6:30:00 PM -0.06 31.892 0.331 8.26 3.87 15.79
1/15/2022 6:45:00 PM -0.05 31.91 0.331 8.25 4.12 15.75
1/15/2022 7:00:00 PM -0.05 31.91 0.332 8.25 4.15 15.77
1/15/2022 7:15:00 PM -0.04 31.928 0.332 8.24 4.16 15.76
1/15/2022 7:30:00 PM -0.04 31.928 0.332 8.25 3.99 15.71
1/15/2022 7:45:00 PM -0.04 31.928 0.332 8.24 4.04 15.7
1/15/2022 8:00:00 PM -0.04 31.928 0.332 8.24 3.95 15.65
1/15/2022 8:15:00 PM -0.05 31.91 0.333 8.24 3.82 15.67
1/15/2022 8:30:00 PM -0.05 31.91 0.333 8.24 3.97 15.72
1/15/2022 8:45:00 PM -0.04 31.928 0.333 8.23 3.85 15.63
1/15/2022 9:00:00 PM -0.04 31.928 0.333 8.22 3.97 15.62
1/15/2022 9:15:00 PM -0.05 31.91 0.334 8.23 3.79 15.61
1/15/2022 9:30:00 PM -0.05 31.91 0.334 8.21 3.84 15.63
1/15/2022 9:45:00 PM -0.05 31.91 0.334 8.21 3.87 15.57
1/15/2022 10:00:00 PM -0.05 31.91 0.335 8.2 3.81 15.55
1/15/2022 10:15:00 PM -0.04 31.928 0.335 8.19 3.94 15.5
1/15/2022 10:30:00 PM -0.05 31.91 0.335 8.2 4 15.5
1/15/2022 10:45:00 PM -0.05 31.91 0.336 8.19 4.06 15.47
1/15/2022 11:00:00 PM -0.05 31.91 0.336 8.18 4.03 15.49
1/15/2022 11:15:00 PM -0.05 31.91 0.337 8.19 4.03 15.47
1/15/2022 11:30:00 PM -0.07 31.874 0.338 8.19 4.13 15.42
1/15/2022 11:45:00 PM -0.05 31.91 0.338 8.16 4.04 15.36
1/16/2022 12:00:00 AM -0.04 31.928 0.338 8.16 3.98 15.35
1/16/2022 12:15:00 AM -0.04 31.928 0.339 8.15 3.89 15.29
1/16/2022 12:30:00 AM -0.06 31.892 0.34 8.16 4.44 15.32
1/16/2022 12:45:00 AM -0.05 31.91 0.34 8.15 4.18 15.25
1/16/2022 1:00:00 AM -0.04 31.928 0.34 8.14 4.31 15.24
1/16/2022 1:15:00 AM -0.04 31.928 0.341 8.13 4.57 15.17
1/16/2022 1:30:00 AM -0.04 31.928 0.341 8.12 4.27 15.15
1/16/2022 1:45:00 AM -0.05 31.91 0.342 8.11 4.53 15.14
1/16/2022 2:00:00 AM -0.04 31.928 0.342 8.1 5.33 15.1
1/16/2022 2:15:00 AM -0.04 31.928 0.342 8.1 5.65 15.09
1/16/2022 2:30:00 AM -0.04 31.928 0.342 8.09 4.3 15.09
1/16/2022 2:45:00 AM -0.03 31.946 0.342 8.09 4.08 15.05
1/16/2022 3:00:00 AM -0.05 31.91 0.342 8.08 4.28 15.05
1/16/2022 3:15:00 AM -0.04 31.928 0.343 8.08 4.24 15.08
1/16/2022 3:30:00 AM -0.03 31.946 0.343 8.07 4.09 14.99
1/16/2022 3:45:00 AM -0.05 31.91 0.343 8.07 4.56 15.02
1/16/2022 4:00:00 AM -0.05 31.91 0.343 8.06 4.32 15
1/16/2022 4:15:00 AM -0.05 31.91 0.343 8.05 4.28 15.03
1/16/2022 4:30:00 AM -0.05 31.91 0.343 8.04 4.25 14.97
1/16/2022 4:45:00 AM -0.04 31.928 0.343 8.03 6.02 14.9
1/16/2022 5:00:00 AM -0.05 31.91 0.344 8.02 6.65 14.91
1/16/2022 5:15:00 AM -0.05 31.91 0.344 8.04 6.91 14.92
1/16/2022 5:30:00 AM -0.05 31.91 0.344 8.02 5.75 14.85
1/16/2022 5:45:00 AM -0.05 31.91 0.344 8.02 6.39 14.85
1/16/2022 6:00:00 AM -0.05 31.91 0.344 8.01 5.5 14.81
1/16/2022 6:15:00 AM -0.05 31.91 0.345 8.01 5.64 14.81
1/16/2022 6:30:00 AM -0.06 31.892 0.345 8.01 5.74 14.78
1/16/2022 6:45:00 AM -0.06 31.892 0.345 8.01 5.7 14.82
1/16/2022 7:00:00 AM -0.06 31.892 0.346 7.99 5.87 14.77
1/16/2022 7:15:00 AM -0.06 31.892 0.346 8 4.06 14.84
1/16/2022 7:30:00 AM -0.06 31.892 0.346 7.99 4.28 14.78
1/16/2022 7:45:00 AM -0.06 31.892 0.346 7.99 4.14 14.73
1/16/2022 8:00:00 AM -0.06 31.892 0.347 7.99 4.11 14.72
1/16/2022 8:15:00 AM -0.05 31.91 0.347 7.98 4.18 14.68
1/16/2022 8:30:00 AM -0.06 31.892 0.347 7.97 4.28 14.72
1/16/2022 8:45:00 AM -0.06 31.892 0.348 7.96 4.08 14.69
1/16/2022 9:00:00 AM -0.06 31.892 0.348 7.96 4.12 14.72
1/16/2022 9:15:00 AM -0.05 31.91 0.348 7.95 4.15 14.65
1/16/2022 9:30:00 AM -0.06 31.892 0.348 7.96 4.27 14.65
1/16/2022 9:45:00 AM -0.05 31.91 0.349 7.95 4.12 14.56
1/16/2022 10:00:00 AM -0.05 31.91 0.349 7.95 4.24 14.59